<?xml version="1.0" encoding="UTF-8" standalone="no" ?>
<gpx xmlns="http://www.topografix.com/GPX/1/1" xmlns:xsi="http://www.w3.org/2001/XMLSchema-instance" xsi:schemaLocation="http://www.topografix.com/GPX/1/1 http://www.topografix.com/GPX/1/1/gpx.xsd" version="1.1" creator="VisuGPX - https://www.visugpx.com">
  <metadata>
    <name>2019-07-30 16:58</name>
    <desc><![CDATA[vélo Barjac Bessas Beaulieu St André de cruzieres  St Sauveur de cruzieres]]></desc>
  </metadata>
  <trk>
    <name><![CDATA[2019-07-30 16:58]]></name>
    <desc><![CDATA[<p>Heure de départ: 07/30/2019 16:59<br/>Heure d'arrivée: 07/30/2019 18:30<br/>Distance: 35 km (01:31)<br/>Temps déplacement: 01:30<br/>Vitesse moyenne: 22,82 km/h<br/>Vitesse moyenne mouv.: 23,09 km/h<br/>Vitesse Max.: 43,47 km/h<br/>Altitude minimale: 115 m<br/>Altitude maximale: 364 m<br/>Vitesse de montée: 579,9 m/h<br/>Vitesse de descente: -624,8 m/h<br/>Gain d'altitude: 437 m<br/>Perte d'altitude: -437 m<br/>Temps de montée: 00:45<br/>Temps de descente: 00:41<br/></p><hr align="center" width="480" style="height: 2px; width: 517px"/>]]></desc>
    <trkseg>
      <trkpt lat="44.30688" lon="4.3431">
        <ele>136.04</ele>
        <time>2019-07-30T14:59:01Z</time>
      </trkpt>
      <trkpt lat="44.30668" lon="4.34312">
        <ele>145.64</ele>
        <time>2019-07-30T14:59:41Z</time>
      </trkpt>
      <trkpt lat="44.30649" lon="4.34308">
        <ele>146</ele>
        <time>2019-07-30T14:59:49Z</time>
      </trkpt>
      <trkpt lat="44.30632" lon="4.34296">
        <ele>146.41</ele>
        <time>2019-07-30T14:59:55Z</time>
      </trkpt>
      <trkpt lat="44.30614" lon="4.34284">
        <ele>146.2</ele>
        <time>2019-07-30T15:00:01Z</time>
      </trkpt>
      <trkpt lat="44.30606" lon="4.34259">
        <ele>145.55</ele>
        <time>2019-07-30T15:00:11Z</time>
      </trkpt>
      <trkpt lat="44.30597" lon="4.3428">
        <ele>143.27</ele>
        <time>2019-07-30T15:00:32Z</time>
      </trkpt>
      <trkpt lat="44.30579" lon="4.34286">
        <ele>142.17</ele>
        <time>2019-07-30T15:00:45Z</time>
      </trkpt>
      <trkpt lat="44.3056" lon="4.34281">
        <ele>141.5</ele>
        <time>2019-07-30T15:00:53Z</time>
      </trkpt>
      <trkpt lat="44.30543" lon="4.3426">
        <ele>142.7</ele>
        <time>2019-07-30T15:00:55Z</time>
      </trkpt>
      <trkpt lat="44.30522" lon="4.3426">
        <ele>142.99</ele>
        <time>2019-07-30T15:00:59Z</time>
      </trkpt>
      <trkpt lat="44.30519" lon="4.34288">
        <ele>143.02</ele>
        <time>2019-07-30T15:01:04Z</time>
      </trkpt>
      <trkpt lat="44.30539" lon="4.34296">
        <ele>144.44</ele>
        <time>2019-07-30T15:01:08Z</time>
      </trkpt>
      <trkpt lat="44.30562" lon="4.34295">
        <ele>144.52</ele>
        <time>2019-07-30T15:01:12Z</time>
      </trkpt>
      <trkpt lat="44.30585" lon="4.34305">
        <ele>143.15</ele>
        <time>2019-07-30T15:01:16Z</time>
      </trkpt>
      <trkpt lat="44.30606" lon="4.34313">
        <ele>140.76</ele>
        <time>2019-07-30T15:01:20Z</time>
      </trkpt>
      <trkpt lat="44.30628" lon="4.34324">
        <ele>136.6</ele>
        <time>2019-07-30T15:01:24Z</time>
      </trkpt>
      <trkpt lat="44.30651" lon="4.34331">
        <ele>135.56</ele>
        <time>2019-07-30T15:01:28Z</time>
      </trkpt>
      <trkpt lat="44.30669" lon="4.34339">
        <ele>135.8</ele>
        <time>2019-07-30T15:01:31Z</time>
      </trkpt>
      <trkpt lat="44.30688" lon="4.34356">
        <ele>135.48</ele>
        <time>2019-07-30T15:01:35Z</time>
      </trkpt>
      <trkpt lat="44.30702" lon="4.34373">
        <ele>139.16</ele>
        <time>2019-07-30T15:01:39Z</time>
      </trkpt>
      <trkpt lat="44.3072" lon="4.34362">
        <ele>139.95</ele>
        <time>2019-07-30T15:01:43Z</time>
      </trkpt>
      <trkpt lat="44.30718" lon="4.34329">
        <ele>139.2</ele>
        <time>2019-07-30T15:01:47Z</time>
      </trkpt>
      <trkpt lat="44.30727" lon="4.34304">
        <ele>138.65</ele>
        <time>2019-07-30T15:01:50Z</time>
      </trkpt>
      <trkpt lat="44.3074" lon="4.34281">
        <ele>138.57</ele>
        <time>2019-07-30T15:01:53Z</time>
      </trkpt>
      <trkpt lat="44.30752" lon="4.34259">
        <ele>137.68</ele>
        <time>2019-07-30T15:01:56Z</time>
      </trkpt>
      <trkpt lat="44.30763" lon="4.34237">
        <ele>137.41</ele>
        <time>2019-07-30T15:01:59Z</time>
      </trkpt>
      <trkpt lat="44.30774" lon="4.34216">
        <ele>137.98</ele>
        <time>2019-07-30T15:02:02Z</time>
      </trkpt>
      <trkpt lat="44.30787" lon="4.34198">
        <ele>137.97</ele>
        <time>2019-07-30T15:02:05Z</time>
      </trkpt>
      <trkpt lat="44.30806" lon="4.3418">
        <ele>138.23</ele>
        <time>2019-07-30T15:02:09Z</time>
      </trkpt>
      <trkpt lat="44.30824" lon="4.3416">
        <ele>138.58</ele>
        <time>2019-07-30T15:02:13Z</time>
      </trkpt>
      <trkpt lat="44.30842" lon="4.3414">
        <ele>139.6</ele>
        <time>2019-07-30T15:02:17Z</time>
      </trkpt>
      <trkpt lat="44.30858" lon="4.3412">
        <ele>140.34</ele>
        <time>2019-07-30T15:02:21Z</time>
      </trkpt>
      <trkpt lat="44.30874" lon="4.34099">
        <ele>142.65</ele>
        <time>2019-07-30T15:02:25Z</time>
      </trkpt>
      <trkpt lat="44.30889" lon="4.34078">
        <ele>143.92</ele>
        <time>2019-07-30T15:02:29Z</time>
      </trkpt>
      <trkpt lat="44.30902" lon="4.34054">
        <ele>145.35</ele>
        <time>2019-07-30T15:02:33Z</time>
      </trkpt>
      <trkpt lat="44.30914" lon="4.34025">
        <ele>144.3</ele>
        <time>2019-07-30T15:02:37Z</time>
      </trkpt>
      <trkpt lat="44.30918" lon="4.33998">
        <ele>142.51</ele>
        <time>2019-07-30T15:02:40Z</time>
      </trkpt>
      <trkpt lat="44.3092" lon="4.33968">
        <ele>140.9</ele>
        <time>2019-07-30T15:02:43Z</time>
      </trkpt>
      <trkpt lat="44.30929" lon="4.33942">
        <ele>140.32</ele>
        <time>2019-07-30T15:02:46Z</time>
      </trkpt>
      <trkpt lat="44.30943" lon="4.33923">
        <ele>140.48</ele>
        <time>2019-07-30T15:02:49Z</time>
      </trkpt>
      <trkpt lat="44.30957" lon="4.33904">
        <ele>139.16</ele>
        <time>2019-07-30T15:02:52Z</time>
      </trkpt>
      <trkpt lat="44.30972" lon="4.33884">
        <ele>138.43</ele>
        <time>2019-07-30T15:02:55Z</time>
      </trkpt>
      <trkpt lat="44.30985" lon="4.33865">
        <ele>138.58</ele>
        <time>2019-07-30T15:02:58Z</time>
      </trkpt>
      <trkpt lat="44.30999" lon="4.33846">
        <ele>137.95</ele>
        <time>2019-07-30T15:03:01Z</time>
      </trkpt>
      <trkpt lat="44.31012" lon="4.33826">
        <ele>137.59</ele>
        <time>2019-07-30T15:03:04Z</time>
      </trkpt>
      <trkpt lat="44.31023" lon="4.33804">
        <ele>138.55</ele>
        <time>2019-07-30T15:03:07Z</time>
      </trkpt>
      <trkpt lat="44.31033" lon="4.33781">
        <ele>138.85</ele>
        <time>2019-07-30T15:03:10Z</time>
      </trkpt>
      <trkpt lat="44.31042" lon="4.33758">
        <ele>139.62</ele>
        <time>2019-07-30T15:03:13Z</time>
      </trkpt>
      <trkpt lat="44.31054" lon="4.33729">
        <ele>140.36</ele>
        <time>2019-07-30T15:03:17Z</time>
      </trkpt>
      <trkpt lat="44.31063" lon="4.33707">
        <ele>140.72</ele>
        <time>2019-07-30T15:03:20Z</time>
      </trkpt>
      <trkpt lat="44.31074" lon="4.33678">
        <ele>140.69</ele>
        <time>2019-07-30T15:03:24Z</time>
      </trkpt>
      <trkpt lat="44.31086" lon="4.33649">
        <ele>140.54</ele>
        <time>2019-07-30T15:03:28Z</time>
      </trkpt>
      <trkpt lat="44.31095" lon="4.33627">
        <ele>140.33</ele>
        <time>2019-07-30T15:03:31Z</time>
      </trkpt>
      <trkpt lat="44.31106" lon="4.33598">
        <ele>140.48</ele>
        <time>2019-07-30T15:03:35Z</time>
      </trkpt>
      <trkpt lat="44.31117" lon="4.33569">
        <ele>140.59</ele>
        <time>2019-07-30T15:03:39Z</time>
      </trkpt>
      <trkpt lat="44.31125" lon="4.33546">
        <ele>140.14</ele>
        <time>2019-07-30T15:03:42Z</time>
      </trkpt>
      <trkpt lat="44.31132" lon="4.33523">
        <ele>139.96</ele>
        <time>2019-07-30T15:03:45Z</time>
      </trkpt>
      <trkpt lat="44.3114" lon="4.33492">
        <ele>139.21</ele>
        <time>2019-07-30T15:03:49Z</time>
      </trkpt>
      <trkpt lat="44.31148" lon="4.33461">
        <ele>138.29</ele>
        <time>2019-07-30T15:03:53Z</time>
      </trkpt>
      <trkpt lat="44.31157" lon="4.33431">
        <ele>138.76</ele>
        <time>2019-07-30T15:03:57Z</time>
      </trkpt>
      <trkpt lat="44.31166" lon="4.33401">
        <ele>140.08</ele>
        <time>2019-07-30T15:04:01Z</time>
      </trkpt>
      <trkpt lat="44.31176" lon="4.33371">
        <ele>140.03</ele>
        <time>2019-07-30T15:04:05Z</time>
      </trkpt>
      <trkpt lat="44.31187" lon="4.33342">
        <ele>139.51</ele>
        <time>2019-07-30T15:04:09Z</time>
      </trkpt>
      <trkpt lat="44.312" lon="4.33316">
        <ele>139.75</ele>
        <time>2019-07-30T15:04:13Z</time>
      </trkpt>
      <trkpt lat="44.31213" lon="4.33293">
        <ele>140.89</ele>
        <time>2019-07-30T15:04:17Z</time>
      </trkpt>
      <trkpt lat="44.31228" lon="4.33271">
        <ele>141.49</ele>
        <time>2019-07-30T15:04:21Z</time>
      </trkpt>
      <trkpt lat="44.31244" lon="4.3325">
        <ele>141.54</ele>
        <time>2019-07-30T15:04:25Z</time>
      </trkpt>
      <trkpt lat="44.31261" lon="4.3323">
        <ele>140.95</ele>
        <time>2019-07-30T15:04:29Z</time>
      </trkpt>
      <trkpt lat="44.31277" lon="4.3321">
        <ele>140.62</ele>
        <time>2019-07-30T15:04:33Z</time>
      </trkpt>
      <trkpt lat="44.31294" lon="4.33189">
        <ele>139.15</ele>
        <time>2019-07-30T15:04:37Z</time>
      </trkpt>
      <trkpt lat="44.31312" lon="4.33167">
        <ele>137.74</ele>
        <time>2019-07-30T15:04:41Z</time>
      </trkpt>
      <trkpt lat="44.31331" lon="4.33147">
        <ele>137.08</ele>
        <time>2019-07-30T15:04:45Z</time>
      </trkpt>
      <trkpt lat="44.3135" lon="4.33127">
        <ele>136.08</ele>
        <time>2019-07-30T15:04:49Z</time>
      </trkpt>
      <trkpt lat="44.31368" lon="4.33107">
        <ele>135.95</ele>
        <time>2019-07-30T15:04:53Z</time>
      </trkpt>
      <trkpt lat="44.31386" lon="4.33086">
        <ele>135.6</ele>
        <time>2019-07-30T15:04:57Z</time>
      </trkpt>
      <trkpt lat="44.31403" lon="4.33066">
        <ele>134.84</ele>
        <time>2019-07-30T15:05:01Z</time>
      </trkpt>
      <trkpt lat="44.3142" lon="4.33048">
        <ele>135.41</ele>
        <time>2019-07-30T15:05:05Z</time>
      </trkpt>
      <trkpt lat="44.31437" lon="4.33028">
        <ele>135.75</ele>
        <time>2019-07-30T15:05:09Z</time>
      </trkpt>
      <trkpt lat="44.31454" lon="4.33009">
        <ele>135.29</ele>
        <time>2019-07-30T15:05:13Z</time>
      </trkpt>
      <trkpt lat="44.3147" lon="4.3299">
        <ele>135.28</ele>
        <time>2019-07-30T15:05:17Z</time>
      </trkpt>
      <trkpt lat="44.31488" lon="4.3297">
        <ele>135.77</ele>
        <time>2019-07-30T15:05:21Z</time>
      </trkpt>
      <trkpt lat="44.31506" lon="4.3295">
        <ele>136.29</ele>
        <time>2019-07-30T15:05:25Z</time>
      </trkpt>
      <trkpt lat="44.31523" lon="4.3293">
        <ele>135.68</ele>
        <time>2019-07-30T15:05:29Z</time>
      </trkpt>
      <trkpt lat="44.31541" lon="4.3291">
        <ele>135.2</ele>
        <time>2019-07-30T15:05:33Z</time>
      </trkpt>
      <trkpt lat="44.31559" lon="4.32891">
        <ele>135.7</ele>
        <time>2019-07-30T15:05:37Z</time>
      </trkpt>
      <trkpt lat="44.31576" lon="4.32872">
        <ele>135.85</ele>
        <time>2019-07-30T15:05:41Z</time>
      </trkpt>
      <trkpt lat="44.31593" lon="4.32854">
        <ele>136.21</ele>
        <time>2019-07-30T15:05:45Z</time>
      </trkpt>
      <trkpt lat="44.3161" lon="4.32837">
        <ele>137.22</ele>
        <time>2019-07-30T15:05:49Z</time>
      </trkpt>
      <trkpt lat="44.31629" lon="4.32823">
        <ele>138.54</ele>
        <time>2019-07-30T15:05:53Z</time>
      </trkpt>
      <trkpt lat="44.31647" lon="4.32812">
        <ele>139.92</ele>
        <time>2019-07-30T15:05:57Z</time>
      </trkpt>
      <trkpt lat="44.31666" lon="4.32803">
        <ele>140.9</ele>
        <time>2019-07-30T15:06:01Z</time>
      </trkpt>
      <trkpt lat="44.31686" lon="4.32796">
        <ele>141.32</ele>
        <time>2019-07-30T15:06:05Z</time>
      </trkpt>
      <trkpt lat="44.31709" lon="4.32788">
        <ele>139.97</ele>
        <time>2019-07-30T15:06:09Z</time>
      </trkpt>
      <trkpt lat="44.31732" lon="4.32779">
        <ele>140.41</ele>
        <time>2019-07-30T15:06:13Z</time>
      </trkpt>
      <trkpt lat="44.31754" lon="4.32771">
        <ele>140.05</ele>
        <time>2019-07-30T15:06:17Z</time>
      </trkpt>
      <trkpt lat="44.31777" lon="4.32762">
        <ele>140.37</ele>
        <time>2019-07-30T15:06:21Z</time>
      </trkpt>
      <trkpt lat="44.31795" lon="4.32755">
        <ele>139.66</ele>
        <time>2019-07-30T15:06:24Z</time>
      </trkpt>
      <trkpt lat="44.31817" lon="4.32746">
        <ele>140.01</ele>
        <time>2019-07-30T15:06:28Z</time>
      </trkpt>
      <trkpt lat="44.31839" lon="4.32737">
        <ele>140.3</ele>
        <time>2019-07-30T15:06:32Z</time>
      </trkpt>
      <trkpt lat="44.31861" lon="4.32729">
        <ele>140.97</ele>
        <time>2019-07-30T15:06:36Z</time>
      </trkpt>
      <trkpt lat="44.31879" lon="4.32725">
        <ele>141.1</ele>
        <time>2019-07-30T15:06:39Z</time>
      </trkpt>
      <trkpt lat="44.31903" lon="4.32719">
        <ele>140.5</ele>
        <time>2019-07-30T15:06:43Z</time>
      </trkpt>
      <trkpt lat="44.31926" lon="4.32714">
        <ele>140.47</ele>
        <time>2019-07-30T15:06:47Z</time>
      </trkpt>
      <trkpt lat="44.3195" lon="4.32709">
        <ele>140.81</ele>
        <time>2019-07-30T15:06:51Z</time>
      </trkpt>
      <trkpt lat="44.31972" lon="4.32703">
        <ele>140.74</ele>
        <time>2019-07-30T15:06:55Z</time>
      </trkpt>
      <trkpt lat="44.31992" lon="4.32686">
        <ele>140.72</ele>
        <time>2019-07-30T15:06:59Z</time>
      </trkpt>
      <trkpt lat="44.32009" lon="4.32663">
        <ele>140.45</ele>
        <time>2019-07-30T15:07:03Z</time>
      </trkpt>
      <trkpt lat="44.32025" lon="4.32639">
        <ele>140.7</ele>
        <time>2019-07-30T15:07:07Z</time>
      </trkpt>
      <trkpt lat="44.32041" lon="4.32616">
        <ele>140.46</ele>
        <time>2019-07-30T15:07:11Z</time>
      </trkpt>
      <trkpt lat="44.32057" lon="4.32592">
        <ele>141.68</ele>
        <time>2019-07-30T15:07:15Z</time>
      </trkpt>
      <trkpt lat="44.32073" lon="4.3257">
        <ele>142.34</ele>
        <time>2019-07-30T15:07:19Z</time>
      </trkpt>
      <trkpt lat="44.32088" lon="4.32547">
        <ele>143.1</ele>
        <time>2019-07-30T15:07:23Z</time>
      </trkpt>
      <trkpt lat="44.32102" lon="4.32526">
        <ele>144.09</ele>
        <time>2019-07-30T15:07:27Z</time>
      </trkpt>
      <trkpt lat="44.32116" lon="4.32506">
        <ele>145.32</ele>
        <time>2019-07-30T15:07:31Z</time>
      </trkpt>
      <trkpt lat="44.32129" lon="4.32486">
        <ele>146.89</ele>
        <time>2019-07-30T15:07:35Z</time>
      </trkpt>
      <trkpt lat="44.32141" lon="4.32466">
        <ele>148.85</ele>
        <time>2019-07-30T15:07:39Z</time>
      </trkpt>
      <trkpt lat="44.32156" lon="4.32442">
        <ele>150.56</ele>
        <time>2019-07-30T15:07:44Z</time>
      </trkpt>
      <trkpt lat="44.32171" lon="4.32419">
        <ele>151.78</ele>
        <time>2019-07-30T15:07:49Z</time>
      </trkpt>
      <trkpt lat="44.32183" lon="4.32399">
        <ele>152.45</ele>
        <time>2019-07-30T15:07:53Z</time>
      </trkpt>
      <trkpt lat="44.32195" lon="4.32379">
        <ele>153.6</ele>
        <time>2019-07-30T15:07:57Z</time>
      </trkpt>
      <trkpt lat="44.32208" lon="4.32359">
        <ele>154.47</ele>
        <time>2019-07-30T15:08:01Z</time>
      </trkpt>
      <trkpt lat="44.32222" lon="4.32337">
        <ele>154.84</ele>
        <time>2019-07-30T15:08:05Z</time>
      </trkpt>
      <trkpt lat="44.32238" lon="4.32312">
        <ele>155.45</ele>
        <time>2019-07-30T15:08:09Z</time>
      </trkpt>
      <trkpt lat="44.32253" lon="4.32288">
        <ele>155.72</ele>
        <time>2019-07-30T15:08:13Z</time>
      </trkpt>
      <trkpt lat="44.32269" lon="4.32265">
        <ele>156.04</ele>
        <time>2019-07-30T15:08:17Z</time>
      </trkpt>
      <trkpt lat="44.32285" lon="4.32242">
        <ele>156.82</ele>
        <time>2019-07-30T15:08:21Z</time>
      </trkpt>
      <trkpt lat="44.32299" lon="4.32219">
        <ele>158.17</ele>
        <time>2019-07-30T15:08:25Z</time>
      </trkpt>
      <trkpt lat="44.32316" lon="4.32201">
        <ele>158.67</ele>
        <time>2019-07-30T15:08:29Z</time>
      </trkpt>
      <trkpt lat="44.32335" lon="4.32195">
        <ele>159.53</ele>
        <time>2019-07-30T15:08:33Z</time>
      </trkpt>
      <trkpt lat="44.32357" lon="4.32192">
        <ele>159.9</ele>
        <time>2019-07-30T15:08:37Z</time>
      </trkpt>
      <trkpt lat="44.32377" lon="4.3219">
        <ele>160.73</ele>
        <time>2019-07-30T15:08:41Z</time>
      </trkpt>
      <trkpt lat="44.32397" lon="4.32182">
        <ele>161.82</ele>
        <time>2019-07-30T15:08:45Z</time>
      </trkpt>
      <trkpt lat="44.32417" lon="4.3217">
        <ele>161.53</ele>
        <time>2019-07-30T15:08:49Z</time>
      </trkpt>
      <trkpt lat="44.32437" lon="4.32155">
        <ele>161.84</ele>
        <time>2019-07-30T15:08:53Z</time>
      </trkpt>
      <trkpt lat="44.32457" lon="4.32141">
        <ele>162.03</ele>
        <time>2019-07-30T15:08:57Z</time>
      </trkpt>
      <trkpt lat="44.32477" lon="4.32127">
        <ele>163.31</ele>
        <time>2019-07-30T15:09:01Z</time>
      </trkpt>
      <trkpt lat="44.32497" lon="4.32113">
        <ele>163.37</ele>
        <time>2019-07-30T15:09:05Z</time>
      </trkpt>
      <trkpt lat="44.32518" lon="4.321">
        <ele>163.69</ele>
        <time>2019-07-30T15:09:09Z</time>
      </trkpt>
      <trkpt lat="44.32539" lon="4.32086">
        <ele>163.78</ele>
        <time>2019-07-30T15:09:13Z</time>
      </trkpt>
      <trkpt lat="44.32558" lon="4.32073">
        <ele>164.65</ele>
        <time>2019-07-30T15:09:17Z</time>
      </trkpt>
      <trkpt lat="44.32577" lon="4.32061">
        <ele>165.02</ele>
        <time>2019-07-30T15:09:21Z</time>
      </trkpt>
      <trkpt lat="44.32595" lon="4.32048">
        <ele>165.19</ele>
        <time>2019-07-30T15:09:25Z</time>
      </trkpt>
      <trkpt lat="44.32615" lon="4.32034">
        <ele>165.64</ele>
        <time>2019-07-30T15:09:29Z</time>
      </trkpt>
      <trkpt lat="44.32636" lon="4.3202">
        <ele>165.99</ele>
        <time>2019-07-30T15:09:33Z</time>
      </trkpt>
      <trkpt lat="44.32653" lon="4.32009">
        <ele>166.08</ele>
        <time>2019-07-30T15:09:36Z</time>
      </trkpt>
      <trkpt lat="44.32674" lon="4.31997">
        <ele>165.73</ele>
        <time>2019-07-30T15:09:40Z</time>
      </trkpt>
      <trkpt lat="44.32696" lon="4.31983">
        <ele>165.09</ele>
        <time>2019-07-30T15:09:44Z</time>
      </trkpt>
      <trkpt lat="44.32713" lon="4.31972">
        <ele>165.29</ele>
        <time>2019-07-30T15:09:47Z</time>
      </trkpt>
      <trkpt lat="44.3273" lon="4.31961">
        <ele>164.72</ele>
        <time>2019-07-30T15:09:50Z</time>
      </trkpt>
      <trkpt lat="44.32747" lon="4.31949">
        <ele>164.14</ele>
        <time>2019-07-30T15:09:53Z</time>
      </trkpt>
      <trkpt lat="44.32768" lon="4.31936">
        <ele>162.81</ele>
        <time>2019-07-30T15:09:57Z</time>
      </trkpt>
      <trkpt lat="44.32789" lon="4.31922">
        <ele>163.16</ele>
        <time>2019-07-30T15:10:01Z</time>
      </trkpt>
      <trkpt lat="44.32808" lon="4.31909">
        <ele>163.83</ele>
        <time>2019-07-30T15:10:05Z</time>
      </trkpt>
      <trkpt lat="44.32827" lon="4.31897">
        <ele>164.5</ele>
        <time>2019-07-30T15:10:09Z</time>
      </trkpt>
      <trkpt lat="44.32845" lon="4.31885">
        <ele>165.44</ele>
        <time>2019-07-30T15:10:13Z</time>
      </trkpt>
      <trkpt lat="44.32864" lon="4.31873">
        <ele>166.32</ele>
        <time>2019-07-30T15:10:17Z</time>
      </trkpt>
      <trkpt lat="44.32882" lon="4.31861">
        <ele>166.59</ele>
        <time>2019-07-30T15:10:21Z</time>
      </trkpt>
      <trkpt lat="44.329" lon="4.31848">
        <ele>167.13</ele>
        <time>2019-07-30T15:10:25Z</time>
      </trkpt>
      <trkpt lat="44.3292" lon="4.31836">
        <ele>167.48</ele>
        <time>2019-07-30T15:10:29Z</time>
      </trkpt>
      <trkpt lat="44.3294" lon="4.31824">
        <ele>167.87</ele>
        <time>2019-07-30T15:10:33Z</time>
      </trkpt>
      <trkpt lat="44.32961" lon="4.31809">
        <ele>167.83</ele>
        <time>2019-07-30T15:10:37Z</time>
      </trkpt>
      <trkpt lat="44.32982" lon="4.31794">
        <ele>167.9</ele>
        <time>2019-07-30T15:10:41Z</time>
      </trkpt>
      <trkpt lat="44.33003" lon="4.3178">
        <ele>166.97</ele>
        <time>2019-07-30T15:10:45Z</time>
      </trkpt>
      <trkpt lat="44.33019" lon="4.31767">
        <ele>166.03</ele>
        <time>2019-07-30T15:10:48Z</time>
      </trkpt>
      <trkpt lat="44.33035" lon="4.31752">
        <ele>165.63</ele>
        <time>2019-07-30T15:10:51Z</time>
      </trkpt>
      <trkpt lat="44.33052" lon="4.31731">
        <ele>166.02</ele>
        <time>2019-07-30T15:10:55Z</time>
      </trkpt>
      <trkpt lat="44.33068" lon="4.31709">
        <ele>166.25</ele>
        <time>2019-07-30T15:10:59Z</time>
      </trkpt>
      <trkpt lat="44.33085" lon="4.31686">
        <ele>165.32</ele>
        <time>2019-07-30T15:11:03Z</time>
      </trkpt>
      <trkpt lat="44.33099" lon="4.31667">
        <ele>165.63</ele>
        <time>2019-07-30T15:11:06Z</time>
      </trkpt>
      <trkpt lat="44.33115" lon="4.31644">
        <ele>166.05</ele>
        <time>2019-07-30T15:11:10Z</time>
      </trkpt>
      <trkpt lat="44.33122" lon="4.31615">
        <ele>167.25</ele>
        <time>2019-07-30T15:11:14Z</time>
      </trkpt>
      <trkpt lat="44.33113" lon="4.3159">
        <ele>168.68</ele>
        <time>2019-07-30T15:11:18Z</time>
      </trkpt>
      <trkpt lat="44.33098" lon="4.31575">
        <ele>170.3</ele>
        <time>2019-07-30T15:11:22Z</time>
      </trkpt>
      <trkpt lat="44.33083" lon="4.31553">
        <ele>171.54</ele>
        <time>2019-07-30T15:11:27Z</time>
      </trkpt>
      <trkpt lat="44.33085" lon="4.31526">
        <ele>172.93</ele>
        <time>2019-07-30T15:11:32Z</time>
      </trkpt>
      <trkpt lat="44.331" lon="4.31508">
        <ele>173.23</ele>
        <time>2019-07-30T15:11:36Z</time>
      </trkpt>
      <trkpt lat="44.33119" lon="4.31497">
        <ele>174.13</ele>
        <time>2019-07-30T15:11:40Z</time>
      </trkpt>
      <trkpt lat="44.33139" lon="4.31485">
        <ele>174.26</ele>
        <time>2019-07-30T15:11:44Z</time>
      </trkpt>
      <trkpt lat="44.3316" lon="4.31473">
        <ele>176.14</ele>
        <time>2019-07-30T15:11:49Z</time>
      </trkpt>
      <trkpt lat="44.33178" lon="4.31459">
        <ele>176.98</ele>
        <time>2019-07-30T15:11:52Z</time>
      </trkpt>
      <trkpt lat="44.33197" lon="4.31446">
        <ele>177.51</ele>
        <time>2019-07-30T15:11:56Z</time>
      </trkpt>
      <trkpt lat="44.33215" lon="4.31436">
        <ele>178.06</ele>
        <time>2019-07-30T15:12:00Z</time>
      </trkpt>
      <trkpt lat="44.33233" lon="4.31424">
        <ele>178.76</ele>
        <time>2019-07-30T15:12:04Z</time>
      </trkpt>
      <trkpt lat="44.33252" lon="4.31412">
        <ele>179.1</ele>
        <time>2019-07-30T15:12:08Z</time>
      </trkpt>
      <trkpt lat="44.33272" lon="4.31404">
        <ele>179.47</ele>
        <time>2019-07-30T15:12:12Z</time>
      </trkpt>
      <trkpt lat="44.33292" lon="4.31396">
        <ele>180.11</ele>
        <time>2019-07-30T15:12:16Z</time>
      </trkpt>
      <trkpt lat="44.33311" lon="4.3139">
        <ele>180.94</ele>
        <time>2019-07-30T15:12:20Z</time>
      </trkpt>
      <trkpt lat="44.3333" lon="4.31384">
        <ele>182.69</ele>
        <time>2019-07-30T15:12:24Z</time>
      </trkpt>
      <trkpt lat="44.33349" lon="4.31376">
        <ele>184.54</ele>
        <time>2019-07-30T15:12:29Z</time>
      </trkpt>
      <trkpt lat="44.33364" lon="4.31353">
        <ele>186.13</ele>
        <time>2019-07-30T15:12:35Z</time>
      </trkpt>
      <trkpt lat="44.33373" lon="4.31326">
        <ele>188.13</ele>
        <time>2019-07-30T15:12:40Z</time>
      </trkpt>
      <trkpt lat="44.33383" lon="4.31297">
        <ele>189.85</ele>
        <time>2019-07-30T15:12:45Z</time>
      </trkpt>
      <trkpt lat="44.33391" lon="4.31273">
        <ele>191.17</ele>
        <time>2019-07-30T15:12:49Z</time>
      </trkpt>
      <trkpt lat="44.334" lon="4.31249">
        <ele>192.11</ele>
        <time>2019-07-30T15:12:53Z</time>
      </trkpt>
      <trkpt lat="44.3341" lon="4.31222">
        <ele>191.54</ele>
        <time>2019-07-30T15:12:57Z</time>
      </trkpt>
      <trkpt lat="44.33421" lon="4.31194">
        <ele>191.96</ele>
        <time>2019-07-30T15:13:00Z</time>
      </trkpt>
      <trkpt lat="44.33432" lon="4.31168">
        <ele>191.73</ele>
        <time>2019-07-30T15:13:04Z</time>
      </trkpt>
      <trkpt lat="44.33444" lon="4.3114">
        <ele>191.61</ele>
        <time>2019-07-30T15:13:08Z</time>
      </trkpt>
      <trkpt lat="44.33457" lon="4.31113">
        <ele>192.01</ele>
        <time>2019-07-30T15:13:12Z</time>
      </trkpt>
      <trkpt lat="44.33471" lon="4.31086">
        <ele>192.23</ele>
        <time>2019-07-30T15:13:16Z</time>
      </trkpt>
      <trkpt lat="44.33486" lon="4.31065">
        <ele>193.34</ele>
        <time>2019-07-30T15:13:20Z</time>
      </trkpt>
      <trkpt lat="44.33503" lon="4.31044">
        <ele>194.12</ele>
        <time>2019-07-30T15:13:24Z</time>
      </trkpt>
      <trkpt lat="44.33519" lon="4.31021">
        <ele>195.05</ele>
        <time>2019-07-30T15:13:28Z</time>
      </trkpt>
      <trkpt lat="44.33535" lon="4.30998">
        <ele>195.27</ele>
        <time>2019-07-30T15:13:32Z</time>
      </trkpt>
      <trkpt lat="44.33552" lon="4.30975">
        <ele>195.74</ele>
        <time>2019-07-30T15:13:36Z</time>
      </trkpt>
      <trkpt lat="44.33568" lon="4.30952">
        <ele>196.51</ele>
        <time>2019-07-30T15:13:40Z</time>
      </trkpt>
      <trkpt lat="44.33584" lon="4.3093">
        <ele>197.64</ele>
        <time>2019-07-30T15:13:44Z</time>
      </trkpt>
      <trkpt lat="44.33599" lon="4.30908">
        <ele>198.75</ele>
        <time>2019-07-30T15:13:48Z</time>
      </trkpt>
      <trkpt lat="44.33614" lon="4.30888">
        <ele>199.85</ele>
        <time>2019-07-30T15:13:52Z</time>
      </trkpt>
      <trkpt lat="44.33628" lon="4.30867">
        <ele>200.56</ele>
        <time>2019-07-30T15:13:56Z</time>
      </trkpt>
      <trkpt lat="44.33641" lon="4.30845">
        <ele>201.7</ele>
        <time>2019-07-30T15:14:00Z</time>
      </trkpt>
      <trkpt lat="44.33655" lon="4.30825">
        <ele>202.8</ele>
        <time>2019-07-30T15:14:04Z</time>
      </trkpt>
      <trkpt lat="44.3367" lon="4.30806">
        <ele>203.54</ele>
        <time>2019-07-30T15:14:08Z</time>
      </trkpt>
      <trkpt lat="44.33686" lon="4.30787">
        <ele>204.31</ele>
        <time>2019-07-30T15:14:12Z</time>
      </trkpt>
      <trkpt lat="44.33707" lon="4.30771">
        <ele>203.74</ele>
        <time>2019-07-30T15:14:16Z</time>
      </trkpt>
      <trkpt lat="44.33723" lon="4.30757">
        <ele>203.32</ele>
        <time>2019-07-30T15:14:19Z</time>
      </trkpt>
      <trkpt lat="44.3374" lon="4.30746">
        <ele>202.85</ele>
        <time>2019-07-30T15:14:22Z</time>
      </trkpt>
      <trkpt lat="44.33757" lon="4.30734">
        <ele>203.24</ele>
        <time>2019-07-30T15:14:25Z</time>
      </trkpt>
      <trkpt lat="44.33775" lon="4.30725">
        <ele>203.28</ele>
        <time>2019-07-30T15:14:28Z</time>
      </trkpt>
      <trkpt lat="44.33795" lon="4.30711">
        <ele>203.96</ele>
        <time>2019-07-30T15:14:32Z</time>
      </trkpt>
      <trkpt lat="44.33814" lon="4.30694">
        <ele>204.12</ele>
        <time>2019-07-30T15:14:36Z</time>
      </trkpt>
      <trkpt lat="44.33832" lon="4.30674">
        <ele>204.42</ele>
        <time>2019-07-30T15:14:40Z</time>
      </trkpt>
      <trkpt lat="44.3385" lon="4.30654">
        <ele>203.84</ele>
        <time>2019-07-30T15:14:44Z</time>
      </trkpt>
      <trkpt lat="44.33867" lon="4.30633">
        <ele>204.31</ele>
        <time>2019-07-30T15:14:48Z</time>
      </trkpt>
      <trkpt lat="44.33883" lon="4.30613">
        <ele>205.22</ele>
        <time>2019-07-30T15:14:52Z</time>
      </trkpt>
      <trkpt lat="44.339" lon="4.30594">
        <ele>205.89</ele>
        <time>2019-07-30T15:14:56Z</time>
      </trkpt>
      <trkpt lat="44.33915" lon="4.30573">
        <ele>206.9</ele>
        <time>2019-07-30T15:15:00Z</time>
      </trkpt>
      <trkpt lat="44.33931" lon="4.30554">
        <ele>208.32</ele>
        <time>2019-07-30T15:15:04Z</time>
      </trkpt>
      <trkpt lat="44.3395" lon="4.30541">
        <ele>209.26</ele>
        <time>2019-07-30T15:15:08Z</time>
      </trkpt>
      <trkpt lat="44.33968" lon="4.30531">
        <ele>210.9</ele>
        <time>2019-07-30T15:15:12Z</time>
      </trkpt>
      <trkpt lat="44.33985" lon="4.30522">
        <ele>213.38</ele>
        <time>2019-07-30T15:15:16Z</time>
      </trkpt>
      <trkpt lat="44.34003" lon="4.30512">
        <ele>214.29</ele>
        <time>2019-07-30T15:15:20Z</time>
      </trkpt>
      <trkpt lat="44.34023" lon="4.30501">
        <ele>215.84</ele>
        <time>2019-07-30T15:15:24Z</time>
      </trkpt>
      <trkpt lat="44.34042" lon="4.30491">
        <ele>217.37</ele>
        <time>2019-07-30T15:15:28Z</time>
      </trkpt>
      <trkpt lat="44.3406" lon="4.30481">
        <ele>218.45</ele>
        <time>2019-07-30T15:15:32Z</time>
      </trkpt>
      <trkpt lat="44.34079" lon="4.30473">
        <ele>220.29</ele>
        <time>2019-07-30T15:15:36Z</time>
      </trkpt>
      <trkpt lat="44.34097" lon="4.30465">
        <ele>222.43</ele>
        <time>2019-07-30T15:15:40Z</time>
      </trkpt>
      <trkpt lat="44.34116" lon="4.3045">
        <ele>224.64</ele>
        <time>2019-07-30T15:15:45Z</time>
      </trkpt>
      <trkpt lat="44.34129" lon="4.30425">
        <ele>227.27</ele>
        <time>2019-07-30T15:15:50Z</time>
      </trkpt>
      <trkpt lat="44.34138" lon="4.30403">
        <ele>228.79</ele>
        <time>2019-07-30T15:15:54Z</time>
      </trkpt>
      <trkpt lat="44.34149" lon="4.30379">
        <ele>229.83</ele>
        <time>2019-07-30T15:15:58Z</time>
      </trkpt>
      <trkpt lat="44.3416" lon="4.30355">
        <ele>230.91</ele>
        <time>2019-07-30T15:16:02Z</time>
      </trkpt>
      <trkpt lat="44.34169" lon="4.30331">
        <ele>232.69</ele>
        <time>2019-07-30T15:16:06Z</time>
      </trkpt>
      <trkpt lat="44.34179" lon="4.30307">
        <ele>234.43</ele>
        <time>2019-07-30T15:16:11Z</time>
      </trkpt>
      <trkpt lat="44.34191" lon="4.30282">
        <ele>236.52</ele>
        <time>2019-07-30T15:16:16Z</time>
      </trkpt>
      <trkpt lat="44.34199" lon="4.30255">
        <ele>238.68</ele>
        <time>2019-07-30T15:16:21Z</time>
      </trkpt>
      <trkpt lat="44.34208" lon="4.30228">
        <ele>240.87</ele>
        <time>2019-07-30T15:16:25Z</time>
      </trkpt>
      <trkpt lat="44.34217" lon="4.30201">
        <ele>243.49</ele>
        <time>2019-07-30T15:16:32Z</time>
      </trkpt>
      <trkpt lat="44.3423" lon="4.30178">
        <ele>243.35</ele>
        <time>2019-07-30T15:16:36Z</time>
      </trkpt>
      <trkpt lat="44.34242" lon="4.30155">
        <ele>244.16</ele>
        <time>2019-07-30T15:16:39Z</time>
      </trkpt>
      <trkpt lat="44.34257" lon="4.30125">
        <ele>243.08</ele>
        <time>2019-07-30T15:16:42Z</time>
      </trkpt>
      <trkpt lat="44.3427" lon="4.30102">
        <ele>242.59</ele>
        <time>2019-07-30T15:16:45Z</time>
      </trkpt>
      <trkpt lat="44.34283" lon="4.30082">
        <ele>240.52</ele>
        <time>2019-07-30T15:16:48Z</time>
      </trkpt>
      <trkpt lat="44.34296" lon="4.30064">
        <ele>239.79</ele>
        <time>2019-07-30T15:16:51Z</time>
      </trkpt>
      <trkpt lat="44.34308" lon="4.30039">
        <ele>241.58</ele>
        <time>2019-07-30T15:16:55Z</time>
      </trkpt>
      <trkpt lat="44.34315" lon="4.30013">
        <ele>241.72</ele>
        <time>2019-07-30T15:16:59Z</time>
      </trkpt>
      <trkpt lat="44.34328" lon="4.2999">
        <ele>241.35</ele>
        <time>2019-07-30T15:17:03Z</time>
      </trkpt>
      <trkpt lat="44.34346" lon="4.29971">
        <ele>241.62</ele>
        <time>2019-07-30T15:17:07Z</time>
      </trkpt>
      <trkpt lat="44.34365" lon="4.29954">
        <ele>241.01</ele>
        <time>2019-07-30T15:17:11Z</time>
      </trkpt>
      <trkpt lat="44.34383" lon="4.29935">
        <ele>241.8</ele>
        <time>2019-07-30T15:17:15Z</time>
      </trkpt>
      <trkpt lat="44.34399" lon="4.29918">
        <ele>242.32</ele>
        <time>2019-07-30T15:17:19Z</time>
      </trkpt>
      <trkpt lat="44.34418" lon="4.29899">
        <ele>242.06</ele>
        <time>2019-07-30T15:17:23Z</time>
      </trkpt>
      <trkpt lat="44.34433" lon="4.29882">
        <ele>228.04</ele>
        <time>2019-07-30T15:17:26Z</time>
      </trkpt>
      <trkpt lat="44.34443" lon="4.29862">
        <ele>234.12</ele>
        <time>2019-07-30T15:17:29Z</time>
      </trkpt>
      <trkpt lat="44.3445" lon="4.29833">
        <ele>238.61</ele>
        <time>2019-07-30T15:17:33Z</time>
      </trkpt>
      <trkpt lat="44.34454" lon="4.29803">
        <ele>239.89</ele>
        <time>2019-07-30T15:17:37Z</time>
      </trkpt>
      <trkpt lat="44.34461" lon="4.29773">
        <ele>239.48</ele>
        <time>2019-07-30T15:17:41Z</time>
      </trkpt>
      <trkpt lat="44.34471" lon="4.29748">
        <ele>241.17</ele>
        <time>2019-07-30T15:17:45Z</time>
      </trkpt>
      <trkpt lat="44.34484" lon="4.29726">
        <ele>241.84</ele>
        <time>2019-07-30T15:17:49Z</time>
      </trkpt>
      <trkpt lat="44.34498" lon="4.29704">
        <ele>242.91</ele>
        <time>2019-07-30T15:17:53Z</time>
      </trkpt>
      <trkpt lat="44.34512" lon="4.29685">
        <ele>244.78</ele>
        <time>2019-07-30T15:17:57Z</time>
      </trkpt>
      <trkpt lat="44.34529" lon="4.29668">
        <ele>245.9</ele>
        <time>2019-07-30T15:18:02Z</time>
      </trkpt>
      <trkpt lat="44.34549" lon="4.29655">
        <ele>246.12</ele>
        <time>2019-07-30T15:18:07Z</time>
      </trkpt>
      <trkpt lat="44.34567" lon="4.29641">
        <ele>248.16</ele>
        <time>2019-07-30T15:18:12Z</time>
      </trkpt>
      <trkpt lat="44.34583" lon="4.29629">
        <ele>249.76</ele>
        <time>2019-07-30T15:18:16Z</time>
      </trkpt>
      <trkpt lat="44.34601" lon="4.29614">
        <ele>250.88</ele>
        <time>2019-07-30T15:18:20Z</time>
      </trkpt>
      <trkpt lat="44.3462" lon="4.29595">
        <ele>252.7</ele>
        <time>2019-07-30T15:18:24Z</time>
      </trkpt>
      <trkpt lat="44.34637" lon="4.29578">
        <ele>254.55</ele>
        <time>2019-07-30T15:18:28Z</time>
      </trkpt>
      <trkpt lat="44.34656" lon="4.29566">
        <ele>256.49</ele>
        <time>2019-07-30T15:18:32Z</time>
      </trkpt>
      <trkpt lat="44.34676" lon="4.29556">
        <ele>257.21</ele>
        <time>2019-07-30T15:18:36Z</time>
      </trkpt>
      <trkpt lat="44.34687" lon="4.29536">
        <ele>255.76</ele>
        <time>2019-07-30T15:18:39Z</time>
      </trkpt>
      <trkpt lat="44.3469" lon="4.29506">
        <ele>254.15</ele>
        <time>2019-07-30T15:18:42Z</time>
      </trkpt>
      <trkpt lat="44.34689" lon="4.29476">
        <ele>253.35</ele>
        <time>2019-07-30T15:18:45Z</time>
      </trkpt>
      <trkpt lat="44.34686" lon="4.29446">
        <ele>252.07</ele>
        <time>2019-07-30T15:18:48Z</time>
      </trkpt>
      <trkpt lat="44.34705" lon="4.29429">
        <ele>249.69</ele>
        <time>2019-07-30T15:18:52Z</time>
      </trkpt>
      <trkpt lat="44.34728" lon="4.29436">
        <ele>247.69</ele>
        <time>2019-07-30T15:18:55Z</time>
      </trkpt>
      <trkpt lat="44.34752" lon="4.29444">
        <ele>246.47</ele>
        <time>2019-07-30T15:18:58Z</time>
      </trkpt>
      <trkpt lat="44.34776" lon="4.2945">
        <ele>246.18</ele>
        <time>2019-07-30T15:19:01Z</time>
      </trkpt>
      <trkpt lat="44.34801" lon="4.29458">
        <ele>244.77</ele>
        <time>2019-07-30T15:19:04Z</time>
      </trkpt>
      <trkpt lat="44.34825" lon="4.29468">
        <ele>244.92</ele>
        <time>2019-07-30T15:19:07Z</time>
      </trkpt>
      <trkpt lat="44.34845" lon="4.29454">
        <ele>242.28</ele>
        <time>2019-07-30T15:19:11Z</time>
      </trkpt>
      <trkpt lat="44.34836" lon="4.29427">
        <ele>237.98</ele>
        <time>2019-07-30T15:19:14Z</time>
      </trkpt>
      <trkpt lat="44.3482" lon="4.29397">
        <ele>230.67</ele>
        <time>2019-07-30T15:19:17Z</time>
      </trkpt>
      <trkpt lat="44.3481" lon="4.29373">
        <ele>231.55</ele>
        <time>2019-07-30T15:19:19Z</time>
      </trkpt>
      <trkpt lat="44.34802" lon="4.29348">
        <ele>231.32</ele>
        <time>2019-07-30T15:19:21Z</time>
      </trkpt>
      <trkpt lat="44.34798" lon="4.29321">
        <ele>230.71</ele>
        <time>2019-07-30T15:19:23Z</time>
      </trkpt>
      <trkpt lat="44.34793" lon="4.29296">
        <ele>230.73</ele>
        <time>2019-07-30T15:19:25Z</time>
      </trkpt>
      <trkpt lat="44.34788" lon="4.29261">
        <ele>231.02</ele>
        <time>2019-07-30T15:19:28Z</time>
      </trkpt>
      <trkpt lat="44.34783" lon="4.29233">
        <ele>232.18</ele>
        <time>2019-07-30T15:19:31Z</time>
      </trkpt>
      <trkpt lat="44.34778" lon="4.29206">
        <ele>233.21</ele>
        <time>2019-07-30T15:19:35Z</time>
      </trkpt>
      <trkpt lat="44.34775" lon="4.2918">
        <ele>234.7</ele>
        <time>2019-07-30T15:19:39Z</time>
      </trkpt>
      <trkpt lat="44.34776" lon="4.29154">
        <ele>236.71</ele>
        <time>2019-07-30T15:19:43Z</time>
      </trkpt>
      <trkpt lat="44.34783" lon="4.29128">
        <ele>238.34</ele>
        <time>2019-07-30T15:19:47Z</time>
      </trkpt>
      <trkpt lat="44.34792" lon="4.29099">
        <ele>239.92</ele>
        <time>2019-07-30T15:19:51Z</time>
      </trkpt>
      <trkpt lat="44.34801" lon="4.29072">
        <ele>241.51</ele>
        <time>2019-07-30T15:19:55Z</time>
      </trkpt>
      <trkpt lat="44.34808" lon="4.29048">
        <ele>243.38</ele>
        <time>2019-07-30T15:19:59Z</time>
      </trkpt>
      <trkpt lat="44.34818" lon="4.29019">
        <ele>243.88</ele>
        <time>2019-07-30T15:20:04Z</time>
      </trkpt>
      <trkpt lat="44.34824" lon="4.28996">
        <ele>246.6</ele>
        <time>2019-07-30T15:20:08Z</time>
      </trkpt>
      <trkpt lat="44.34832" lon="4.28972">
        <ele>233.09</ele>
        <time>2019-07-30T15:20:12Z</time>
      </trkpt>
      <trkpt lat="44.3484" lon="4.28948">
        <ele>244.43</ele>
        <time>2019-07-30T15:20:16Z</time>
      </trkpt>
      <trkpt lat="44.34849" lon="4.28925">
        <ele>248.1</ele>
        <time>2019-07-30T15:20:20Z</time>
      </trkpt>
      <trkpt lat="44.34859" lon="4.28904">
        <ele>250.57</ele>
        <time>2019-07-30T15:20:24Z</time>
      </trkpt>
      <trkpt lat="44.3487" lon="4.28879">
        <ele>252.83</ele>
        <time>2019-07-30T15:20:29Z</time>
      </trkpt>
      <trkpt lat="44.34881" lon="4.28853">
        <ele>255.53</ele>
        <time>2019-07-30T15:20:34Z</time>
      </trkpt>
      <trkpt lat="44.34894" lon="4.28833">
        <ele>257.98</ele>
        <time>2019-07-30T15:20:39Z</time>
      </trkpt>
      <trkpt lat="44.34911" lon="4.28819">
        <ele>260.92</ele>
        <time>2019-07-30T15:20:44Z</time>
      </trkpt>
      <trkpt lat="44.34929" lon="4.28812">
        <ele>264.07</ele>
        <time>2019-07-30T15:20:49Z</time>
      </trkpt>
      <trkpt lat="44.34948" lon="4.28808">
        <ele>267.29</ele>
        <time>2019-07-30T15:20:54Z</time>
      </trkpt>
      <trkpt lat="44.34967" lon="4.28806">
        <ele>270.19</ele>
        <time>2019-07-30T15:20:59Z</time>
      </trkpt>
      <trkpt lat="44.34984" lon="4.28795">
        <ele>271.57</ele>
        <time>2019-07-30T15:21:04Z</time>
      </trkpt>
      <trkpt lat="44.35" lon="4.28784">
        <ele>273.88</ele>
        <time>2019-07-30T15:21:09Z</time>
      </trkpt>
      <trkpt lat="44.34993" lon="4.28811">
        <ele>274.84</ele>
        <time>2019-07-30T15:21:14Z</time>
      </trkpt>
      <trkpt lat="44.34981" lon="4.28833">
        <ele>276.51</ele>
        <time>2019-07-30T15:21:18Z</time>
      </trkpt>
      <trkpt lat="44.34967" lon="4.28859">
        <ele>278.31</ele>
        <time>2019-07-30T15:21:22Z</time>
      </trkpt>
      <trkpt lat="44.34952" lon="4.28879">
        <ele>280.99</ele>
        <time>2019-07-30T15:21:26Z</time>
      </trkpt>
      <trkpt lat="44.3495" lon="4.28905">
        <ele>282.22</ele>
        <time>2019-07-30T15:21:30Z</time>
      </trkpt>
      <trkpt lat="44.34969" lon="4.28915">
        <ele>283.98</ele>
        <time>2019-07-30T15:21:34Z</time>
      </trkpt>
      <trkpt lat="44.34989" lon="4.28906">
        <ele>284.96</ele>
        <time>2019-07-30T15:21:38Z</time>
      </trkpt>
      <trkpt lat="44.35005" lon="4.28885">
        <ele>285.98</ele>
        <time>2019-07-30T15:21:42Z</time>
      </trkpt>
      <trkpt lat="44.35016" lon="4.28856">
        <ele>287.72</ele>
        <time>2019-07-30T15:21:46Z</time>
      </trkpt>
      <trkpt lat="44.35024" lon="4.28832">
        <ele>289.71</ele>
        <time>2019-07-30T15:21:50Z</time>
      </trkpt>
      <trkpt lat="44.35037" lon="4.28807">
        <ele>291.6</ele>
        <time>2019-07-30T15:21:55Z</time>
      </trkpt>
      <trkpt lat="44.35049" lon="4.28785">
        <ele>293.35</ele>
        <time>2019-07-30T15:22:00Z</time>
      </trkpt>
      <trkpt lat="44.35062" lon="4.28761">
        <ele>294.93</ele>
        <time>2019-07-30T15:22:05Z</time>
      </trkpt>
      <trkpt lat="44.35072" lon="4.28738">
        <ele>296.71</ele>
        <time>2019-07-30T15:22:09Z</time>
      </trkpt>
      <trkpt lat="44.35082" lon="4.28712">
        <ele>298.52</ele>
        <time>2019-07-30T15:22:13Z</time>
      </trkpt>
      <trkpt lat="44.35089" lon="4.28686">
        <ele>300.76</ele>
        <time>2019-07-30T15:22:17Z</time>
      </trkpt>
      <trkpt lat="44.35096" lon="4.28663">
        <ele>302.77</ele>
        <time>2019-07-30T15:22:21Z</time>
      </trkpt>
      <trkpt lat="44.35104" lon="4.28639">
        <ele>306.24</ele>
        <time>2019-07-30T15:22:26Z</time>
      </trkpt>
      <trkpt lat="44.35116" lon="4.28615">
        <ele>309.58</ele>
        <time>2019-07-30T15:22:32Z</time>
      </trkpt>
      <trkpt lat="44.35133" lon="4.28604">
        <ele>310.32</ele>
        <time>2019-07-30T15:22:39Z</time>
      </trkpt>
      <trkpt lat="44.35151" lon="4.28598">
        <ele>312.39</ele>
        <time>2019-07-30T15:22:45Z</time>
      </trkpt>
      <trkpt lat="44.3517" lon="4.28593">
        <ele>315.07</ele>
        <time>2019-07-30T15:22:49Z</time>
      </trkpt>
      <trkpt lat="44.35188" lon="4.28589">
        <ele>317.06</ele>
        <time>2019-07-30T15:22:53Z</time>
      </trkpt>
      <trkpt lat="44.35208" lon="4.28581">
        <ele>321.05</ele>
        <time>2019-07-30T15:22:58Z</time>
      </trkpt>
      <trkpt lat="44.35219" lon="4.28553">
        <ele>300.22</ele>
        <time>2019-07-30T15:23:04Z</time>
      </trkpt>
      <trkpt lat="44.35222" lon="4.28526">
        <ele>315.37</ele>
        <time>2019-07-30T15:23:08Z</time>
      </trkpt>
      <trkpt lat="44.35224" lon="4.28501">
        <ele>324.18</ele>
        <time>2019-07-30T15:23:13Z</time>
      </trkpt>
      <trkpt lat="44.3523" lon="4.28473">
        <ele>327.61</ele>
        <time>2019-07-30T15:23:18Z</time>
      </trkpt>
      <trkpt lat="44.35236" lon="4.28445">
        <ele>328.97</ele>
        <time>2019-07-30T15:23:23Z</time>
      </trkpt>
      <trkpt lat="44.35243" lon="4.28419">
        <ele>330.52</ele>
        <time>2019-07-30T15:23:28Z</time>
      </trkpt>
      <trkpt lat="44.35251" lon="4.28392">
        <ele>332.54</ele>
        <time>2019-07-30T15:23:33Z</time>
      </trkpt>
      <trkpt lat="44.35258" lon="4.28365">
        <ele>334.91</ele>
        <time>2019-07-30T15:23:38Z</time>
      </trkpt>
      <trkpt lat="44.35269" lon="4.2834">
        <ele>336.8</ele>
        <time>2019-07-30T15:23:43Z</time>
      </trkpt>
      <trkpt lat="44.35286" lon="4.28326">
        <ele>338.65</ele>
        <time>2019-07-30T15:23:48Z</time>
      </trkpt>
      <trkpt lat="44.35304" lon="4.28329">
        <ele>338.85</ele>
        <time>2019-07-30T15:23:54Z</time>
      </trkpt>
      <trkpt lat="44.35323" lon="4.28338">
        <ele>341</ele>
        <time>2019-07-30T15:24:00Z</time>
      </trkpt>
      <trkpt lat="44.35341" lon="4.28339">
        <ele>346.96</ele>
        <time>2019-07-30T15:24:06Z</time>
      </trkpt>
      <trkpt lat="44.35359" lon="4.28327">
        <ele>348.11</ele>
        <time>2019-07-30T15:24:09Z</time>
      </trkpt>
      <trkpt lat="44.35366" lon="4.28303">
        <ele>351.47</ele>
        <time>2019-07-30T15:24:15Z</time>
      </trkpt>
      <trkpt lat="44.35378" lon="4.28278">
        <ele>353.11</ele>
        <time>2019-07-30T15:24:20Z</time>
      </trkpt>
      <trkpt lat="44.35391" lon="4.28255">
        <ele>354.35</ele>
        <time>2019-07-30T15:24:25Z</time>
      </trkpt>
      <trkpt lat="44.35406" lon="4.28238">
        <ele>359.73</ele>
        <time>2019-07-30T15:24:30Z</time>
      </trkpt>
      <trkpt lat="44.35425" lon="4.28228">
        <ele>350.11</ele>
        <time>2019-07-30T15:24:35Z</time>
      </trkpt>
      <trkpt lat="44.35444" lon="4.28226">
        <ele>360.92</ele>
        <time>2019-07-30T15:24:40Z</time>
      </trkpt>
      <trkpt lat="44.35455" lon="4.28203">
        <ele>363.55</ele>
        <time>2019-07-30T15:24:46Z</time>
      </trkpt>
      <trkpt lat="44.35442" lon="4.28178">
        <ele>364.02</ele>
        <time>2019-07-30T15:24:51Z</time>
      </trkpt>
      <trkpt lat="44.3543" lon="4.28151">
        <ele>363.16</ele>
        <time>2019-07-30T15:24:55Z</time>
      </trkpt>
      <trkpt lat="44.35417" lon="4.28116">
        <ele>362.06</ele>
        <time>2019-07-30T15:24:58Z</time>
      </trkpt>
      <trkpt lat="44.35413" lon="4.28086">
        <ele>338.34</ele>
        <time>2019-07-30T15:25:01Z</time>
      </trkpt>
      <trkpt lat="44.35411" lon="4.28056">
        <ele>349.01</ele>
        <time>2019-07-30T15:25:04Z</time>
      </trkpt>
      <trkpt lat="44.35408" lon="4.2803">
        <ele>356.42</ele>
        <time>2019-07-30T15:25:07Z</time>
      </trkpt>
      <trkpt lat="44.35403" lon="4.28005">
        <ele>356.77</ele>
        <time>2019-07-30T15:25:10Z</time>
      </trkpt>
      <trkpt lat="44.35399" lon="4.27976">
        <ele>359.39</ele>
        <time>2019-07-30T15:25:13Z</time>
      </trkpt>
      <trkpt lat="44.35402" lon="4.27942">
        <ele>358.91</ele>
        <time>2019-07-30T15:25:16Z</time>
      </trkpt>
      <trkpt lat="44.35408" lon="4.27919">
        <ele>357.51</ele>
        <time>2019-07-30T15:25:18Z</time>
      </trkpt>
      <trkpt lat="44.35416" lon="4.27894">
        <ele>356.07</ele>
        <time>2019-07-30T15:25:20Z</time>
      </trkpt>
      <trkpt lat="44.35427" lon="4.2787">
        <ele>354.15</ele>
        <time>2019-07-30T15:25:22Z</time>
      </trkpt>
      <trkpt lat="44.3544" lon="4.27847">
        <ele>352.73</ele>
        <time>2019-07-30T15:25:24Z</time>
      </trkpt>
      <trkpt lat="44.35454" lon="4.27827">
        <ele>350.96</ele>
        <time>2019-07-30T15:25:26Z</time>
      </trkpt>
      <trkpt lat="44.35479" lon="4.27816">
        <ele>348.91</ele>
        <time>2019-07-30T15:25:29Z</time>
      </trkpt>
      <trkpt lat="44.35498" lon="4.2782">
        <ele>347.62</ele>
        <time>2019-07-30T15:25:31Z</time>
      </trkpt>
      <trkpt lat="44.35515" lon="4.27833">
        <ele>347.26</ele>
        <time>2019-07-30T15:25:33Z</time>
      </trkpt>
      <trkpt lat="44.35529" lon="4.27849">
        <ele>345.9</ele>
        <time>2019-07-30T15:25:35Z</time>
      </trkpt>
      <trkpt lat="44.35542" lon="4.27882">
        <ele>345.37</ele>
        <time>2019-07-30T15:25:38Z</time>
      </trkpt>
      <trkpt lat="44.35555" lon="4.27907">
        <ele>345.12</ele>
        <time>2019-07-30T15:25:41Z</time>
      </trkpt>
      <trkpt lat="44.35577" lon="4.27913">
        <ele>343.23</ele>
        <time>2019-07-30T15:25:44Z</time>
      </trkpt>
      <trkpt lat="44.35601" lon="4.27909">
        <ele>339.3</ele>
        <time>2019-07-30T15:25:47Z</time>
      </trkpt>
      <trkpt lat="44.35624" lon="4.2792">
        <ele>338.34</ele>
        <time>2019-07-30T15:25:50Z</time>
      </trkpt>
      <trkpt lat="44.35644" lon="4.27937">
        <ele>338.53</ele>
        <time>2019-07-30T15:25:53Z</time>
      </trkpt>
      <trkpt lat="44.35666" lon="4.27933">
        <ele>336.12</ele>
        <time>2019-07-30T15:25:56Z</time>
      </trkpt>
      <trkpt lat="44.3569" lon="4.27917">
        <ele>332.88</ele>
        <time>2019-07-30T15:25:59Z</time>
      </trkpt>
      <trkpt lat="44.35709" lon="4.27915">
        <ele>331.26</ele>
        <time>2019-07-30T15:26:01Z</time>
      </trkpt>
      <trkpt lat="44.35728" lon="4.27921">
        <ele>329.33</ele>
        <time>2019-07-30T15:26:03Z</time>
      </trkpt>
      <trkpt lat="44.35746" lon="4.27932">
        <ele>328.48</ele>
        <time>2019-07-30T15:26:05Z</time>
      </trkpt>
      <trkpt lat="44.35763" lon="4.27945">
        <ele>327.53</ele>
        <time>2019-07-30T15:26:07Z</time>
      </trkpt>
      <trkpt lat="44.3578" lon="4.27958">
        <ele>326.54</ele>
        <time>2019-07-30T15:26:09Z</time>
      </trkpt>
      <trkpt lat="44.35797" lon="4.27973">
        <ele>325.48</ele>
        <time>2019-07-30T15:26:11Z</time>
      </trkpt>
      <trkpt lat="44.35813" lon="4.28002">
        <ele>324.53</ele>
        <time>2019-07-30T15:26:14Z</time>
      </trkpt>
      <trkpt lat="44.35836" lon="4.27999">
        <ele>322.53</ele>
        <time>2019-07-30T15:26:18Z</time>
      </trkpt>
      <trkpt lat="44.35827" lon="4.27971">
        <ele>319.27</ele>
        <time>2019-07-30T15:26:22Z</time>
      </trkpt>
      <trkpt lat="44.3581" lon="4.2795">
        <ele>317.04</ele>
        <time>2019-07-30T15:26:25Z</time>
      </trkpt>
      <trkpt lat="44.35795" lon="4.27924">
        <ele>315.63</ele>
        <time>2019-07-30T15:26:28Z</time>
      </trkpt>
      <trkpt lat="44.35784" lon="4.2789">
        <ele>312.96</ele>
        <time>2019-07-30T15:26:31Z</time>
      </trkpt>
      <trkpt lat="44.35776" lon="4.27866">
        <ele>311.26</ele>
        <time>2019-07-30T15:26:33Z</time>
      </trkpt>
      <trkpt lat="44.35768" lon="4.27841">
        <ele>310.23</ele>
        <time>2019-07-30T15:26:35Z</time>
      </trkpt>
      <trkpt lat="44.3576" lon="4.27816">
        <ele>309.08</ele>
        <time>2019-07-30T15:26:37Z</time>
      </trkpt>
      <trkpt lat="44.35753" lon="4.27791">
        <ele>307.58</ele>
        <time>2019-07-30T15:26:39Z</time>
      </trkpt>
      <trkpt lat="44.35755" lon="4.27765">
        <ele>306.3</ele>
        <time>2019-07-30T15:26:41Z</time>
      </trkpt>
      <trkpt lat="44.35763" lon="4.27741">
        <ele>305.24</ele>
        <time>2019-07-30T15:26:43Z</time>
      </trkpt>
      <trkpt lat="44.35775" lon="4.27719">
        <ele>303.35</ele>
        <time>2019-07-30T15:26:45Z</time>
      </trkpt>
      <trkpt lat="44.35792" lon="4.27699">
        <ele>300.52</ele>
        <time>2019-07-30T15:26:47Z</time>
      </trkpt>
      <trkpt lat="44.35808" lon="4.27676">
        <ele>298.26</ele>
        <time>2019-07-30T15:26:49Z</time>
      </trkpt>
      <trkpt lat="44.35822" lon="4.27658">
        <ele>296.56</ele>
        <time>2019-07-30T15:26:51Z</time>
      </trkpt>
      <trkpt lat="44.35831" lon="4.27628">
        <ele>295.37</ele>
        <time>2019-07-30T15:26:54Z</time>
      </trkpt>
      <trkpt lat="44.3583" lon="4.27592">
        <ele>293.68</ele>
        <time>2019-07-30T15:26:57Z</time>
      </trkpt>
      <trkpt lat="44.35829" lon="4.27565">
        <ele>291.69</ele>
        <time>2019-07-30T15:26:59Z</time>
      </trkpt>
      <trkpt lat="44.3583" lon="4.27537">
        <ele>289.22</ele>
        <time>2019-07-30T15:27:01Z</time>
      </trkpt>
      <trkpt lat="44.35834" lon="4.27507">
        <ele>288.3</ele>
        <time>2019-07-30T15:27:03Z</time>
      </trkpt>
      <trkpt lat="44.35838" lon="4.27477">
        <ele>286.04</ele>
        <time>2019-07-30T15:27:05Z</time>
      </trkpt>
      <trkpt lat="44.35846" lon="4.27447">
        <ele>284.22</ele>
        <time>2019-07-30T15:27:07Z</time>
      </trkpt>
      <trkpt lat="44.35858" lon="4.2742">
        <ele>281.31</ele>
        <time>2019-07-30T15:27:09Z</time>
      </trkpt>
      <trkpt lat="44.35871" lon="4.27394">
        <ele>280.36</ele>
        <time>2019-07-30T15:27:11Z</time>
      </trkpt>
      <trkpt lat="44.35882" lon="4.27366">
        <ele>279.58</ele>
        <time>2019-07-30T15:27:13Z</time>
      </trkpt>
      <trkpt lat="44.35891" lon="4.27338">
        <ele>278.24</ele>
        <time>2019-07-30T15:27:15Z</time>
      </trkpt>
      <trkpt lat="44.35898" lon="4.27314">
        <ele>287.9</ele>
        <time>2019-07-30T15:27:17Z</time>
      </trkpt>
      <trkpt lat="44.359" lon="4.27289">
        <ele>283.07</ele>
        <time>2019-07-30T15:27:19Z</time>
      </trkpt>
      <trkpt lat="44.35897" lon="4.27263">
        <ele>278.53</ele>
        <time>2019-07-30T15:27:21Z</time>
      </trkpt>
      <trkpt lat="44.35894" lon="4.27235">
        <ele>275.08</ele>
        <time>2019-07-30T15:27:23Z</time>
      </trkpt>
      <trkpt lat="44.35896" lon="4.27205">
        <ele>273.14</ele>
        <time>2019-07-30T15:27:25Z</time>
      </trkpt>
      <trkpt lat="44.35903" lon="4.27175">
        <ele>271.98</ele>
        <time>2019-07-30T15:27:27Z</time>
      </trkpt>
      <trkpt lat="44.35914" lon="4.27148">
        <ele>269.42</ele>
        <time>2019-07-30T15:27:29Z</time>
      </trkpt>
      <trkpt lat="44.35929" lon="4.27123">
        <ele>267.66</ele>
        <time>2019-07-30T15:27:31Z</time>
      </trkpt>
      <trkpt lat="44.35941" lon="4.27098">
        <ele>265.34</ele>
        <time>2019-07-30T15:27:33Z</time>
      </trkpt>
      <trkpt lat="44.35953" lon="4.27066">
        <ele>263.59</ele>
        <time>2019-07-30T15:27:36Z</time>
      </trkpt>
      <trkpt lat="44.35974" lon="4.27046">
        <ele>261.72</ele>
        <time>2019-07-30T15:27:39Z</time>
      </trkpt>
      <trkpt lat="44.35996" lon="4.27027">
        <ele>259.96</ele>
        <time>2019-07-30T15:27:42Z</time>
      </trkpt>
      <trkpt lat="44.36019" lon="4.2701">
        <ele>258.8</ele>
        <time>2019-07-30T15:27:45Z</time>
      </trkpt>
      <trkpt lat="44.3604" lon="4.27001">
        <ele>257.26</ele>
        <time>2019-07-30T15:27:48Z</time>
      </trkpt>
      <trkpt lat="44.36064" lon="4.26999">
        <ele>270.16</ele>
        <time>2019-07-30T15:27:51Z</time>
      </trkpt>
      <trkpt lat="44.36088" lon="4.27">
        <ele>263.07</ele>
        <time>2019-07-30T15:27:54Z</time>
      </trkpt>
      <trkpt lat="44.36113" lon="4.26999">
        <ele>257.83</ele>
        <time>2019-07-30T15:27:57Z</time>
      </trkpt>
      <trkpt lat="44.36136" lon="4.26992">
        <ele>255.21</ele>
        <time>2019-07-30T15:28:00Z</time>
      </trkpt>
      <trkpt lat="44.36158" lon="4.26978">
        <ele>253.28</ele>
        <time>2019-07-30T15:28:03Z</time>
      </trkpt>
      <trkpt lat="44.3618" lon="4.26962">
        <ele>251.11</ele>
        <time>2019-07-30T15:28:06Z</time>
      </trkpt>
      <trkpt lat="44.36204" lon="4.26945">
        <ele>248.9</ele>
        <time>2019-07-30T15:28:09Z</time>
      </trkpt>
      <trkpt lat="44.36222" lon="4.26938">
        <ele>247.52</ele>
        <time>2019-07-30T15:28:11Z</time>
      </trkpt>
      <trkpt lat="44.3624" lon="4.26933">
        <ele>246.03</ele>
        <time>2019-07-30T15:28:13Z</time>
      </trkpt>
      <trkpt lat="44.36259" lon="4.26927">
        <ele>244.87</ele>
        <time>2019-07-30T15:28:15Z</time>
      </trkpt>
      <trkpt lat="44.36285" lon="4.26912">
        <ele>242.33</ele>
        <time>2019-07-30T15:28:18Z</time>
      </trkpt>
      <trkpt lat="44.36304" lon="4.26902">
        <ele>240.1</ele>
        <time>2019-07-30T15:28:20Z</time>
      </trkpt>
      <trkpt lat="44.36324" lon="4.26893">
        <ele>237.8</ele>
        <time>2019-07-30T15:28:22Z</time>
      </trkpt>
      <trkpt lat="44.36351" lon="4.26892">
        <ele>235.16</ele>
        <time>2019-07-30T15:28:25Z</time>
      </trkpt>
      <trkpt lat="44.3637" lon="4.26897">
        <ele>233.27</ele>
        <time>2019-07-30T15:28:27Z</time>
      </trkpt>
      <trkpt lat="44.36395" lon="4.26895">
        <ele>231.67</ele>
        <time>2019-07-30T15:28:30Z</time>
      </trkpt>
      <trkpt lat="44.36417" lon="4.26876">
        <ele>229.95</ele>
        <time>2019-07-30T15:28:33Z</time>
      </trkpt>
      <trkpt lat="44.36427" lon="4.26853">
        <ele>227.97</ele>
        <time>2019-07-30T15:28:35Z</time>
      </trkpt>
      <trkpt lat="44.36438" lon="4.26832">
        <ele>226.2</ele>
        <time>2019-07-30T15:28:37Z</time>
      </trkpt>
      <trkpt lat="44.3646" lon="4.26812">
        <ele>224.76</ele>
        <time>2019-07-30T15:28:40Z</time>
      </trkpt>
      <trkpt lat="44.36479" lon="4.2681">
        <ele>222.33</ele>
        <time>2019-07-30T15:28:42Z</time>
      </trkpt>
      <trkpt lat="44.36499" lon="4.26811">
        <ele>220.96</ele>
        <time>2019-07-30T15:28:44Z</time>
      </trkpt>
      <trkpt lat="44.36518" lon="4.2681">
        <ele>219.8</ele>
        <time>2019-07-30T15:28:46Z</time>
      </trkpt>
      <trkpt lat="44.36538" lon="4.2681">
        <ele>218.2</ele>
        <time>2019-07-30T15:28:48Z</time>
      </trkpt>
      <trkpt lat="44.36558" lon="4.26808">
        <ele>216.31</ele>
        <time>2019-07-30T15:28:50Z</time>
      </trkpt>
      <trkpt lat="44.36578" lon="4.26805">
        <ele>215.63</ele>
        <time>2019-07-30T15:28:52Z</time>
      </trkpt>
      <trkpt lat="44.36598" lon="4.26802">
        <ele>214.45</ele>
        <time>2019-07-30T15:28:54Z</time>
      </trkpt>
      <trkpt lat="44.36622" lon="4.26794">
        <ele>212.53</ele>
        <time>2019-07-30T15:28:57Z</time>
      </trkpt>
      <trkpt lat="44.36639" lon="4.26769">
        <ele>209.59</ele>
        <time>2019-07-30T15:29:00Z</time>
      </trkpt>
      <trkpt lat="44.36643" lon="4.2673">
        <ele>207.01</ele>
        <time>2019-07-30T15:29:03Z</time>
      </trkpt>
      <trkpt lat="44.3664" lon="4.26701">
        <ele>205.65</ele>
        <time>2019-07-30T15:29:05Z</time>
      </trkpt>
      <trkpt lat="44.36637" lon="4.26671">
        <ele>204.76</ele>
        <time>2019-07-30T15:29:07Z</time>
      </trkpt>
      <trkpt lat="44.36631" lon="4.26645">
        <ele>202.27</ele>
        <time>2019-07-30T15:29:09Z</time>
      </trkpt>
      <trkpt lat="44.3662" lon="4.26619">
        <ele>200.16</ele>
        <time>2019-07-30T15:29:11Z</time>
      </trkpt>
      <trkpt lat="44.36605" lon="4.26596">
        <ele>198.29</ele>
        <time>2019-07-30T15:29:13Z</time>
      </trkpt>
      <trkpt lat="44.36588" lon="4.26578">
        <ele>196.91</ele>
        <time>2019-07-30T15:29:15Z</time>
      </trkpt>
      <trkpt lat="44.36569" lon="4.26567">
        <ele>197.22</ele>
        <time>2019-07-30T15:29:17Z</time>
      </trkpt>
      <trkpt lat="44.36549" lon="4.26562">
        <ele>195.17</ele>
        <time>2019-07-30T15:29:19Z</time>
      </trkpt>
      <trkpt lat="44.36529" lon="4.26559">
        <ele>192.77</ele>
        <time>2019-07-30T15:29:21Z</time>
      </trkpt>
      <trkpt lat="44.36503" lon="4.26553">
        <ele>189.7</ele>
        <time>2019-07-30T15:29:24Z</time>
      </trkpt>
      <trkpt lat="44.36482" lon="4.26533">
        <ele>186.67</ele>
        <time>2019-07-30T15:29:27Z</time>
      </trkpt>
      <trkpt lat="44.36475" lon="4.26508">
        <ele>186.04</ele>
        <time>2019-07-30T15:29:29Z</time>
      </trkpt>
      <trkpt lat="44.36477" lon="4.26482">
        <ele>185.45</ele>
        <time>2019-07-30T15:29:31Z</time>
      </trkpt>
      <trkpt lat="44.36481" lon="4.26457">
        <ele>184.81</ele>
        <time>2019-07-30T15:29:33Z</time>
      </trkpt>
      <trkpt lat="44.36485" lon="4.26431">
        <ele>184.27</ele>
        <time>2019-07-30T15:29:35Z</time>
      </trkpt>
      <trkpt lat="44.36493" lon="4.26407">
        <ele>183.58</ele>
        <time>2019-07-30T15:29:37Z</time>
      </trkpt>
      <trkpt lat="44.36501" lon="4.26384">
        <ele>183.26</ele>
        <time>2019-07-30T15:29:39Z</time>
      </trkpt>
      <trkpt lat="44.36511" lon="4.26362">
        <ele>182.29</ele>
        <time>2019-07-30T15:29:41Z</time>
      </trkpt>
      <trkpt lat="44.36521" lon="4.26341">
        <ele>181.23</ele>
        <time>2019-07-30T15:29:43Z</time>
      </trkpt>
      <trkpt lat="44.36533" lon="4.2632">
        <ele>181.16</ele>
        <time>2019-07-30T15:29:45Z</time>
      </trkpt>
      <trkpt lat="44.36549" lon="4.26294">
        <ele>179.62</ele>
        <time>2019-07-30T15:29:48Z</time>
      </trkpt>
      <trkpt lat="44.36561" lon="4.26271">
        <ele>179.38</ele>
        <time>2019-07-30T15:29:51Z</time>
      </trkpt>
      <trkpt lat="44.36573" lon="4.26248">
        <ele>176.96</ele>
        <time>2019-07-30T15:29:54Z</time>
      </trkpt>
      <trkpt lat="44.3658" lon="4.26219">
        <ele>176.01</ele>
        <time>2019-07-30T15:29:57Z</time>
      </trkpt>
      <trkpt lat="44.36583" lon="4.26186">
        <ele>175.53</ele>
        <time>2019-07-30T15:30:00Z</time>
      </trkpt>
      <trkpt lat="44.36588" lon="4.26153">
        <ele>173.91</ele>
        <time>2019-07-30T15:30:03Z</time>
      </trkpt>
      <trkpt lat="44.36591" lon="4.26122">
        <ele>173.58</ele>
        <time>2019-07-30T15:30:06Z</time>
      </trkpt>
      <trkpt lat="44.36594" lon="4.26092">
        <ele>172.9</ele>
        <time>2019-07-30T15:30:09Z</time>
      </trkpt>
      <trkpt lat="44.36598" lon="4.2606">
        <ele>173</ele>
        <time>2019-07-30T15:30:12Z</time>
      </trkpt>
      <trkpt lat="44.36602" lon="4.26029">
        <ele>172.5</ele>
        <time>2019-07-30T15:30:15Z</time>
      </trkpt>
      <trkpt lat="44.36607" lon="4.25999">
        <ele>172.32</ele>
        <time>2019-07-30T15:30:18Z</time>
      </trkpt>
      <trkpt lat="44.36611" lon="4.25969">
        <ele>171.46</ele>
        <time>2019-07-30T15:30:21Z</time>
      </trkpt>
      <trkpt lat="44.36616" lon="4.25938">
        <ele>171.08</ele>
        <time>2019-07-30T15:30:24Z</time>
      </trkpt>
      <trkpt lat="44.36619" lon="4.25909">
        <ele>170.32</ele>
        <time>2019-07-30T15:30:27Z</time>
      </trkpt>
      <trkpt lat="44.36622" lon="4.25883">
        <ele>170.26</ele>
        <time>2019-07-30T15:30:30Z</time>
      </trkpt>
      <trkpt lat="44.3662" lon="4.25854">
        <ele>171.06</ele>
        <time>2019-07-30T15:30:34Z</time>
      </trkpt>
      <trkpt lat="44.36622" lon="4.25824">
        <ele>182.82</ele>
        <time>2019-07-30T15:30:38Z</time>
      </trkpt>
      <trkpt lat="44.3663" lon="4.258">
        <ele>175.65</ele>
        <time>2019-07-30T15:30:41Z</time>
      </trkpt>
      <trkpt lat="44.3664" lon="4.25776">
        <ele>173.33</ele>
        <time>2019-07-30T15:30:44Z</time>
      </trkpt>
      <trkpt lat="44.36653" lon="4.25755">
        <ele>171.86</ele>
        <time>2019-07-30T15:30:47Z</time>
      </trkpt>
      <trkpt lat="44.36665" lon="4.25732">
        <ele>171.21</ele>
        <time>2019-07-30T15:30:50Z</time>
      </trkpt>
      <trkpt lat="44.36674" lon="4.25708">
        <ele>169.84</ele>
        <time>2019-07-30T15:30:53Z</time>
      </trkpt>
      <trkpt lat="44.36681" lon="4.25681">
        <ele>168.63</ele>
        <time>2019-07-30T15:30:56Z</time>
      </trkpt>
      <trkpt lat="44.36686" lon="4.25647">
        <ele>167.31</ele>
        <time>2019-07-30T15:30:59Z</time>
      </trkpt>
      <trkpt lat="44.3669" lon="4.25622">
        <ele>166.53</ele>
        <time>2019-07-30T15:31:01Z</time>
      </trkpt>
      <trkpt lat="44.36694" lon="4.25595">
        <ele>164.62</ele>
        <time>2019-07-30T15:31:03Z</time>
      </trkpt>
      <trkpt lat="44.36699" lon="4.25567">
        <ele>163.36</ele>
        <time>2019-07-30T15:31:05Z</time>
      </trkpt>
      <trkpt lat="44.36703" lon="4.2554">
        <ele>163.54</ele>
        <time>2019-07-30T15:31:07Z</time>
      </trkpt>
      <trkpt lat="44.36708" lon="4.25516">
        <ele>163.45</ele>
        <time>2019-07-30T15:31:09Z</time>
      </trkpt>
      <trkpt lat="44.36715" lon="4.25482">
        <ele>164.42</ele>
        <time>2019-07-30T15:31:12Z</time>
      </trkpt>
      <trkpt lat="44.36721" lon="4.25455">
        <ele>165.14</ele>
        <time>2019-07-30T15:31:15Z</time>
      </trkpt>
      <trkpt lat="44.36728" lon="4.25424">
        <ele>165.22</ele>
        <time>2019-07-30T15:31:19Z</time>
      </trkpt>
      <trkpt lat="44.36733" lon="4.25397">
        <ele>164.44</ele>
        <time>2019-07-30T15:31:22Z</time>
      </trkpt>
      <trkpt lat="44.36737" lon="4.25369">
        <ele>163.87</ele>
        <time>2019-07-30T15:31:25Z</time>
      </trkpt>
      <trkpt lat="44.3674" lon="4.25341">
        <ele>163.96</ele>
        <time>2019-07-30T15:31:28Z</time>
      </trkpt>
      <trkpt lat="44.36743" lon="4.25313">
        <ele>164.41</ele>
        <time>2019-07-30T15:31:31Z</time>
      </trkpt>
      <trkpt lat="44.36746" lon="4.25286">
        <ele>166.01</ele>
        <time>2019-07-30T15:31:34Z</time>
      </trkpt>
      <trkpt lat="44.36752" lon="4.25259">
        <ele>163.52</ele>
        <time>2019-07-30T15:31:37Z</time>
      </trkpt>
      <trkpt lat="44.36755" lon="4.25231">
        <ele>163.17</ele>
        <time>2019-07-30T15:31:40Z</time>
      </trkpt>
      <trkpt lat="44.36759" lon="4.25201">
        <ele>161.26</ele>
        <time>2019-07-30T15:31:43Z</time>
      </trkpt>
      <trkpt lat="44.36764" lon="4.25171">
        <ele>160.28</ele>
        <time>2019-07-30T15:31:46Z</time>
      </trkpt>
      <trkpt lat="44.36767" lon="4.25138">
        <ele>161.18</ele>
        <time>2019-07-30T15:31:49Z</time>
      </trkpt>
      <trkpt lat="44.36771" lon="4.25106">
        <ele>161.43</ele>
        <time>2019-07-30T15:31:52Z</time>
      </trkpt>
      <trkpt lat="44.36775" lon="4.25073">
        <ele>189.88</ele>
        <time>2019-07-30T15:31:55Z</time>
      </trkpt>
      <trkpt lat="44.36779" lon="4.25038">
        <ele>178.91</ele>
        <time>2019-07-30T15:31:58Z</time>
      </trkpt>
      <trkpt lat="44.36783" lon="4.25004">
        <ele>170</ele>
        <time>2019-07-30T15:32:01Z</time>
      </trkpt>
      <trkpt lat="44.36789" lon="4.24968">
        <ele>164.98</ele>
        <time>2019-07-30T15:32:04Z</time>
      </trkpt>
      <trkpt lat="44.368" lon="4.24937">
        <ele>162</ele>
        <time>2019-07-30T15:32:07Z</time>
      </trkpt>
      <trkpt lat="44.36815" lon="4.24915">
        <ele>160.29</ele>
        <time>2019-07-30T15:32:10Z</time>
      </trkpt>
      <trkpt lat="44.36829" lon="4.24891">
        <ele>159.63</ele>
        <time>2019-07-30T15:32:14Z</time>
      </trkpt>
      <trkpt lat="44.36845" lon="4.24868">
        <ele>155.75</ele>
        <time>2019-07-30T15:32:18Z</time>
      </trkpt>
      <trkpt lat="44.36858" lon="4.24841">
        <ele>154.13</ele>
        <time>2019-07-30T15:32:22Z</time>
      </trkpt>
      <trkpt lat="44.3687" lon="4.24822">
        <ele>152.49</ele>
        <time>2019-07-30T15:32:25Z</time>
      </trkpt>
      <trkpt lat="44.36886" lon="4.24798">
        <ele>152.52</ele>
        <time>2019-07-30T15:32:29Z</time>
      </trkpt>
      <trkpt lat="44.36902" lon="4.24773">
        <ele>151.91</ele>
        <time>2019-07-30T15:32:33Z</time>
      </trkpt>
      <trkpt lat="44.36915" lon="4.24754">
        <ele>151.1</ele>
        <time>2019-07-30T15:32:36Z</time>
      </trkpt>
      <trkpt lat="44.36929" lon="4.24732">
        <ele>150.65</ele>
        <time>2019-07-30T15:32:39Z</time>
      </trkpt>
      <trkpt lat="44.36943" lon="4.24711">
        <ele>150.13</ele>
        <time>2019-07-30T15:32:42Z</time>
      </trkpt>
      <trkpt lat="44.36956" lon="4.24692">
        <ele>149.65</ele>
        <time>2019-07-30T15:32:45Z</time>
      </trkpt>
      <trkpt lat="44.36974" lon="4.24671">
        <ele>148.61</ele>
        <time>2019-07-30T15:32:49Z</time>
      </trkpt>
      <trkpt lat="44.3699" lon="4.24648">
        <ele>147.45</ele>
        <time>2019-07-30T15:32:53Z</time>
      </trkpt>
      <trkpt lat="44.37004" lon="4.24622">
        <ele>147.74</ele>
        <time>2019-07-30T15:32:57Z</time>
      </trkpt>
      <trkpt lat="44.37012" lon="4.24599">
        <ele>146.95</ele>
        <time>2019-07-30T15:33:00Z</time>
      </trkpt>
      <trkpt lat="44.37017" lon="4.24573">
        <ele>146.4</ele>
        <time>2019-07-30T15:33:03Z</time>
      </trkpt>
      <trkpt lat="44.37018" lon="4.24541">
        <ele>146.38</ele>
        <time>2019-07-30T15:33:06Z</time>
      </trkpt>
      <trkpt lat="44.37017" lon="4.24514">
        <ele>145.66</ele>
        <time>2019-07-30T15:33:09Z</time>
      </trkpt>
      <trkpt lat="44.37016" lon="4.24487">
        <ele>148.15</ele>
        <time>2019-07-30T15:33:12Z</time>
      </trkpt>
      <trkpt lat="44.37015" lon="4.2446">
        <ele>147.67</ele>
        <time>2019-07-30T15:33:15Z</time>
      </trkpt>
      <trkpt lat="44.37014" lon="4.24434">
        <ele>155.05</ele>
        <time>2019-07-30T15:33:18Z</time>
      </trkpt>
      <trkpt lat="44.37015" lon="4.24403">
        <ele>149.19</ele>
        <time>2019-07-30T15:33:21Z</time>
      </trkpt>
      <trkpt lat="44.37015" lon="4.2437">
        <ele>145.21</ele>
        <time>2019-07-30T15:33:24Z</time>
      </trkpt>
      <trkpt lat="44.37014" lon="4.24334">
        <ele>142.86</ele>
        <time>2019-07-30T15:33:27Z</time>
      </trkpt>
      <trkpt lat="44.37013" lon="4.24298">
        <ele>141.1</ele>
        <time>2019-07-30T15:33:30Z</time>
      </trkpt>
      <trkpt lat="44.37013" lon="4.24261">
        <ele>140.84</ele>
        <time>2019-07-30T15:33:33Z</time>
      </trkpt>
      <trkpt lat="44.37012" lon="4.24227">
        <ele>140.28</ele>
        <time>2019-07-30T15:33:36Z</time>
      </trkpt>
      <trkpt lat="44.37012" lon="4.24193">
        <ele>139.39</ele>
        <time>2019-07-30T15:33:39Z</time>
      </trkpt>
      <trkpt lat="44.37013" lon="4.2416">
        <ele>137.66</ele>
        <time>2019-07-30T15:33:42Z</time>
      </trkpt>
      <trkpt lat="44.37012" lon="4.24126">
        <ele>135.93</ele>
        <time>2019-07-30T15:33:45Z</time>
      </trkpt>
      <trkpt lat="44.37012" lon="4.24092">
        <ele>135.23</ele>
        <time>2019-07-30T15:33:48Z</time>
      </trkpt>
      <trkpt lat="44.37012" lon="4.24061">
        <ele>135.06</ele>
        <time>2019-07-30T15:33:51Z</time>
      </trkpt>
      <trkpt lat="44.37011" lon="4.24033">
        <ele>134.77</ele>
        <time>2019-07-30T15:33:54Z</time>
      </trkpt>
      <trkpt lat="44.37012" lon="4.24007">
        <ele>134.3</ele>
        <time>2019-07-30T15:33:57Z</time>
      </trkpt>
      <trkpt lat="44.3701" lon="4.23974">
        <ele>135.1</ele>
        <time>2019-07-30T15:34:01Z</time>
      </trkpt>
      <trkpt lat="44.37011" lon="4.23948">
        <ele>135.42</ele>
        <time>2019-07-30T15:34:04Z</time>
      </trkpt>
      <trkpt lat="44.37016" lon="4.23923">
        <ele>134.77</ele>
        <time>2019-07-30T15:34:07Z</time>
      </trkpt>
      <trkpt lat="44.37027" lon="4.23894">
        <ele>134.59</ele>
        <time>2019-07-30T15:34:11Z</time>
      </trkpt>
      <trkpt lat="44.37039" lon="4.23872">
        <ele>133.83</ele>
        <time>2019-07-30T15:34:14Z</time>
      </trkpt>
      <trkpt lat="44.3705" lon="4.23849">
        <ele>133.01</ele>
        <time>2019-07-30T15:34:17Z</time>
      </trkpt>
      <trkpt lat="44.37062" lon="4.23824">
        <ele>132.73</ele>
        <time>2019-07-30T15:34:20Z</time>
      </trkpt>
      <trkpt lat="44.37076" lon="4.23799">
        <ele>132.27</ele>
        <time>2019-07-30T15:34:23Z</time>
      </trkpt>
      <trkpt lat="44.3709" lon="4.23776">
        <ele>130.66</ele>
        <time>2019-07-30T15:34:26Z</time>
      </trkpt>
      <trkpt lat="44.37102" lon="4.23752">
        <ele>130</ele>
        <time>2019-07-30T15:34:29Z</time>
      </trkpt>
      <trkpt lat="44.37114" lon="4.23728">
        <ele>129.45</ele>
        <time>2019-07-30T15:34:32Z</time>
      </trkpt>
      <trkpt lat="44.37127" lon="4.23705">
        <ele>128.36</ele>
        <time>2019-07-30T15:34:35Z</time>
      </trkpt>
      <trkpt lat="44.3714" lon="4.23679">
        <ele>127.01</ele>
        <time>2019-07-30T15:34:38Z</time>
      </trkpt>
      <trkpt lat="44.37152" lon="4.23655">
        <ele>126.99</ele>
        <time>2019-07-30T15:34:41Z</time>
      </trkpt>
      <trkpt lat="44.37165" lon="4.23636">
        <ele>126.38</ele>
        <time>2019-07-30T15:34:44Z</time>
      </trkpt>
      <trkpt lat="44.37175" lon="4.23615">
        <ele>125.87</ele>
        <time>2019-07-30T15:34:47Z</time>
      </trkpt>
      <trkpt lat="44.37186" lon="4.23594">
        <ele>125.14</ele>
        <time>2019-07-30T15:34:50Z</time>
      </trkpt>
      <trkpt lat="44.37197" lon="4.23572">
        <ele>124.28</ele>
        <time>2019-07-30T15:34:53Z</time>
      </trkpt>
      <trkpt lat="44.37208" lon="4.23551">
        <ele>124.1</ele>
        <time>2019-07-30T15:34:56Z</time>
      </trkpt>
      <trkpt lat="44.37221" lon="4.23524">
        <ele>125.74</ele>
        <time>2019-07-30T15:35:00Z</time>
      </trkpt>
      <trkpt lat="44.37233" lon="4.23496">
        <ele>126.19</ele>
        <time>2019-07-30T15:35:04Z</time>
      </trkpt>
      <trkpt lat="44.37248" lon="4.23469">
        <ele>125.01</ele>
        <time>2019-07-30T15:35:08Z</time>
      </trkpt>
      <trkpt lat="44.37261" lon="4.23442">
        <ele>125.61</ele>
        <time>2019-07-30T15:35:12Z</time>
      </trkpt>
      <trkpt lat="44.37272" lon="4.23421">
        <ele>125</ele>
        <time>2019-07-30T15:35:15Z</time>
      </trkpt>
      <trkpt lat="44.37283" lon="4.23399">
        <ele>125.16</ele>
        <time>2019-07-30T15:35:18Z</time>
      </trkpt>
      <trkpt lat="44.37295" lon="4.23376">
        <ele>124.98</ele>
        <time>2019-07-30T15:35:21Z</time>
      </trkpt>
      <trkpt lat="44.37306" lon="4.23354">
        <ele>125.49</ele>
        <time>2019-07-30T15:35:24Z</time>
      </trkpt>
      <trkpt lat="44.37316" lon="4.23332">
        <ele>125.16</ele>
        <time>2019-07-30T15:35:27Z</time>
      </trkpt>
      <trkpt lat="44.37329" lon="4.23304">
        <ele>125.1</ele>
        <time>2019-07-30T15:35:31Z</time>
      </trkpt>
      <trkpt lat="44.37342" lon="4.23277">
        <ele>126.41</ele>
        <time>2019-07-30T15:35:35Z</time>
      </trkpt>
      <trkpt lat="44.37354" lon="4.2325">
        <ele>126.29</ele>
        <time>2019-07-30T15:35:39Z</time>
      </trkpt>
      <trkpt lat="44.37369" lon="4.23223">
        <ele>125.26</ele>
        <time>2019-07-30T15:35:43Z</time>
      </trkpt>
      <trkpt lat="44.37382" lon="4.23205">
        <ele>124.14</ele>
        <time>2019-07-30T15:35:46Z</time>
      </trkpt>
      <trkpt lat="44.37397" lon="4.23191">
        <ele>142.72</ele>
        <time>2019-07-30T15:35:49Z</time>
      </trkpt>
      <trkpt lat="44.37417" lon="4.23172">
        <ele>129.52</ele>
        <time>2019-07-30T15:35:53Z</time>
      </trkpt>
      <trkpt lat="44.37435" lon="4.23151">
        <ele>126.61</ele>
        <time>2019-07-30T15:35:57Z</time>
      </trkpt>
      <trkpt lat="44.37432" lon="4.23123">
        <ele>125.06</ele>
        <time>2019-07-30T15:36:01Z</time>
      </trkpt>
      <trkpt lat="44.37419" lon="4.23095">
        <ele>123.31</ele>
        <time>2019-07-30T15:36:05Z</time>
      </trkpt>
      <trkpt lat="44.37407" lon="4.23068">
        <ele>122.59</ele>
        <time>2019-07-30T15:36:09Z</time>
      </trkpt>
      <trkpt lat="44.37393" lon="4.2304">
        <ele>122.58</ele>
        <time>2019-07-30T15:36:13Z</time>
      </trkpt>
      <trkpt lat="44.37381" lon="4.23014">
        <ele>122.13</ele>
        <time>2019-07-30T15:36:17Z</time>
      </trkpt>
      <trkpt lat="44.37368" lon="4.22988">
        <ele>121.64</ele>
        <time>2019-07-30T15:36:21Z</time>
      </trkpt>
      <trkpt lat="44.37358" lon="4.22963">
        <ele>122.3</ele>
        <time>2019-07-30T15:36:25Z</time>
      </trkpt>
      <trkpt lat="44.37347" lon="4.22936">
        <ele>120.75</ele>
        <time>2019-07-30T15:36:30Z</time>
      </trkpt>
      <trkpt lat="44.37329" lon="4.22927">
        <ele>120.29</ele>
        <time>2019-07-30T15:36:42Z</time>
      </trkpt>
      <trkpt lat="44.3731" lon="4.22941">
        <ele>120.05</ele>
        <time>2019-07-30T15:36:47Z</time>
      </trkpt>
      <trkpt lat="44.37292" lon="4.22954">
        <ele>120.1</ele>
        <time>2019-07-30T15:36:51Z</time>
      </trkpt>
      <trkpt lat="44.37274" lon="4.22967">
        <ele>120.23</ele>
        <time>2019-07-30T15:36:55Z</time>
      </trkpt>
      <trkpt lat="44.37255" lon="4.22981">
        <ele>119.87</ele>
        <time>2019-07-30T15:36:59Z</time>
      </trkpt>
      <trkpt lat="44.37234" lon="4.22994">
        <ele>119.76</ele>
        <time>2019-07-30T15:37:03Z</time>
      </trkpt>
      <trkpt lat="44.37215" lon="4.23007">
        <ele>119.94</ele>
        <time>2019-07-30T15:37:07Z</time>
      </trkpt>
      <trkpt lat="44.37194" lon="4.23022">
        <ele>121.28</ele>
        <time>2019-07-30T15:37:11Z</time>
      </trkpt>
      <trkpt lat="44.37174" lon="4.23037">
        <ele>121.26</ele>
        <time>2019-07-30T15:37:15Z</time>
      </trkpt>
      <trkpt lat="44.37158" lon="4.23048">
        <ele>121.46</ele>
        <time>2019-07-30T15:37:18Z</time>
      </trkpt>
      <trkpt lat="44.37137" lon="4.23062">
        <ele>122.15</ele>
        <time>2019-07-30T15:37:22Z</time>
      </trkpt>
      <trkpt lat="44.37117" lon="4.23077">
        <ele>123.31</ele>
        <time>2019-07-30T15:37:26Z</time>
      </trkpt>
      <trkpt lat="44.37097" lon="4.2309">
        <ele>122.76</ele>
        <time>2019-07-30T15:37:30Z</time>
      </trkpt>
      <trkpt lat="44.37076" lon="4.23106">
        <ele>122.45</ele>
        <time>2019-07-30T15:37:34Z</time>
      </trkpt>
      <trkpt lat="44.3706" lon="4.23118">
        <ele>122.63</ele>
        <time>2019-07-30T15:37:37Z</time>
      </trkpt>
      <trkpt lat="44.3704" lon="4.23134">
        <ele>122.92</ele>
        <time>2019-07-30T15:37:41Z</time>
      </trkpt>
      <trkpt lat="44.37023" lon="4.23146">
        <ele>123.09</ele>
        <time>2019-07-30T15:37:44Z</time>
      </trkpt>
      <trkpt lat="44.37003" lon="4.23162">
        <ele>123.11</ele>
        <time>2019-07-30T15:37:48Z</time>
      </trkpt>
      <trkpt lat="44.36984" lon="4.23177">
        <ele>123.05</ele>
        <time>2019-07-30T15:37:52Z</time>
      </trkpt>
      <trkpt lat="44.36963" lon="4.23193">
        <ele>123.68</ele>
        <time>2019-07-30T15:37:56Z</time>
      </trkpt>
      <trkpt lat="44.36942" lon="4.23208">
        <ele>124.08</ele>
        <time>2019-07-30T15:38:00Z</time>
      </trkpt>
      <trkpt lat="44.36922" lon="4.23223">
        <ele>125.03</ele>
        <time>2019-07-30T15:38:04Z</time>
      </trkpt>
      <trkpt lat="44.36903" lon="4.23238">
        <ele>125.45</ele>
        <time>2019-07-30T15:38:08Z</time>
      </trkpt>
      <trkpt lat="44.36883" lon="4.2325">
        <ele>124.99</ele>
        <time>2019-07-30T15:38:12Z</time>
      </trkpt>
      <trkpt lat="44.36865" lon="4.23256">
        <ele>124.44</ele>
        <time>2019-07-30T15:38:16Z</time>
      </trkpt>
      <trkpt lat="44.36845" lon="4.2325">
        <ele>121.83</ele>
        <time>2019-07-30T15:38:20Z</time>
      </trkpt>
      <trkpt lat="44.36823" lon="4.23245">
        <ele>118.53</ele>
        <time>2019-07-30T15:38:24Z</time>
      </trkpt>
      <trkpt lat="44.36799" lon="4.23241">
        <ele>117.85</ele>
        <time>2019-07-30T15:38:28Z</time>
      </trkpt>
      <trkpt lat="44.36778" lon="4.23238">
        <ele>118.16</ele>
        <time>2019-07-30T15:38:32Z</time>
      </trkpt>
      <trkpt lat="44.36758" lon="4.23236">
        <ele>117.29</ele>
        <time>2019-07-30T15:38:36Z</time>
      </trkpt>
      <trkpt lat="44.36737" lon="4.23232">
        <ele>117.27</ele>
        <time>2019-07-30T15:38:41Z</time>
      </trkpt>
      <trkpt lat="44.36717" lon="4.23228">
        <ele>117.47</ele>
        <time>2019-07-30T15:38:45Z</time>
      </trkpt>
      <trkpt lat="44.36697" lon="4.23226">
        <ele>116.7</ele>
        <time>2019-07-30T15:38:49Z</time>
      </trkpt>
      <trkpt lat="44.36676" lon="4.23222">
        <ele>116.94</ele>
        <time>2019-07-30T15:38:53Z</time>
      </trkpt>
      <trkpt lat="44.36654" lon="4.23217">
        <ele>117.04</ele>
        <time>2019-07-30T15:38:57Z</time>
      </trkpt>
      <trkpt lat="44.36631" lon="4.23214">
        <ele>115.74</ele>
        <time>2019-07-30T15:39:01Z</time>
      </trkpt>
      <trkpt lat="44.36609" lon="4.23212">
        <ele>116.41</ele>
        <time>2019-07-30T15:39:05Z</time>
      </trkpt>
      <trkpt lat="44.36586" lon="4.23209">
        <ele>116.82</ele>
        <time>2019-07-30T15:39:09Z</time>
      </trkpt>
      <trkpt lat="44.36563" lon="4.23205">
        <ele>116.8</ele>
        <time>2019-07-30T15:39:13Z</time>
      </trkpt>
      <trkpt lat="44.36539" lon="4.23202">
        <ele>117.77</ele>
        <time>2019-07-30T15:39:17Z</time>
      </trkpt>
      <trkpt lat="44.36517" lon="4.23199">
        <ele>119.31</ele>
        <time>2019-07-30T15:39:21Z</time>
      </trkpt>
      <trkpt lat="44.36495" lon="4.23196">
        <ele>120.81</ele>
        <time>2019-07-30T15:39:25Z</time>
      </trkpt>
      <trkpt lat="44.36474" lon="4.23193">
        <ele>121.82</ele>
        <time>2019-07-30T15:39:29Z</time>
      </trkpt>
      <trkpt lat="44.36453" lon="4.23191">
        <ele>122.61</ele>
        <time>2019-07-30T15:39:33Z</time>
      </trkpt>
      <trkpt lat="44.36431" lon="4.23188">
        <ele>123.63</ele>
        <time>2019-07-30T15:39:37Z</time>
      </trkpt>
      <trkpt lat="44.3641" lon="4.23177">
        <ele>122.71</ele>
        <time>2019-07-30T15:39:41Z</time>
      </trkpt>
      <trkpt lat="44.36388" lon="4.23165">
        <ele>123.22</ele>
        <time>2019-07-30T15:39:45Z</time>
      </trkpt>
      <trkpt lat="44.36369" lon="4.23157">
        <ele>124.5</ele>
        <time>2019-07-30T15:39:49Z</time>
      </trkpt>
      <trkpt lat="44.36351" lon="4.23158">
        <ele>124.81</ele>
        <time>2019-07-30T15:39:53Z</time>
      </trkpt>
      <trkpt lat="44.36333" lon="4.23172">
        <ele>125.83</ele>
        <time>2019-07-30T15:39:57Z</time>
      </trkpt>
      <trkpt lat="44.36316" lon="4.23185">
        <ele>126.98</ele>
        <time>2019-07-30T15:40:01Z</time>
      </trkpt>
      <trkpt lat="44.36294" lon="4.23188">
        <ele>126.47</ele>
        <time>2019-07-30T15:40:06Z</time>
      </trkpt>
      <trkpt lat="44.36274" lon="4.23188">
        <ele>127.12</ele>
        <time>2019-07-30T15:40:10Z</time>
      </trkpt>
      <trkpt lat="44.36254" lon="4.23187">
        <ele>127.97</ele>
        <time>2019-07-30T15:40:14Z</time>
      </trkpt>
      <trkpt lat="44.36234" lon="4.23189">
        <ele>129.11</ele>
        <time>2019-07-30T15:40:18Z</time>
      </trkpt>
      <trkpt lat="44.36212" lon="4.23187">
        <ele>130.74</ele>
        <time>2019-07-30T15:40:23Z</time>
      </trkpt>
      <trkpt lat="44.36192" lon="4.23184">
        <ele>130.36</ele>
        <time>2019-07-30T15:40:27Z</time>
      </trkpt>
      <trkpt lat="44.36172" lon="4.2318">
        <ele>130.28</ele>
        <time>2019-07-30T15:40:31Z</time>
      </trkpt>
      <trkpt lat="44.3615" lon="4.23174">
        <ele>129.55</ele>
        <time>2019-07-30T15:40:35Z</time>
      </trkpt>
      <trkpt lat="44.36128" lon="4.23164">
        <ele>127.7</ele>
        <time>2019-07-30T15:40:39Z</time>
      </trkpt>
      <trkpt lat="44.36109" lon="4.2316">
        <ele>129.68</ele>
        <time>2019-07-30T15:40:42Z</time>
      </trkpt>
      <trkpt lat="44.36088" lon="4.23154">
        <ele>130.14</ele>
        <time>2019-07-30T15:40:46Z</time>
      </trkpt>
      <trkpt lat="44.36068" lon="4.23148">
        <ele>129.8</ele>
        <time>2019-07-30T15:40:50Z</time>
      </trkpt>
      <trkpt lat="44.36047" lon="4.23142">
        <ele>130.86</ele>
        <time>2019-07-30T15:40:54Z</time>
      </trkpt>
      <trkpt lat="44.36024" lon="4.23131">
        <ele>131.09</ele>
        <time>2019-07-30T15:40:58Z</time>
      </trkpt>
      <trkpt lat="44.36008" lon="4.23121">
        <ele>130.71</ele>
        <time>2019-07-30T15:41:01Z</time>
      </trkpt>
      <trkpt lat="44.35988" lon="4.23104">
        <ele>132.07</ele>
        <time>2019-07-30T15:41:05Z</time>
      </trkpt>
      <trkpt lat="44.35973" lon="4.23091">
        <ele>130.71</ele>
        <time>2019-07-30T15:41:08Z</time>
      </trkpt>
      <trkpt lat="44.35958" lon="4.23076">
        <ele>129.64</ele>
        <time>2019-07-30T15:41:11Z</time>
      </trkpt>
      <trkpt lat="44.35943" lon="4.23062">
        <ele>129.66</ele>
        <time>2019-07-30T15:41:14Z</time>
      </trkpt>
      <trkpt lat="44.35923" lon="4.23043">
        <ele>129.55</ele>
        <time>2019-07-30T15:41:18Z</time>
      </trkpt>
      <trkpt lat="44.35905" lon="4.23027">
        <ele>129.17</ele>
        <time>2019-07-30T15:41:22Z</time>
      </trkpt>
      <trkpt lat="44.35886" lon="4.2301">
        <ele>129.15</ele>
        <time>2019-07-30T15:41:26Z</time>
      </trkpt>
      <trkpt lat="44.35867" lon="4.22993">
        <ele>129.22</ele>
        <time>2019-07-30T15:41:30Z</time>
      </trkpt>
      <trkpt lat="44.35848" lon="4.22977">
        <ele>129.34</ele>
        <time>2019-07-30T15:41:34Z</time>
      </trkpt>
      <trkpt lat="44.35829" lon="4.22963">
        <ele>129.92</ele>
        <time>2019-07-30T15:41:38Z</time>
      </trkpt>
      <trkpt lat="44.3581" lon="4.22952">
        <ele>130.78</ele>
        <time>2019-07-30T15:41:42Z</time>
      </trkpt>
      <trkpt lat="44.35788" lon="4.22941">
        <ele>131.51</ele>
        <time>2019-07-30T15:41:46Z</time>
      </trkpt>
      <trkpt lat="44.35767" lon="4.2293">
        <ele>132.2</ele>
        <time>2019-07-30T15:41:50Z</time>
      </trkpt>
      <trkpt lat="44.35744" lon="4.22919">
        <ele>132.72</ele>
        <time>2019-07-30T15:41:54Z</time>
      </trkpt>
      <trkpt lat="44.35723" lon="4.22908">
        <ele>133.2</ele>
        <time>2019-07-30T15:41:58Z</time>
      </trkpt>
      <trkpt lat="44.35701" lon="4.22898">
        <ele>134.21</ele>
        <time>2019-07-30T15:42:02Z</time>
      </trkpt>
      <trkpt lat="44.35684" lon="4.22888">
        <ele>134.35</ele>
        <time>2019-07-30T15:42:05Z</time>
      </trkpt>
      <trkpt lat="44.35663" lon="4.22874">
        <ele>134.69</ele>
        <time>2019-07-30T15:42:09Z</time>
      </trkpt>
      <trkpt lat="44.35642" lon="4.22859">
        <ele>135.35</ele>
        <time>2019-07-30T15:42:13Z</time>
      </trkpt>
      <trkpt lat="44.35622" lon="4.22844">
        <ele>135.55</ele>
        <time>2019-07-30T15:42:17Z</time>
      </trkpt>
      <trkpt lat="44.35601" lon="4.2283">
        <ele>136.72</ele>
        <time>2019-07-30T15:42:21Z</time>
      </trkpt>
      <trkpt lat="44.35581" lon="4.22815">
        <ele>138.13</ele>
        <time>2019-07-30T15:42:25Z</time>
      </trkpt>
      <trkpt lat="44.35562" lon="4.22802">
        <ele>139.11</ele>
        <time>2019-07-30T15:42:29Z</time>
      </trkpt>
      <trkpt lat="44.3554" lon="4.22794">
        <ele>140.44</ele>
        <time>2019-07-30T15:42:33Z</time>
      </trkpt>
      <trkpt lat="44.35517" lon="4.22793">
        <ele>150.95</ele>
        <time>2019-07-30T15:42:37Z</time>
      </trkpt>
      <trkpt lat="44.35495" lon="4.22791">
        <ele>146.14</ele>
        <time>2019-07-30T15:42:41Z</time>
      </trkpt>
      <trkpt lat="44.35472" lon="4.22785">
        <ele>144.35</ele>
        <time>2019-07-30T15:42:45Z</time>
      </trkpt>
      <trkpt lat="44.35454" lon="4.22771">
        <ele>143.29</ele>
        <time>2019-07-30T15:42:49Z</time>
      </trkpt>
      <trkpt lat="44.35436" lon="4.2276">
        <ele>142.67</ele>
        <time>2019-07-30T15:42:53Z</time>
      </trkpt>
      <trkpt lat="44.35419" lon="4.22747">
        <ele>141.96</ele>
        <time>2019-07-30T15:42:57Z</time>
      </trkpt>
      <trkpt lat="44.35401" lon="4.2274">
        <ele>141.77</ele>
        <time>2019-07-30T15:43:01Z</time>
      </trkpt>
      <trkpt lat="44.35379" lon="4.22736">
        <ele>142.96</ele>
        <time>2019-07-30T15:43:06Z</time>
      </trkpt>
      <trkpt lat="44.35357" lon="4.2273">
        <ele>145.25</ele>
        <time>2019-07-30T15:43:11Z</time>
      </trkpt>
      <trkpt lat="44.35338" lon="4.2273">
        <ele>145.19</ele>
        <time>2019-07-30T15:43:15Z</time>
      </trkpt>
      <trkpt lat="44.35319" lon="4.22741">
        <ele>145.87</ele>
        <time>2019-07-30T15:43:19Z</time>
      </trkpt>
      <trkpt lat="44.35299" lon="4.22752">
        <ele>145.31</ele>
        <time>2019-07-30T15:43:24Z</time>
      </trkpt>
      <trkpt lat="44.3528" lon="4.22757">
        <ele>145.37</ele>
        <time>2019-07-30T15:43:28Z</time>
      </trkpt>
      <trkpt lat="44.35261" lon="4.22765">
        <ele>145.22</ele>
        <time>2019-07-30T15:43:32Z</time>
      </trkpt>
      <trkpt lat="44.35245" lon="4.2278">
        <ele>145.53</ele>
        <time>2019-07-30T15:43:36Z</time>
      </trkpt>
      <trkpt lat="44.35228" lon="4.22792">
        <ele>146.3</ele>
        <time>2019-07-30T15:43:40Z</time>
      </trkpt>
      <trkpt lat="44.35206" lon="4.22793">
        <ele>145.46</ele>
        <time>2019-07-30T15:43:44Z</time>
      </trkpt>
      <trkpt lat="44.35185" lon="4.22785">
        <ele>146.63</ele>
        <time>2019-07-30T15:43:48Z</time>
      </trkpt>
      <trkpt lat="44.35163" lon="4.22775">
        <ele>147.85</ele>
        <time>2019-07-30T15:43:52Z</time>
      </trkpt>
      <trkpt lat="44.35146" lon="4.22765">
        <ele>147.14</ele>
        <time>2019-07-30T15:43:55Z</time>
      </trkpt>
      <trkpt lat="44.35125" lon="4.22753">
        <ele>147.58</ele>
        <time>2019-07-30T15:43:59Z</time>
      </trkpt>
      <trkpt lat="44.35104" lon="4.22741">
        <ele>147.27</ele>
        <time>2019-07-30T15:44:03Z</time>
      </trkpt>
      <trkpt lat="44.35085" lon="4.22731">
        <ele>147.89</ele>
        <time>2019-07-30T15:44:07Z</time>
      </trkpt>
      <trkpt lat="44.35066" lon="4.22723">
        <ele>148.6</ele>
        <time>2019-07-30T15:44:11Z</time>
      </trkpt>
      <trkpt lat="44.35047" lon="4.22715">
        <ele>149.63</ele>
        <time>2019-07-30T15:44:15Z</time>
      </trkpt>
      <trkpt lat="44.35028" lon="4.22707">
        <ele>150.86</ele>
        <time>2019-07-30T15:44:19Z</time>
      </trkpt>
      <trkpt lat="44.35009" lon="4.22697">
        <ele>150.47</ele>
        <time>2019-07-30T15:44:23Z</time>
      </trkpt>
      <trkpt lat="44.3499" lon="4.22689">
        <ele>150.77</ele>
        <time>2019-07-30T15:44:27Z</time>
      </trkpt>
      <trkpt lat="44.34972" lon="4.22681">
        <ele>150.95</ele>
        <time>2019-07-30T15:44:31Z</time>
      </trkpt>
      <trkpt lat="44.34953" lon="4.22674">
        <ele>151.72</ele>
        <time>2019-07-30T15:44:35Z</time>
      </trkpt>
      <trkpt lat="44.34935" lon="4.22666">
        <ele>153.05</ele>
        <time>2019-07-30T15:44:39Z</time>
      </trkpt>
      <trkpt lat="44.34917" lon="4.22658">
        <ele>153.47</ele>
        <time>2019-07-30T15:44:43Z</time>
      </trkpt>
      <trkpt lat="44.34899" lon="4.22655">
        <ele>154.03</ele>
        <time>2019-07-30T15:44:47Z</time>
      </trkpt>
      <trkpt lat="44.34879" lon="4.22668">
        <ele>156.82</ele>
        <time>2019-07-30T15:44:52Z</time>
      </trkpt>
      <trkpt lat="44.34869" lon="4.22689">
        <ele>159.37</ele>
        <time>2019-07-30T15:44:56Z</time>
      </trkpt>
      <trkpt lat="44.34863" lon="4.2272">
        <ele>163.27</ele>
        <time>2019-07-30T15:45:01Z</time>
      </trkpt>
      <trkpt lat="44.34862" lon="4.2275">
        <ele>166.13</ele>
        <time>2019-07-30T15:45:06Z</time>
      </trkpt>
      <trkpt lat="44.34869" lon="4.22774">
        <ele>167.97</ele>
        <time>2019-07-30T15:45:10Z</time>
      </trkpt>
      <trkpt lat="44.34883" lon="4.22798">
        <ele>168.87</ele>
        <time>2019-07-30T15:45:15Z</time>
      </trkpt>
      <trkpt lat="44.34896" lon="4.22814">
        <ele>168.86</ele>
        <time>2019-07-30T15:45:19Z</time>
      </trkpt>
      <trkpt lat="44.34912" lon="4.22833">
        <ele>170.44</ele>
        <time>2019-07-30T15:45:23Z</time>
      </trkpt>
      <trkpt lat="44.34923" lon="4.22858">
        <ele>172.09</ele>
        <time>2019-07-30T15:45:27Z</time>
      </trkpt>
      <trkpt lat="44.34929" lon="4.22883">
        <ele>175.3</ele>
        <time>2019-07-30T15:45:32Z</time>
      </trkpt>
      <trkpt lat="44.34928" lon="4.22911">
        <ele>178.59</ele>
        <time>2019-07-30T15:45:37Z</time>
      </trkpt>
      <trkpt lat="44.34916" lon="4.22932">
        <ele>176.72</ele>
        <time>2019-07-30T15:45:42Z</time>
      </trkpt>
      <trkpt lat="44.34898" lon="4.22945">
        <ele>174.86</ele>
        <time>2019-07-30T15:45:48Z</time>
      </trkpt>
      <trkpt lat="44.3488" lon="4.22964">
        <ele>175.66</ele>
        <time>2019-07-30T15:45:52Z</time>
      </trkpt>
      <trkpt lat="44.34858" lon="4.2297">
        <ele>180.02</ele>
        <time>2019-07-30T15:45:56Z</time>
      </trkpt>
      <trkpt lat="44.34839" lon="4.22971">
        <ele>181.17</ele>
        <time>2019-07-30T15:46:00Z</time>
      </trkpt>
      <trkpt lat="44.34821" lon="4.22971">
        <ele>181.33</ele>
        <time>2019-07-30T15:46:04Z</time>
      </trkpt>
      <trkpt lat="44.348" lon="4.2297">
        <ele>183.04</ele>
        <time>2019-07-30T15:46:08Z</time>
      </trkpt>
      <trkpt lat="44.34782" lon="4.22958">
        <ele>183.02</ele>
        <time>2019-07-30T15:46:12Z</time>
      </trkpt>
      <trkpt lat="44.34771" lon="4.22933">
        <ele>181.73</ele>
        <time>2019-07-30T15:46:16Z</time>
      </trkpt>
      <trkpt lat="44.34769" lon="4.22906">
        <ele>195.06</ele>
        <time>2019-07-30T15:46:19Z</time>
      </trkpt>
      <trkpt lat="44.34764" lon="4.22881">
        <ele>189.59</ele>
        <time>2019-07-30T15:46:22Z</time>
      </trkpt>
      <trkpt lat="44.34758" lon="4.2285">
        <ele>184.95</ele>
        <time>2019-07-30T15:46:26Z</time>
      </trkpt>
      <trkpt lat="44.3475" lon="4.22822">
        <ele>184.29</ele>
        <time>2019-07-30T15:46:30Z</time>
      </trkpt>
      <trkpt lat="44.34745" lon="4.22794">
        <ele>182.51</ele>
        <time>2019-07-30T15:46:35Z</time>
      </trkpt>
      <trkpt lat="44.34747" lon="4.22764">
        <ele>183.49</ele>
        <time>2019-07-30T15:46:39Z</time>
      </trkpt>
      <trkpt lat="44.34754" lon="4.22739">
        <ele>185.08</ele>
        <time>2019-07-30T15:46:43Z</time>
      </trkpt>
      <trkpt lat="44.34758" lon="4.22713">
        <ele>186.08</ele>
        <time>2019-07-30T15:46:47Z</time>
      </trkpt>
      <trkpt lat="44.3476" lon="4.22686">
        <ele>187.26</ele>
        <time>2019-07-30T15:46:51Z</time>
      </trkpt>
      <trkpt lat="44.34761" lon="4.22657">
        <ele>188.55</ele>
        <time>2019-07-30T15:46:55Z</time>
      </trkpt>
      <trkpt lat="44.34761" lon="4.2263">
        <ele>189.24</ele>
        <time>2019-07-30T15:46:59Z</time>
      </trkpt>
      <trkpt lat="44.34752" lon="4.22607">
        <ele>191.74</ele>
        <time>2019-07-30T15:47:03Z</time>
      </trkpt>
      <trkpt lat="44.34734" lon="4.22608">
        <ele>193.34</ele>
        <time>2019-07-30T15:47:08Z</time>
      </trkpt>
      <trkpt lat="44.34727" lon="4.22632">
        <ele>197.53</ele>
        <time>2019-07-30T15:47:12Z</time>
      </trkpt>
      <trkpt lat="44.34726" lon="4.22664">
        <ele>200.49</ele>
        <time>2019-07-30T15:47:16Z</time>
      </trkpt>
      <trkpt lat="44.34723" lon="4.22691">
        <ele>202.33</ele>
        <time>2019-07-30T15:47:20Z</time>
      </trkpt>
      <trkpt lat="44.34711" lon="4.22714">
        <ele>203.51</ele>
        <time>2019-07-30T15:47:24Z</time>
      </trkpt>
      <trkpt lat="44.34694" lon="4.22729">
        <ele>204.56</ele>
        <time>2019-07-30T15:47:28Z</time>
      </trkpt>
      <trkpt lat="44.34675" lon="4.22738">
        <ele>205.85</ele>
        <time>2019-07-30T15:47:32Z</time>
      </trkpt>
      <trkpt lat="44.34655" lon="4.22748">
        <ele>207.3</ele>
        <time>2019-07-30T15:47:36Z</time>
      </trkpt>
      <trkpt lat="44.34636" lon="4.22753">
        <ele>207.9</ele>
        <time>2019-07-30T15:47:40Z</time>
      </trkpt>
      <trkpt lat="44.34616" lon="4.22754">
        <ele>208.73</ele>
        <time>2019-07-30T15:47:44Z</time>
      </trkpt>
      <trkpt lat="44.34596" lon="4.22754">
        <ele>209.62</ele>
        <time>2019-07-30T15:47:48Z</time>
      </trkpt>
      <trkpt lat="44.34575" lon="4.22753">
        <ele>210.51</ele>
        <time>2019-07-30T15:47:52Z</time>
      </trkpt>
      <trkpt lat="44.34556" lon="4.22753">
        <ele>212.12</ele>
        <time>2019-07-30T15:47:56Z</time>
      </trkpt>
      <trkpt lat="44.34536" lon="4.2275">
        <ele>213.34</ele>
        <time>2019-07-30T15:48:00Z</time>
      </trkpt>
      <trkpt lat="44.34518" lon="4.22739">
        <ele>214.42</ele>
        <time>2019-07-30T15:48:04Z</time>
      </trkpt>
      <trkpt lat="44.34504" lon="4.22717">
        <ele>212.67</ele>
        <time>2019-07-30T15:48:08Z</time>
      </trkpt>
      <trkpt lat="44.34501" lon="4.22689">
        <ele>210.8</ele>
        <time>2019-07-30T15:48:12Z</time>
      </trkpt>
      <trkpt lat="44.345" lon="4.22661">
        <ele>210.64</ele>
        <time>2019-07-30T15:48:16Z</time>
      </trkpt>
      <trkpt lat="44.3451" lon="4.22637">
        <ele>210.56</ele>
        <time>2019-07-30T15:48:20Z</time>
      </trkpt>
      <trkpt lat="44.34528" lon="4.22626">
        <ele>210.09</ele>
        <time>2019-07-30T15:48:24Z</time>
      </trkpt>
      <trkpt lat="44.34543" lon="4.22608">
        <ele>211.58</ele>
        <time>2019-07-30T15:48:28Z</time>
      </trkpt>
      <trkpt lat="44.34547" lon="4.22575">
        <ele>211.85</ele>
        <time>2019-07-30T15:48:33Z</time>
      </trkpt>
      <trkpt lat="44.34537" lon="4.22551">
        <ele>213.27</ele>
        <time>2019-07-30T15:48:37Z</time>
      </trkpt>
      <trkpt lat="44.34523" lon="4.2253">
        <ele>214.14</ele>
        <time>2019-07-30T15:48:41Z</time>
      </trkpt>
      <trkpt lat="44.34508" lon="4.22507">
        <ele>215.44</ele>
        <time>2019-07-30T15:48:45Z</time>
      </trkpt>
      <trkpt lat="44.345" lon="4.22479">
        <ele>216.71</ele>
        <time>2019-07-30T15:48:49Z</time>
      </trkpt>
      <trkpt lat="44.345" lon="4.22447">
        <ele>217.52</ele>
        <time>2019-07-30T15:48:53Z</time>
      </trkpt>
      <trkpt lat="44.345" lon="4.22415">
        <ele>219.03</ele>
        <time>2019-07-30T15:48:57Z</time>
      </trkpt>
      <trkpt lat="44.34494" lon="4.22387">
        <ele>220.81</ele>
        <time>2019-07-30T15:49:01Z</time>
      </trkpt>
      <trkpt lat="44.34485" lon="4.22358">
        <ele>221.69</ele>
        <time>2019-07-30T15:49:05Z</time>
      </trkpt>
      <trkpt lat="44.34474" lon="4.22331">
        <ele>223.96</ele>
        <time>2019-07-30T15:49:09Z</time>
      </trkpt>
      <trkpt lat="44.34463" lon="4.22305">
        <ele>225.34</ele>
        <time>2019-07-30T15:49:13Z</time>
      </trkpt>
      <trkpt lat="44.34448" lon="4.22283">
        <ele>226.65</ele>
        <time>2019-07-30T15:49:17Z</time>
      </trkpt>
      <trkpt lat="44.34431" lon="4.22267">
        <ele>227.13</ele>
        <time>2019-07-30T15:49:21Z</time>
      </trkpt>
      <trkpt lat="44.3441" lon="4.22262">
        <ele>228.62</ele>
        <time>2019-07-30T15:49:25Z</time>
      </trkpt>
      <trkpt lat="44.34389" lon="4.2226">
        <ele>229.57</ele>
        <time>2019-07-30T15:49:29Z</time>
      </trkpt>
      <trkpt lat="44.34368" lon="4.22258">
        <ele>230.42</ele>
        <time>2019-07-30T15:49:33Z</time>
      </trkpt>
      <trkpt lat="44.34346" lon="4.2225">
        <ele>231.37</ele>
        <time>2019-07-30T15:49:37Z</time>
      </trkpt>
      <trkpt lat="44.34326" lon="4.22236">
        <ele>232.91</ele>
        <time>2019-07-30T15:49:41Z</time>
      </trkpt>
      <trkpt lat="44.34306" lon="4.2222">
        <ele>234.36</ele>
        <time>2019-07-30T15:49:45Z</time>
      </trkpt>
      <trkpt lat="44.34286" lon="4.22204">
        <ele>235.42</ele>
        <time>2019-07-30T15:49:49Z</time>
      </trkpt>
      <trkpt lat="44.34267" lon="4.22187">
        <ele>235.67</ele>
        <time>2019-07-30T15:49:53Z</time>
      </trkpt>
      <trkpt lat="44.34247" lon="4.22172">
        <ele>236.42</ele>
        <time>2019-07-30T15:49:57Z</time>
      </trkpt>
      <trkpt lat="44.34226" lon="4.22166">
        <ele>228.87</ele>
        <time>2019-07-30T15:50:01Z</time>
      </trkpt>
      <trkpt lat="44.34208" lon="4.22161">
        <ele>234.04</ele>
        <time>2019-07-30T15:50:04Z</time>
      </trkpt>
      <trkpt lat="44.34187" lon="4.22144">
        <ele>236.81</ele>
        <time>2019-07-30T15:50:08Z</time>
      </trkpt>
      <trkpt lat="44.34173" lon="4.22125">
        <ele>231.47</ele>
        <time>2019-07-30T15:50:11Z</time>
      </trkpt>
      <trkpt lat="44.34161" lon="4.22106">
        <ele>235.16</ele>
        <time>2019-07-30T15:50:14Z</time>
      </trkpt>
      <trkpt lat="44.34151" lon="4.22077">
        <ele>237.32</ele>
        <time>2019-07-30T15:50:18Z</time>
      </trkpt>
      <trkpt lat="44.3414" lon="4.22051">
        <ele>237.89</ele>
        <time>2019-07-30T15:50:22Z</time>
      </trkpt>
      <trkpt lat="44.34126" lon="4.22026">
        <ele>239.48</ele>
        <time>2019-07-30T15:50:26Z</time>
      </trkpt>
      <trkpt lat="44.34112" lon="4.22008">
        <ele>240.63</ele>
        <time>2019-07-30T15:50:29Z</time>
      </trkpt>
      <trkpt lat="44.34094" lon="4.21991">
        <ele>241.97</ele>
        <time>2019-07-30T15:50:33Z</time>
      </trkpt>
      <trkpt lat="44.34076" lon="4.21981">
        <ele>243.92</ele>
        <time>2019-07-30T15:50:37Z</time>
      </trkpt>
      <trkpt lat="44.34055" lon="4.21974">
        <ele>244.45</ele>
        <time>2019-07-30T15:50:41Z</time>
      </trkpt>
      <trkpt lat="44.34034" lon="4.21973">
        <ele>245.61</ele>
        <time>2019-07-30T15:50:45Z</time>
      </trkpt>
      <trkpt lat="44.3401" lon="4.21972">
        <ele>244.44</ele>
        <time>2019-07-30T15:50:49Z</time>
      </trkpt>
      <trkpt lat="44.33988" lon="4.21973">
        <ele>244.29</ele>
        <time>2019-07-30T15:50:53Z</time>
      </trkpt>
      <trkpt lat="44.33967" lon="4.21975">
        <ele>245.32</ele>
        <time>2019-07-30T15:50:57Z</time>
      </trkpt>
      <trkpt lat="44.33944" lon="4.21977">
        <ele>247.09</ele>
        <time>2019-07-30T15:51:01Z</time>
      </trkpt>
      <trkpt lat="44.33923" lon="4.21978">
        <ele>233.76</ele>
        <time>2019-07-30T15:51:05Z</time>
      </trkpt>
      <trkpt lat="44.33901" lon="4.21977">
        <ele>244.71</ele>
        <time>2019-07-30T15:51:09Z</time>
      </trkpt>
      <trkpt lat="44.33883" lon="4.2198">
        <ele>247.86</ele>
        <time>2019-07-30T15:51:12Z</time>
      </trkpt>
      <trkpt lat="44.33863" lon="4.21982">
        <ele>249.06</ele>
        <time>2019-07-30T15:51:16Z</time>
      </trkpt>
      <trkpt lat="44.33842" lon="4.21982">
        <ele>250.4</ele>
        <time>2019-07-30T15:51:20Z</time>
      </trkpt>
      <trkpt lat="44.33821" lon="4.21982">
        <ele>251.61</ele>
        <time>2019-07-30T15:51:24Z</time>
      </trkpt>
      <trkpt lat="44.33798" lon="4.21977">
        <ele>251.74</ele>
        <time>2019-07-30T15:51:28Z</time>
      </trkpt>
      <trkpt lat="44.3378" lon="4.21973">
        <ele>251.34</ele>
        <time>2019-07-30T15:51:31Z</time>
      </trkpt>
      <trkpt lat="44.33757" lon="4.21968">
        <ele>251.33</ele>
        <time>2019-07-30T15:51:35Z</time>
      </trkpt>
      <trkpt lat="44.33734" lon="4.21968">
        <ele>251.04</ele>
        <time>2019-07-30T15:51:39Z</time>
      </trkpt>
      <trkpt lat="44.33713" lon="4.21973">
        <ele>249.69</ele>
        <time>2019-07-30T15:51:42Z</time>
      </trkpt>
      <trkpt lat="44.33693" lon="4.21981">
        <ele>248.74</ele>
        <time>2019-07-30T15:51:45Z</time>
      </trkpt>
      <trkpt lat="44.33671" lon="4.21991">
        <ele>248.09</ele>
        <time>2019-07-30T15:51:48Z</time>
      </trkpt>
      <trkpt lat="44.33648" lon="4.22002">
        <ele>247.56</ele>
        <time>2019-07-30T15:51:51Z</time>
      </trkpt>
      <trkpt lat="44.33624" lon="4.22013">
        <ele>246.19</ele>
        <time>2019-07-30T15:51:54Z</time>
      </trkpt>
      <trkpt lat="44.33598" lon="4.22014">
        <ele>245.37</ele>
        <time>2019-07-30T15:51:57Z</time>
      </trkpt>
      <trkpt lat="44.33575" lon="4.22005">
        <ele>245.06</ele>
        <time>2019-07-30T15:52:00Z</time>
      </trkpt>
      <trkpt lat="44.33556" lon="4.21996">
        <ele>245.72</ele>
        <time>2019-07-30T15:52:03Z</time>
      </trkpt>
      <trkpt lat="44.33535" lon="4.21986">
        <ele>244.78</ele>
        <time>2019-07-30T15:52:07Z</time>
      </trkpt>
      <trkpt lat="44.33516" lon="4.21978">
        <ele>243.37</ele>
        <time>2019-07-30T15:52:10Z</time>
      </trkpt>
      <trkpt lat="44.33497" lon="4.21966">
        <ele>242.31</ele>
        <time>2019-07-30T15:52:13Z</time>
      </trkpt>
      <trkpt lat="44.33486" lon="4.21944">
        <ele>241.86</ele>
        <time>2019-07-30T15:52:16Z</time>
      </trkpt>
      <trkpt lat="44.33481" lon="4.21913">
        <ele>241.75</ele>
        <time>2019-07-30T15:52:20Z</time>
      </trkpt>
      <trkpt lat="44.3348" lon="4.21883">
        <ele>241.9</ele>
        <time>2019-07-30T15:52:24Z</time>
      </trkpt>
      <trkpt lat="44.33477" lon="4.2185">
        <ele>242.52</ele>
        <time>2019-07-30T15:52:28Z</time>
      </trkpt>
      <trkpt lat="44.33477" lon="4.21824">
        <ele>242.86</ele>
        <time>2019-07-30T15:52:31Z</time>
      </trkpt>
      <trkpt lat="44.33474" lon="4.21796">
        <ele>242.96</ele>
        <time>2019-07-30T15:52:34Z</time>
      </trkpt>
      <trkpt lat="44.33474" lon="4.2177">
        <ele>243.05</ele>
        <time>2019-07-30T15:52:37Z</time>
      </trkpt>
      <trkpt lat="44.33471" lon="4.21743">
        <ele>242.55</ele>
        <time>2019-07-30T15:52:40Z</time>
      </trkpt>
      <trkpt lat="44.33465" lon="4.21714">
        <ele>242.02</ele>
        <time>2019-07-30T15:52:43Z</time>
      </trkpt>
      <trkpt lat="44.33453" lon="4.21688">
        <ele>241.64</ele>
        <time>2019-07-30T15:52:46Z</time>
      </trkpt>
      <trkpt lat="44.33439" lon="4.21662">
        <ele>241.32</ele>
        <time>2019-07-30T15:52:49Z</time>
      </trkpt>
      <trkpt lat="44.33423" lon="4.21637">
        <ele>239.89</ele>
        <time>2019-07-30T15:52:52Z</time>
      </trkpt>
      <trkpt lat="44.33402" lon="4.21619">
        <ele>237.96</ele>
        <time>2019-07-30T15:52:55Z</time>
      </trkpt>
      <trkpt lat="44.33378" lon="4.21608">
        <ele>235.67</ele>
        <time>2019-07-30T15:52:58Z</time>
      </trkpt>
      <trkpt lat="44.33352" lon="4.216">
        <ele>233.18</ele>
        <time>2019-07-30T15:53:01Z</time>
      </trkpt>
      <trkpt lat="44.33333" lon="4.21594">
        <ele>232</ele>
        <time>2019-07-30T15:53:03Z</time>
      </trkpt>
      <trkpt lat="44.33315" lon="4.21588">
        <ele>230.72</ele>
        <time>2019-07-30T15:53:05Z</time>
      </trkpt>
      <trkpt lat="44.33296" lon="4.21582">
        <ele>229.43</ele>
        <time>2019-07-30T15:53:07Z</time>
      </trkpt>
      <trkpt lat="44.33277" lon="4.21577">
        <ele>228.4</ele>
        <time>2019-07-30T15:53:09Z</time>
      </trkpt>
      <trkpt lat="44.33258" lon="4.21571">
        <ele>227.66</ele>
        <time>2019-07-30T15:53:11Z</time>
      </trkpt>
      <trkpt lat="44.3324" lon="4.21568">
        <ele>227.25</ele>
        <time>2019-07-30T15:53:13Z</time>
      </trkpt>
      <trkpt lat="44.3322" lon="4.21567">
        <ele>226.4</ele>
        <time>2019-07-30T15:53:15Z</time>
      </trkpt>
      <trkpt lat="44.33202" lon="4.21567">
        <ele>225.43</ele>
        <time>2019-07-30T15:53:17Z</time>
      </trkpt>
      <trkpt lat="44.33183" lon="4.21569">
        <ele>224.99</ele>
        <time>2019-07-30T15:53:19Z</time>
      </trkpt>
      <trkpt lat="44.33165" lon="4.21575">
        <ele>224.29</ele>
        <time>2019-07-30T15:53:21Z</time>
      </trkpt>
      <trkpt lat="44.33148" lon="4.21587">
        <ele>224.18</ele>
        <time>2019-07-30T15:53:23Z</time>
      </trkpt>
      <trkpt lat="44.33132" lon="4.21601">
        <ele>223.86</ele>
        <time>2019-07-30T15:53:25Z</time>
      </trkpt>
      <trkpt lat="44.33116" lon="4.21616">
        <ele>223.24</ele>
        <time>2019-07-30T15:53:27Z</time>
      </trkpt>
      <trkpt lat="44.33097" lon="4.21627">
        <ele>222.29</ele>
        <time>2019-07-30T15:53:29Z</time>
      </trkpt>
      <trkpt lat="44.33077" lon="4.2163">
        <ele>221.64</ele>
        <time>2019-07-30T15:53:31Z</time>
      </trkpt>
      <trkpt lat="44.33058" lon="4.2163">
        <ele>221.04</ele>
        <time>2019-07-30T15:53:33Z</time>
      </trkpt>
      <trkpt lat="44.33032" lon="4.2163">
        <ele>219.84</ele>
        <time>2019-07-30T15:53:36Z</time>
      </trkpt>
      <trkpt lat="44.33008" lon="4.21643">
        <ele>219.56</ele>
        <time>2019-07-30T15:53:39Z</time>
      </trkpt>
      <trkpt lat="44.32988" lon="4.21668">
        <ele>218.71</ele>
        <time>2019-07-30T15:53:42Z</time>
      </trkpt>
      <trkpt lat="44.32978" lon="4.21689">
        <ele>218.85</ele>
        <time>2019-07-30T15:53:44Z</time>
      </trkpt>
      <trkpt lat="44.3297" lon="4.21712">
        <ele>218.53</ele>
        <time>2019-07-30T15:53:46Z</time>
      </trkpt>
      <trkpt lat="44.32956" lon="4.21743">
        <ele>217.46</ele>
        <time>2019-07-30T15:53:49Z</time>
      </trkpt>
      <trkpt lat="44.32945" lon="4.21777">
        <ele>216.38</ele>
        <time>2019-07-30T15:53:52Z</time>
      </trkpt>
      <trkpt lat="44.32943" lon="4.21812">
        <ele>215.94</ele>
        <time>2019-07-30T15:53:55Z</time>
      </trkpt>
      <trkpt lat="44.32945" lon="4.21849">
        <ele>214.81</ele>
        <time>2019-07-30T15:53:58Z</time>
      </trkpt>
      <trkpt lat="44.32948" lon="4.21884">
        <ele>213.44</ele>
        <time>2019-07-30T15:54:01Z</time>
      </trkpt>
      <trkpt lat="44.32949" lon="4.2191">
        <ele>213.02</ele>
        <time>2019-07-30T15:54:03Z</time>
      </trkpt>
      <trkpt lat="44.32955" lon="4.21942">
        <ele>212.08</ele>
        <time>2019-07-30T15:54:06Z</time>
      </trkpt>
      <trkpt lat="44.32961" lon="4.21969">
        <ele>211.64</ele>
        <time>2019-07-30T15:54:09Z</time>
      </trkpt>
      <trkpt lat="44.32956" lon="4.21997">
        <ele>211.66</ele>
        <time>2019-07-30T15:54:12Z</time>
      </trkpt>
      <trkpt lat="44.32939" lon="4.22023">
        <ele>206.63</ele>
        <time>2019-07-30T15:54:15Z</time>
      </trkpt>
      <trkpt lat="44.32927" lon="4.22049">
        <ele>204.37</ele>
        <time>2019-07-30T15:54:18Z</time>
      </trkpt>
      <trkpt lat="44.32911" lon="4.22064">
        <ele>201.25</ele>
        <time>2019-07-30T15:54:21Z</time>
      </trkpt>
      <trkpt lat="44.32896" lon="4.22042">
        <ele>197.16</ele>
        <time>2019-07-30T15:54:25Z</time>
      </trkpt>
      <trkpt lat="44.32907" lon="4.22019">
        <ele>195.27</ele>
        <time>2019-07-30T15:54:28Z</time>
      </trkpt>
      <trkpt lat="44.32917" lon="4.21997">
        <ele>195</ele>
        <time>2019-07-30T15:54:31Z</time>
      </trkpt>
      <trkpt lat="44.32917" lon="4.21968">
        <ele>194.44</ele>
        <time>2019-07-30T15:54:34Z</time>
      </trkpt>
      <trkpt lat="44.32908" lon="4.2194">
        <ele>193.19</ele>
        <time>2019-07-30T15:54:37Z</time>
      </trkpt>
      <trkpt lat="44.32897" lon="4.21912">
        <ele>191.7</ele>
        <time>2019-07-30T15:54:40Z</time>
      </trkpt>
      <trkpt lat="44.3288" lon="4.21888">
        <ele>190.71</ele>
        <time>2019-07-30T15:54:43Z</time>
      </trkpt>
      <trkpt lat="44.32861" lon="4.21873">
        <ele>187.95</ele>
        <time>2019-07-30T15:54:46Z</time>
      </trkpt>
      <trkpt lat="44.32838" lon="4.21864">
        <ele>185.62</ele>
        <time>2019-07-30T15:54:49Z</time>
      </trkpt>
      <trkpt lat="44.32813" lon="4.21856">
        <ele>184.5</ele>
        <time>2019-07-30T15:54:52Z</time>
      </trkpt>
      <trkpt lat="44.32787" lon="4.21847">
        <ele>183.28</ele>
        <time>2019-07-30T15:54:55Z</time>
      </trkpt>
      <trkpt lat="44.32769" lon="4.21841">
        <ele>181.98</ele>
        <time>2019-07-30T15:54:57Z</time>
      </trkpt>
      <trkpt lat="44.3275" lon="4.21834">
        <ele>180.98</ele>
        <time>2019-07-30T15:54:59Z</time>
      </trkpt>
      <trkpt lat="44.32731" lon="4.21827">
        <ele>179.66</ele>
        <time>2019-07-30T15:55:01Z</time>
      </trkpt>
      <trkpt lat="44.32712" lon="4.21823">
        <ele>178.94</ele>
        <time>2019-07-30T15:55:03Z</time>
      </trkpt>
      <trkpt lat="44.32693" lon="4.21826">
        <ele>177.85</ele>
        <time>2019-07-30T15:55:05Z</time>
      </trkpt>
      <trkpt lat="44.32674" lon="4.21835">
        <ele>177.01</ele>
        <time>2019-07-30T15:55:07Z</time>
      </trkpt>
      <trkpt lat="44.32655" lon="4.21846">
        <ele>175.86</ele>
        <time>2019-07-30T15:55:09Z</time>
      </trkpt>
      <trkpt lat="44.32638" lon="4.21856">
        <ele>175.05</ele>
        <time>2019-07-30T15:55:11Z</time>
      </trkpt>
      <trkpt lat="44.3262" lon="4.21867">
        <ele>174.16</ele>
        <time>2019-07-30T15:55:13Z</time>
      </trkpt>
      <trkpt lat="44.32602" lon="4.21879">
        <ele>173.54</ele>
        <time>2019-07-30T15:55:15Z</time>
      </trkpt>
      <trkpt lat="44.32584" lon="4.21889">
        <ele>172.99</ele>
        <time>2019-07-30T15:55:17Z</time>
      </trkpt>
      <trkpt lat="44.32567" lon="4.21899">
        <ele>172.81</ele>
        <time>2019-07-30T15:55:19Z</time>
      </trkpt>
      <trkpt lat="44.32549" lon="4.21909">
        <ele>172.23</ele>
        <time>2019-07-30T15:55:21Z</time>
      </trkpt>
      <trkpt lat="44.32531" lon="4.21918">
        <ele>171.87</ele>
        <time>2019-07-30T15:55:23Z</time>
      </trkpt>
      <trkpt lat="44.32506" lon="4.21929">
        <ele>172.48</ele>
        <time>2019-07-30T15:55:26Z</time>
      </trkpt>
      <trkpt lat="44.32483" lon="4.21939">
        <ele>172.45</ele>
        <time>2019-07-30T15:55:29Z</time>
      </trkpt>
      <trkpt lat="44.32461" lon="4.21948">
        <ele>171.61</ele>
        <time>2019-07-30T15:55:32Z</time>
      </trkpt>
      <trkpt lat="44.3244" lon="4.21957">
        <ele>171.55</ele>
        <time>2019-07-30T15:55:35Z</time>
      </trkpt>
      <trkpt lat="44.32422" lon="4.21968">
        <ele>171.32</ele>
        <time>2019-07-30T15:55:38Z</time>
      </trkpt>
      <trkpt lat="44.32406" lon="4.2198">
        <ele>170.67</ele>
        <time>2019-07-30T15:55:41Z</time>
      </trkpt>
      <trkpt lat="44.3239" lon="4.21994">
        <ele>170.39</ele>
        <time>2019-07-30T15:55:44Z</time>
      </trkpt>
      <trkpt lat="44.32373" lon="4.22003">
        <ele>170.43</ele>
        <time>2019-07-30T15:55:47Z</time>
      </trkpt>
      <trkpt lat="44.32355" lon="4.22005">
        <ele>170.53</ele>
        <time>2019-07-30T15:55:50Z</time>
      </trkpt>
      <trkpt lat="44.32336" lon="4.22004">
        <ele>170.48</ele>
        <time>2019-07-30T15:55:53Z</time>
      </trkpt>
      <trkpt lat="44.32317" lon="4.22002">
        <ele>169.98</ele>
        <time>2019-07-30T15:55:56Z</time>
      </trkpt>
      <trkpt lat="44.32297" lon="4.22002">
        <ele>169.86</ele>
        <time>2019-07-30T15:55:59Z</time>
      </trkpt>
      <trkpt lat="44.32276" lon="4.22001">
        <ele>169.53</ele>
        <time>2019-07-30T15:56:02Z</time>
      </trkpt>
      <trkpt lat="44.32257" lon="4.22001">
        <ele>169.72</ele>
        <time>2019-07-30T15:56:05Z</time>
      </trkpt>
      <trkpt lat="44.32237" lon="4.22001">
        <ele>169.73</ele>
        <time>2019-07-30T15:56:08Z</time>
      </trkpt>
      <trkpt lat="44.32217" lon="4.22002">
        <ele>169.85</ele>
        <time>2019-07-30T15:56:11Z</time>
      </trkpt>
      <trkpt lat="44.32199" lon="4.22005">
        <ele>170.29</ele>
        <time>2019-07-30T15:56:14Z</time>
      </trkpt>
      <trkpt lat="44.32179" lon="4.2201">
        <ele>170.11</ele>
        <time>2019-07-30T15:56:17Z</time>
      </trkpt>
      <trkpt lat="44.32159" lon="4.2201">
        <ele>170.7</ele>
        <time>2019-07-30T15:56:20Z</time>
      </trkpt>
      <trkpt lat="44.3214" lon="4.22007">
        <ele>170.73</ele>
        <time>2019-07-30T15:56:23Z</time>
      </trkpt>
      <trkpt lat="44.32121" lon="4.22001">
        <ele>169.91</ele>
        <time>2019-07-30T15:56:26Z</time>
      </trkpt>
      <trkpt lat="44.32102" lon="4.21995">
        <ele>169.62</ele>
        <time>2019-07-30T15:56:29Z</time>
      </trkpt>
      <trkpt lat="44.32084" lon="4.21989">
        <ele>169.98</ele>
        <time>2019-07-30T15:56:32Z</time>
      </trkpt>
      <trkpt lat="44.32067" lon="4.21978">
        <ele>169.74</ele>
        <time>2019-07-30T15:56:35Z</time>
      </trkpt>
      <trkpt lat="44.32053" lon="4.2196">
        <ele>168.32</ele>
        <time>2019-07-30T15:56:38Z</time>
      </trkpt>
      <trkpt lat="44.32038" lon="4.21944">
        <ele>167.76</ele>
        <time>2019-07-30T15:56:41Z</time>
      </trkpt>
      <trkpt lat="44.32019" lon="4.21936">
        <ele>167.83</ele>
        <time>2019-07-30T15:56:44Z</time>
      </trkpt>
      <trkpt lat="44.32001" lon="4.21931">
        <ele>167.81</ele>
        <time>2019-07-30T15:56:47Z</time>
      </trkpt>
      <trkpt lat="44.31984" lon="4.21923">
        <ele>168.23</ele>
        <time>2019-07-30T15:56:50Z</time>
      </trkpt>
      <trkpt lat="44.31967" lon="4.21913">
        <ele>167.53</ele>
        <time>2019-07-30T15:56:53Z</time>
      </trkpt>
      <trkpt lat="44.31946" lon="4.21899">
        <ele>166.75</ele>
        <time>2019-07-30T15:56:57Z</time>
      </trkpt>
      <trkpt lat="44.31926" lon="4.21885">
        <ele>166.79</ele>
        <time>2019-07-30T15:57:01Z</time>
      </trkpt>
      <trkpt lat="44.31906" lon="4.21871">
        <ele>166.85</ele>
        <time>2019-07-30T15:57:05Z</time>
      </trkpt>
      <trkpt lat="44.31884" lon="4.21859">
        <ele>166.38</ele>
        <time>2019-07-30T15:57:09Z</time>
      </trkpt>
      <trkpt lat="44.31866" lon="4.21853">
        <ele>165.6</ele>
        <time>2019-07-30T15:57:12Z</time>
      </trkpt>
      <trkpt lat="44.31846" lon="4.21846">
        <ele>164.33</ele>
        <time>2019-07-30T15:57:15Z</time>
      </trkpt>
      <trkpt lat="44.31825" lon="4.21837">
        <ele>163.76</ele>
        <time>2019-07-30T15:57:18Z</time>
      </trkpt>
      <trkpt lat="44.31803" lon="4.21827">
        <ele>163.35</ele>
        <time>2019-07-30T15:57:21Z</time>
      </trkpt>
      <trkpt lat="44.31782" lon="4.21821">
        <ele>162.86</ele>
        <time>2019-07-30T15:57:24Z</time>
      </trkpt>
      <trkpt lat="44.3176" lon="4.21813">
        <ele>162.54</ele>
        <time>2019-07-30T15:57:27Z</time>
      </trkpt>
      <trkpt lat="44.3174" lon="4.21802">
        <ele>162.7</ele>
        <time>2019-07-30T15:57:30Z</time>
      </trkpt>
      <trkpt lat="44.31722" lon="4.21791">
        <ele>161.85</ele>
        <time>2019-07-30T15:57:33Z</time>
      </trkpt>
      <trkpt lat="44.31701" lon="4.21779">
        <ele>162.25</ele>
        <time>2019-07-30T15:57:37Z</time>
      </trkpt>
      <trkpt lat="44.31684" lon="4.21768">
        <ele>162.55</ele>
        <time>2019-07-30T15:57:41Z</time>
      </trkpt>
      <trkpt lat="44.31666" lon="4.21755">
        <ele>161.91</ele>
        <time>2019-07-30T15:57:45Z</time>
      </trkpt>
      <trkpt lat="44.31649" lon="4.21742">
        <ele>162.42</ele>
        <time>2019-07-30T15:57:49Z</time>
      </trkpt>
      <trkpt lat="44.31634" lon="4.21725">
        <ele>161.96</ele>
        <time>2019-07-30T15:57:53Z</time>
      </trkpt>
      <trkpt lat="44.31619" lon="4.2171">
        <ele>162.78</ele>
        <time>2019-07-30T15:57:57Z</time>
      </trkpt>
      <trkpt lat="44.31604" lon="4.21695">
        <ele>164.54</ele>
        <time>2019-07-30T15:58:02Z</time>
      </trkpt>
      <trkpt lat="44.31587" lon="4.21679">
        <ele>175.88</ele>
        <time>2019-07-30T15:58:06Z</time>
      </trkpt>
      <trkpt lat="44.31571" lon="4.21668">
        <ele>172.29</ele>
        <time>2019-07-30T15:58:13Z</time>
      </trkpt>
      <trkpt lat="44.31551" lon="4.21655">
        <ele>171.23</ele>
        <time>2019-07-30T15:58:18Z</time>
      </trkpt>
      <trkpt lat="44.31532" lon="4.2164">
        <ele>170.28</ele>
        <time>2019-07-30T15:58:22Z</time>
      </trkpt>
      <trkpt lat="44.31509" lon="4.21628">
        <ele>169.32</ele>
        <time>2019-07-30T15:58:26Z</time>
      </trkpt>
      <trkpt lat="44.31488" lon="4.21619">
        <ele>168.71</ele>
        <time>2019-07-30T15:58:29Z</time>
      </trkpt>
      <trkpt lat="44.31468" lon="4.21612">
        <ele>167.67</ele>
        <time>2019-07-30T15:58:32Z</time>
      </trkpt>
      <trkpt lat="44.3145" lon="4.21603">
        <ele>165.55</ele>
        <time>2019-07-30T15:58:35Z</time>
      </trkpt>
      <trkpt lat="44.31428" lon="4.21592">
        <ele>164.21</ele>
        <time>2019-07-30T15:58:39Z</time>
      </trkpt>
      <trkpt lat="44.31407" lon="4.21582">
        <ele>163.36</ele>
        <time>2019-07-30T15:58:43Z</time>
      </trkpt>
      <trkpt lat="44.31386" lon="4.21574">
        <ele>161.07</ele>
        <time>2019-07-30T15:58:46Z</time>
      </trkpt>
      <trkpt lat="44.31365" lon="4.21564">
        <ele>159.14</ele>
        <time>2019-07-30T15:58:49Z</time>
      </trkpt>
      <trkpt lat="44.31347" lon="4.21552">
        <ele>158.48</ele>
        <time>2019-07-30T15:58:53Z</time>
      </trkpt>
      <trkpt lat="44.31332" lon="4.21537">
        <ele>155.51</ele>
        <time>2019-07-30T15:59:02Z</time>
      </trkpt>
      <trkpt lat="44.31319" lon="4.21557">
        <ele>158.97</ele>
        <time>2019-07-30T15:59:10Z</time>
      </trkpt>
      <trkpt lat="44.31309" lon="4.21579">
        <ele>159.75</ele>
        <time>2019-07-30T15:59:15Z</time>
      </trkpt>
      <trkpt lat="44.313" lon="4.21601">
        <ele>160.27</ele>
        <time>2019-07-30T15:59:21Z</time>
      </trkpt>
      <trkpt lat="44.31289" lon="4.21625">
        <ele>161.72</ele>
        <time>2019-07-30T15:59:26Z</time>
      </trkpt>
      <trkpt lat="44.31277" lon="4.2165">
        <ele>161.58</ele>
        <time>2019-07-30T15:59:30Z</time>
      </trkpt>
      <trkpt lat="44.31266" lon="4.21676">
        <ele>161.38</ele>
        <time>2019-07-30T15:59:34Z</time>
      </trkpt>
      <trkpt lat="44.31256" lon="4.21697">
        <ele>161.26</ele>
        <time>2019-07-30T15:59:37Z</time>
      </trkpt>
      <trkpt lat="44.31243" lon="4.21724">
        <ele>161.08</ele>
        <time>2019-07-30T15:59:41Z</time>
      </trkpt>
      <trkpt lat="44.31231" lon="4.21752">
        <ele>161.03</ele>
        <time>2019-07-30T15:59:45Z</time>
      </trkpt>
      <trkpt lat="44.3122" lon="4.21773">
        <ele>160.75</ele>
        <time>2019-07-30T15:59:48Z</time>
      </trkpt>
      <trkpt lat="44.31209" lon="4.21801">
        <ele>160.82</ele>
        <time>2019-07-30T15:59:52Z</time>
      </trkpt>
      <trkpt lat="44.31196" lon="4.21828">
        <ele>160.84</ele>
        <time>2019-07-30T15:59:56Z</time>
      </trkpt>
      <trkpt lat="44.31184" lon="4.21856">
        <ele>160.77</ele>
        <time>2019-07-30T16:00:00Z</time>
      </trkpt>
      <trkpt lat="44.31174" lon="4.21878">
        <ele>160.67</ele>
        <time>2019-07-30T16:00:03Z</time>
      </trkpt>
      <trkpt lat="44.31164" lon="4.21899">
        <ele>160.08</ele>
        <time>2019-07-30T16:00:06Z</time>
      </trkpt>
      <trkpt lat="44.31152" lon="4.21927">
        <ele>159.26</ele>
        <time>2019-07-30T16:00:10Z</time>
      </trkpt>
      <trkpt lat="44.3114" lon="4.21955">
        <ele>159.58</ele>
        <time>2019-07-30T16:00:14Z</time>
      </trkpt>
      <trkpt lat="44.31129" lon="4.21984">
        <ele>159.67</ele>
        <time>2019-07-30T16:00:18Z</time>
      </trkpt>
      <trkpt lat="44.31119" lon="4.22013">
        <ele>165.79</ele>
        <time>2019-07-30T16:00:22Z</time>
      </trkpt>
      <trkpt lat="44.31112" lon="4.22044">
        <ele>161.2</ele>
        <time>2019-07-30T16:00:26Z</time>
      </trkpt>
      <trkpt lat="44.31109" lon="4.22069">
        <ele>159.77</ele>
        <time>2019-07-30T16:00:29Z</time>
      </trkpt>
      <trkpt lat="44.31104" lon="4.22101">
        <ele>159</ele>
        <time>2019-07-30T16:00:33Z</time>
      </trkpt>
      <trkpt lat="44.31101" lon="4.22133">
        <ele>159.32</ele>
        <time>2019-07-30T16:00:37Z</time>
      </trkpt>
      <trkpt lat="44.31096" lon="4.22166">
        <ele>158.77</ele>
        <time>2019-07-30T16:00:41Z</time>
      </trkpt>
      <trkpt lat="44.31088" lon="4.22197">
        <ele>158.5</ele>
        <time>2019-07-30T16:00:45Z</time>
      </trkpt>
      <trkpt lat="44.31073" lon="4.22223">
        <ele>159.03</ele>
        <time>2019-07-30T16:00:49Z</time>
      </trkpt>
      <trkpt lat="44.31061" lon="4.22242">
        <ele>159.63</ele>
        <time>2019-07-30T16:00:52Z</time>
      </trkpt>
      <trkpt lat="44.31041" lon="4.2226">
        <ele>159.31</ele>
        <time>2019-07-30T16:00:56Z</time>
      </trkpt>
      <trkpt lat="44.31024" lon="4.22276">
        <ele>158.4</ele>
        <time>2019-07-30T16:01:00Z</time>
      </trkpt>
      <trkpt lat="44.31008" lon="4.22293">
        <ele>158.56</ele>
        <time>2019-07-30T16:01:04Z</time>
      </trkpt>
      <trkpt lat="44.3099" lon="4.22313">
        <ele>158.54</ele>
        <time>2019-07-30T16:01:08Z</time>
      </trkpt>
      <trkpt lat="44.30971" lon="4.22332">
        <ele>158.14</ele>
        <time>2019-07-30T16:01:12Z</time>
      </trkpt>
      <trkpt lat="44.30952" lon="4.22351">
        <ele>158.43</ele>
        <time>2019-07-30T16:01:16Z</time>
      </trkpt>
      <trkpt lat="44.30938" lon="4.22366">
        <ele>158.25</ele>
        <time>2019-07-30T16:01:19Z</time>
      </trkpt>
      <trkpt lat="44.30921" lon="4.22387">
        <ele>158.72</ele>
        <time>2019-07-30T16:01:23Z</time>
      </trkpt>
      <trkpt lat="44.30908" lon="4.22412">
        <ele>159.1</ele>
        <time>2019-07-30T16:01:27Z</time>
      </trkpt>
      <trkpt lat="44.30896" lon="4.22439">
        <ele>159.26</ele>
        <time>2019-07-30T16:01:31Z</time>
      </trkpt>
      <trkpt lat="44.30888" lon="4.22469">
        <ele>158.43</ele>
        <time>2019-07-30T16:01:35Z</time>
      </trkpt>
      <trkpt lat="44.30883" lon="4.22494">
        <ele>158.09</ele>
        <time>2019-07-30T16:01:38Z</time>
      </trkpt>
      <trkpt lat="44.30877" lon="4.22525">
        <ele>156.6</ele>
        <time>2019-07-30T16:01:42Z</time>
      </trkpt>
      <trkpt lat="44.30876" lon="4.22554">
        <ele>156.43</ele>
        <time>2019-07-30T16:01:46Z</time>
      </trkpt>
      <trkpt lat="44.30876" lon="4.22585">
        <ele>157.6</ele>
        <time>2019-07-30T16:01:50Z</time>
      </trkpt>
      <trkpt lat="44.30876" lon="4.22618">
        <ele>157.71</ele>
        <time>2019-07-30T16:01:54Z</time>
      </trkpt>
      <trkpt lat="44.30875" lon="4.22651">
        <ele>158.26</ele>
        <time>2019-07-30T16:01:58Z</time>
      </trkpt>
      <trkpt lat="44.30875" lon="4.22683">
        <ele>159.35</ele>
        <time>2019-07-30T16:02:02Z</time>
      </trkpt>
      <trkpt lat="44.30875" lon="4.22715">
        <ele>159.83</ele>
        <time>2019-07-30T16:02:06Z</time>
      </trkpt>
      <trkpt lat="44.30873" lon="4.22741">
        <ele>159.25</ele>
        <time>2019-07-30T16:02:09Z</time>
      </trkpt>
      <trkpt lat="44.30873" lon="4.22775">
        <ele>158.08</ele>
        <time>2019-07-30T16:02:13Z</time>
      </trkpt>
      <trkpt lat="44.30872" lon="4.228">
        <ele>157.67</ele>
        <time>2019-07-30T16:02:16Z</time>
      </trkpt>
      <trkpt lat="44.30866" lon="4.2283">
        <ele>155.62</ele>
        <time>2019-07-30T16:02:20Z</time>
      </trkpt>
      <trkpt lat="44.30857" lon="4.2286">
        <ele>155.27</ele>
        <time>2019-07-30T16:02:24Z</time>
      </trkpt>
      <trkpt lat="44.30845" lon="4.22888">
        <ele>155.15</ele>
        <time>2019-07-30T16:02:28Z</time>
      </trkpt>
      <trkpt lat="44.30833" lon="4.22916">
        <ele>155.37</ele>
        <time>2019-07-30T16:02:32Z</time>
      </trkpt>
      <trkpt lat="44.30824" lon="4.22945">
        <ele>154.97</ele>
        <time>2019-07-30T16:02:36Z</time>
      </trkpt>
      <trkpt lat="44.30817" lon="4.22974">
        <ele>155.66</ele>
        <time>2019-07-30T16:02:40Z</time>
      </trkpt>
      <trkpt lat="44.30812" lon="4.23002">
        <ele>155.72</ele>
        <time>2019-07-30T16:02:44Z</time>
      </trkpt>
      <trkpt lat="44.30807" lon="4.23029">
        <ele>156.71</ele>
        <time>2019-07-30T16:02:48Z</time>
      </trkpt>
      <trkpt lat="44.30797" lon="4.23059">
        <ele>157.06</ele>
        <time>2019-07-30T16:02:52Z</time>
      </trkpt>
      <trkpt lat="44.30787" lon="4.23088">
        <ele>156.61</ele>
        <time>2019-07-30T16:02:56Z</time>
      </trkpt>
      <trkpt lat="44.30776" lon="4.23118">
        <ele>156.77</ele>
        <time>2019-07-30T16:03:00Z</time>
      </trkpt>
      <trkpt lat="44.30765" lon="4.23146">
        <ele>156.92</ele>
        <time>2019-07-30T16:03:04Z</time>
      </trkpt>
      <trkpt lat="44.30754" lon="4.23174">
        <ele>156.41</ele>
        <time>2019-07-30T16:03:08Z</time>
      </trkpt>
      <trkpt lat="44.30744" lon="4.23205">
        <ele>156</ele>
        <time>2019-07-30T16:03:12Z</time>
      </trkpt>
      <trkpt lat="44.30731" lon="4.23231">
        <ele>156.11</ele>
        <time>2019-07-30T16:03:16Z</time>
      </trkpt>
      <trkpt lat="44.30716" lon="4.23253">
        <ele>156.02</ele>
        <time>2019-07-30T16:03:20Z</time>
      </trkpt>
      <trkpt lat="44.30699" lon="4.23271">
        <ele>156.39</ele>
        <time>2019-07-30T16:03:24Z</time>
      </trkpt>
      <trkpt lat="44.30679" lon="4.23289">
        <ele>155.99</ele>
        <time>2019-07-30T16:03:28Z</time>
      </trkpt>
      <trkpt lat="44.3066" lon="4.23307">
        <ele>155.17</ele>
        <time>2019-07-30T16:03:32Z</time>
      </trkpt>
      <trkpt lat="44.30639" lon="4.23325">
        <ele>154.76</ele>
        <time>2019-07-30T16:03:36Z</time>
      </trkpt>
      <trkpt lat="44.30624" lon="4.2334">
        <ele>154.58</ele>
        <time>2019-07-30T16:03:39Z</time>
      </trkpt>
      <trkpt lat="44.30604" lon="4.23358">
        <ele>155.07</ele>
        <time>2019-07-30T16:03:43Z</time>
      </trkpt>
      <trkpt lat="44.30586" lon="4.23378">
        <ele>154.21</ele>
        <time>2019-07-30T16:03:47Z</time>
      </trkpt>
      <trkpt lat="44.30567" lon="4.23398">
        <ele>152.89</ele>
        <time>2019-07-30T16:03:51Z</time>
      </trkpt>
      <trkpt lat="44.30551" lon="4.23421">
        <ele>153.15</ele>
        <time>2019-07-30T16:03:55Z</time>
      </trkpt>
      <trkpt lat="44.3054" lon="4.2345">
        <ele>154.27</ele>
        <time>2019-07-30T16:03:59Z</time>
      </trkpt>
      <trkpt lat="44.30536" lon="4.23482">
        <ele>153.78</ele>
        <time>2019-07-30T16:04:03Z</time>
      </trkpt>
      <trkpt lat="44.30538" lon="4.23515">
        <ele>155.12</ele>
        <time>2019-07-30T16:04:07Z</time>
      </trkpt>
      <trkpt lat="44.30541" lon="4.23548">
        <ele>156.48</ele>
        <time>2019-07-30T16:04:11Z</time>
      </trkpt>
      <trkpt lat="44.3054" lon="4.2358">
        <ele>157.16</ele>
        <time>2019-07-30T16:04:15Z</time>
      </trkpt>
      <trkpt lat="44.30537" lon="4.23611">
        <ele>158.49</ele>
        <time>2019-07-30T16:04:19Z</time>
      </trkpt>
      <trkpt lat="44.30529" lon="4.23642">
        <ele>158.4</ele>
        <time>2019-07-30T16:04:23Z</time>
      </trkpt>
      <trkpt lat="44.30521" lon="4.23666">
        <ele>157.67</ele>
        <time>2019-07-30T16:04:26Z</time>
      </trkpt>
      <trkpt lat="44.30508" lon="4.23693">
        <ele>157.11</ele>
        <time>2019-07-30T16:04:30Z</time>
      </trkpt>
      <trkpt lat="44.30495" lon="4.23712">
        <ele>155.81</ele>
        <time>2019-07-30T16:04:33Z</time>
      </trkpt>
      <trkpt lat="44.30484" lon="4.23732">
        <ele>155.43</ele>
        <time>2019-07-30T16:04:36Z</time>
      </trkpt>
      <trkpt lat="44.30473" lon="4.2376">
        <ele>154.92</ele>
        <time>2019-07-30T16:04:40Z</time>
      </trkpt>
      <trkpt lat="44.30469" lon="4.23791">
        <ele>155.66</ele>
        <time>2019-07-30T16:04:44Z</time>
      </trkpt>
      <trkpt lat="44.30466" lon="4.2382">
        <ele>154.83</ele>
        <time>2019-07-30T16:04:48Z</time>
      </trkpt>
      <trkpt lat="44.30464" lon="4.23848">
        <ele>154.8</ele>
        <time>2019-07-30T16:04:52Z</time>
      </trkpt>
      <trkpt lat="44.30463" lon="4.23878">
        <ele>154.77</ele>
        <time>2019-07-30T16:04:56Z</time>
      </trkpt>
      <trkpt lat="44.30463" lon="4.2391">
        <ele>155.39</ele>
        <time>2019-07-30T16:05:00Z</time>
      </trkpt>
      <trkpt lat="44.30463" lon="4.23942">
        <ele>156.52</ele>
        <time>2019-07-30T16:05:04Z</time>
      </trkpt>
      <trkpt lat="44.30464" lon="4.23975">
        <ele>156.52</ele>
        <time>2019-07-30T16:05:08Z</time>
      </trkpt>
      <trkpt lat="44.30464" lon="4.24008">
        <ele>156.26</ele>
        <time>2019-07-30T16:05:12Z</time>
      </trkpt>
      <trkpt lat="44.30465" lon="4.24041">
        <ele>156.36</ele>
        <time>2019-07-30T16:05:16Z</time>
      </trkpt>
      <trkpt lat="44.30465" lon="4.24074">
        <ele>156.87</ele>
        <time>2019-07-30T16:05:20Z</time>
      </trkpt>
      <trkpt lat="44.30466" lon="4.24107">
        <ele>157.34</ele>
        <time>2019-07-30T16:05:24Z</time>
      </trkpt>
      <trkpt lat="44.30465" lon="4.24141">
        <ele>157.53</ele>
        <time>2019-07-30T16:05:28Z</time>
      </trkpt>
      <trkpt lat="44.30466" lon="4.24173">
        <ele>158.83</ele>
        <time>2019-07-30T16:05:32Z</time>
      </trkpt>
      <trkpt lat="44.30464" lon="4.24205">
        <ele>157.7</ele>
        <time>2019-07-30T16:05:36Z</time>
      </trkpt>
      <trkpt lat="44.30462" lon="4.24234">
        <ele>155.04</ele>
        <time>2019-07-30T16:05:40Z</time>
      </trkpt>
      <trkpt lat="44.30461" lon="4.24261">
        <ele>153.55</ele>
        <time>2019-07-30T16:05:44Z</time>
      </trkpt>
      <trkpt lat="44.30459" lon="4.24294">
        <ele>152.14</ele>
        <time>2019-07-30T16:05:48Z</time>
      </trkpt>
      <trkpt lat="44.30459" lon="4.24326">
        <ele>152.8</ele>
        <time>2019-07-30T16:05:52Z</time>
      </trkpt>
      <trkpt lat="44.30455" lon="4.24358">
        <ele>175.63</ele>
        <time>2019-07-30T16:05:56Z</time>
      </trkpt>
      <trkpt lat="44.30443" lon="4.24387">
        <ele>160.28</ele>
        <time>2019-07-30T16:06:00Z</time>
      </trkpt>
      <trkpt lat="44.30433" lon="4.24415">
        <ele>156.57</ele>
        <time>2019-07-30T16:06:04Z</time>
      </trkpt>
      <trkpt lat="44.30424" lon="4.24438">
        <ele>155.28</ele>
        <time>2019-07-30T16:06:07Z</time>
      </trkpt>
      <trkpt lat="44.30416" lon="4.24461">
        <ele>154.08</ele>
        <time>2019-07-30T16:06:10Z</time>
      </trkpt>
      <trkpt lat="44.30407" lon="4.24484">
        <ele>152.22</ele>
        <time>2019-07-30T16:06:13Z</time>
      </trkpt>
      <trkpt lat="44.30396" lon="4.24512">
        <ele>150.95</ele>
        <time>2019-07-30T16:06:17Z</time>
      </trkpt>
      <trkpt lat="44.30385" lon="4.24541">
        <ele>150.8</ele>
        <time>2019-07-30T16:06:21Z</time>
      </trkpt>
      <trkpt lat="44.30371" lon="4.24567">
        <ele>151.07</ele>
        <time>2019-07-30T16:06:25Z</time>
      </trkpt>
      <trkpt lat="44.30352" lon="4.24586">
        <ele>150.66</ele>
        <time>2019-07-30T16:06:29Z</time>
      </trkpt>
      <trkpt lat="44.30332" lon="4.24604">
        <ele>150.52</ele>
        <time>2019-07-30T16:06:33Z</time>
      </trkpt>
      <trkpt lat="44.30316" lon="4.24625">
        <ele>151.4</ele>
        <time>2019-07-30T16:06:37Z</time>
      </trkpt>
      <trkpt lat="44.30306" lon="4.24646">
        <ele>161.71</ele>
        <time>2019-07-30T16:06:41Z</time>
      </trkpt>
      <trkpt lat="44.303" lon="4.24673">
        <ele>155.08</ele>
        <time>2019-07-30T16:06:45Z</time>
      </trkpt>
      <trkpt lat="44.30296" lon="4.24705">
        <ele>151.97</ele>
        <time>2019-07-30T16:06:49Z</time>
      </trkpt>
      <trkpt lat="44.30289" lon="4.24729">
        <ele>150.81</ele>
        <time>2019-07-30T16:06:52Z</time>
      </trkpt>
      <trkpt lat="44.30274" lon="4.24753">
        <ele>149.92</ele>
        <time>2019-07-30T16:06:56Z</time>
      </trkpt>
      <trkpt lat="44.30258" lon="4.24776">
        <ele>149.97</ele>
        <time>2019-07-30T16:07:00Z</time>
      </trkpt>
      <trkpt lat="44.30243" lon="4.24802">
        <ele>149.23</ele>
        <time>2019-07-30T16:07:04Z</time>
      </trkpt>
      <trkpt lat="44.30228" lon="4.24827">
        <ele>149.14</ele>
        <time>2019-07-30T16:07:08Z</time>
      </trkpt>
      <trkpt lat="44.30209" lon="4.24847">
        <ele>148.94</ele>
        <time>2019-07-30T16:07:12Z</time>
      </trkpt>
      <trkpt lat="44.30189" lon="4.24861">
        <ele>148.97</ele>
        <time>2019-07-30T16:07:16Z</time>
      </trkpt>
      <trkpt lat="44.30171" lon="4.24872">
        <ele>150.46</ele>
        <time>2019-07-30T16:07:20Z</time>
      </trkpt>
      <trkpt lat="44.3015" lon="4.24884">
        <ele>150.7</ele>
        <time>2019-07-30T16:07:24Z</time>
      </trkpt>
      <trkpt lat="44.3013" lon="4.24898">
        <ele>150.92</ele>
        <time>2019-07-30T16:07:28Z</time>
      </trkpt>
      <trkpt lat="44.30113" lon="4.2491">
        <ele>151.25</ele>
        <time>2019-07-30T16:07:32Z</time>
      </trkpt>
      <trkpt lat="44.30101" lon="4.2493">
        <ele>151.61</ele>
        <time>2019-07-30T16:07:36Z</time>
      </trkpt>
      <trkpt lat="44.30091" lon="4.24956">
        <ele>151.23</ele>
        <time>2019-07-30T16:07:40Z</time>
      </trkpt>
      <trkpt lat="44.30083" lon="4.24984">
        <ele>152.57</ele>
        <time>2019-07-30T16:07:44Z</time>
      </trkpt>
      <trkpt lat="44.30073" lon="4.25015">
        <ele>154.18</ele>
        <time>2019-07-30T16:07:48Z</time>
      </trkpt>
      <trkpt lat="44.30062" lon="4.25043">
        <ele>154.51</ele>
        <time>2019-07-30T16:07:52Z</time>
      </trkpt>
      <trkpt lat="44.30052" lon="4.25068">
        <ele>154.56</ele>
        <time>2019-07-30T16:07:56Z</time>
      </trkpt>
      <trkpt lat="44.3004" lon="4.25092">
        <ele>155.57</ele>
        <time>2019-07-30T16:08:00Z</time>
      </trkpt>
      <trkpt lat="44.30026" lon="4.25119">
        <ele>154.21</ele>
        <time>2019-07-30T16:08:04Z</time>
      </trkpt>
      <trkpt lat="44.30014" lon="4.25144">
        <ele>153.66</ele>
        <time>2019-07-30T16:08:08Z</time>
      </trkpt>
      <trkpt lat="44.30009" lon="4.25168">
        <ele>154.47</ele>
        <time>2019-07-30T16:08:12Z</time>
      </trkpt>
      <trkpt lat="44.30006" lon="4.25194">
        <ele>153.97</ele>
        <time>2019-07-30T16:08:16Z</time>
      </trkpt>
      <trkpt lat="44.30008" lon="4.2522">
        <ele>153.68</ele>
        <time>2019-07-30T16:08:20Z</time>
      </trkpt>
      <trkpt lat="44.30006" lon="4.25249">
        <ele>152.74</ele>
        <time>2019-07-30T16:08:24Z</time>
      </trkpt>
      <trkpt lat="44.3" lon="4.2528">
        <ele>152.38</ele>
        <time>2019-07-30T16:08:28Z</time>
      </trkpt>
      <trkpt lat="44.29991" lon="4.25307">
        <ele>153.53</ele>
        <time>2019-07-30T16:08:32Z</time>
      </trkpt>
      <trkpt lat="44.2998" lon="4.25332">
        <ele>153.38</ele>
        <time>2019-07-30T16:08:36Z</time>
      </trkpt>
      <trkpt lat="44.29969" lon="4.25353">
        <ele>152.05</ele>
        <time>2019-07-30T16:08:40Z</time>
      </trkpt>
      <trkpt lat="44.29957" lon="4.25373">
        <ele>147.53</ele>
        <time>2019-07-30T16:08:44Z</time>
      </trkpt>
      <trkpt lat="44.29946" lon="4.25401">
        <ele>147.74</ele>
        <time>2019-07-30T16:08:49Z</time>
      </trkpt>
      <trkpt lat="44.29936" lon="4.25424">
        <ele>148.38</ele>
        <time>2019-07-30T16:08:53Z</time>
      </trkpt>
      <trkpt lat="44.29923" lon="4.25449">
        <ele>151.1</ele>
        <time>2019-07-30T16:08:57Z</time>
      </trkpt>
      <trkpt lat="44.2991" lon="4.25476">
        <ele>152.38</ele>
        <time>2019-07-30T16:09:01Z</time>
      </trkpt>
      <trkpt lat="44.299" lon="4.25498">
        <ele>153.55</ele>
        <time>2019-07-30T16:09:05Z</time>
      </trkpt>
      <trkpt lat="44.2989" lon="4.25521">
        <ele>152.06</ele>
        <time>2019-07-30T16:09:09Z</time>
      </trkpt>
      <trkpt lat="44.2988" lon="4.25545">
        <ele>152.56</ele>
        <time>2019-07-30T16:09:13Z</time>
      </trkpt>
      <trkpt lat="44.2987" lon="4.25572">
        <ele>152.69</ele>
        <time>2019-07-30T16:09:17Z</time>
      </trkpt>
      <trkpt lat="44.2986" lon="4.25599">
        <ele>152.52</ele>
        <time>2019-07-30T16:09:21Z</time>
      </trkpt>
      <trkpt lat="44.29849" lon="4.25627">
        <ele>152.35</ele>
        <time>2019-07-30T16:09:25Z</time>
      </trkpt>
      <trkpt lat="44.29834" lon="4.25651">
        <ele>151.64</ele>
        <time>2019-07-30T16:09:29Z</time>
      </trkpt>
      <trkpt lat="44.29819" lon="4.2567">
        <ele>151.55</ele>
        <time>2019-07-30T16:09:33Z</time>
      </trkpt>
      <trkpt lat="44.29802" lon="4.25689">
        <ele>151.49</ele>
        <time>2019-07-30T16:09:37Z</time>
      </trkpt>
      <trkpt lat="44.29784" lon="4.25706">
        <ele>152.86</ele>
        <time>2019-07-30T16:09:41Z</time>
      </trkpt>
      <trkpt lat="44.29767" lon="4.25723">
        <ele>153.83</ele>
        <time>2019-07-30T16:09:45Z</time>
      </trkpt>
      <trkpt lat="44.29749" lon="4.25742">
        <ele>154.66</ele>
        <time>2019-07-30T16:09:49Z</time>
      </trkpt>
      <trkpt lat="44.29734" lon="4.25765">
        <ele>154.7</ele>
        <time>2019-07-30T16:09:53Z</time>
      </trkpt>
      <trkpt lat="44.29724" lon="4.25793">
        <ele>155.05</ele>
        <time>2019-07-30T16:09:57Z</time>
      </trkpt>
      <trkpt lat="44.29717" lon="4.25823">
        <ele>155.1</ele>
        <time>2019-07-30T16:10:01Z</time>
      </trkpt>
      <trkpt lat="44.2971" lon="4.25848">
        <ele>155.81</ele>
        <time>2019-07-30T16:10:05Z</time>
      </trkpt>
      <trkpt lat="44.29704" lon="4.25876">
        <ele>155.01</ele>
        <time>2019-07-30T16:10:09Z</time>
      </trkpt>
      <trkpt lat="44.29697" lon="4.25905">
        <ele>155.31</ele>
        <time>2019-07-30T16:10:13Z</time>
      </trkpt>
      <trkpt lat="44.29688" lon="4.25934">
        <ele>155.22</ele>
        <time>2019-07-30T16:10:17Z</time>
      </trkpt>
      <trkpt lat="44.29678" lon="4.25962">
        <ele>156.24</ele>
        <time>2019-07-30T16:10:21Z</time>
      </trkpt>
      <trkpt lat="44.29665" lon="4.25986">
        <ele>156.93</ele>
        <time>2019-07-30T16:10:25Z</time>
      </trkpt>
      <trkpt lat="44.29649" lon="4.26007">
        <ele>157.59</ele>
        <time>2019-07-30T16:10:29Z</time>
      </trkpt>
      <trkpt lat="44.2963" lon="4.26023">
        <ele>158.25</ele>
        <time>2019-07-30T16:10:33Z</time>
      </trkpt>
      <trkpt lat="44.29608" lon="4.26034">
        <ele>158.59</ele>
        <time>2019-07-30T16:10:37Z</time>
      </trkpt>
      <trkpt lat="44.29585" lon="4.26044">
        <ele>158.67</ele>
        <time>2019-07-30T16:10:41Z</time>
      </trkpt>
      <trkpt lat="44.29567" lon="4.26048">
        <ele>158.33</ele>
        <time>2019-07-30T16:10:44Z</time>
      </trkpt>
      <trkpt lat="44.29544" lon="4.26047">
        <ele>158.35</ele>
        <time>2019-07-30T16:10:48Z</time>
      </trkpt>
      <trkpt lat="44.29527" lon="4.26038">
        <ele>156.7</ele>
        <time>2019-07-30T16:10:51Z</time>
      </trkpt>
      <trkpt lat="44.29505" lon="4.26024">
        <ele>156.44</ele>
        <time>2019-07-30T16:10:55Z</time>
      </trkpt>
      <trkpt lat="44.29482" lon="4.26015">
        <ele>156.47</ele>
        <time>2019-07-30T16:10:59Z</time>
      </trkpt>
      <trkpt lat="44.29464" lon="4.26016">
        <ele>156.31</ele>
        <time>2019-07-30T16:11:02Z</time>
      </trkpt>
      <trkpt lat="44.29445" lon="4.26034">
        <ele>156.2</ele>
        <time>2019-07-30T16:11:06Z</time>
      </trkpt>
      <trkpt lat="44.2943" lon="4.26059">
        <ele>156.82</ele>
        <time>2019-07-30T16:11:10Z</time>
      </trkpt>
      <trkpt lat="44.29416" lon="4.26084">
        <ele>156.46</ele>
        <time>2019-07-30T16:11:14Z</time>
      </trkpt>
      <trkpt lat="44.29404" lon="4.26112">
        <ele>157.47</ele>
        <time>2019-07-30T16:11:18Z</time>
      </trkpt>
      <trkpt lat="44.29399" lon="4.26137">
        <ele>157.47</ele>
        <time>2019-07-30T16:11:21Z</time>
      </trkpt>
      <trkpt lat="44.29398" lon="4.26169">
        <ele>157.6</ele>
        <time>2019-07-30T16:11:25Z</time>
      </trkpt>
      <trkpt lat="44.29398" lon="4.262">
        <ele>157.74</ele>
        <time>2019-07-30T16:11:29Z</time>
      </trkpt>
      <trkpt lat="44.29398" lon="4.26228">
        <ele>158.19</ele>
        <time>2019-07-30T16:11:33Z</time>
      </trkpt>
      <trkpt lat="44.29398" lon="4.26258">
        <ele>157.91</ele>
        <time>2019-07-30T16:11:37Z</time>
      </trkpt>
      <trkpt lat="44.29403" lon="4.2629">
        <ele>157.51</ele>
        <time>2019-07-30T16:11:41Z</time>
      </trkpt>
      <trkpt lat="44.29416" lon="4.26316">
        <ele>156.69</ele>
        <time>2019-07-30T16:11:45Z</time>
      </trkpt>
      <trkpt lat="44.2943" lon="4.26339">
        <ele>156.4</ele>
        <time>2019-07-30T16:11:49Z</time>
      </trkpt>
      <trkpt lat="44.29444" lon="4.26364">
        <ele>156.66</ele>
        <time>2019-07-30T16:11:53Z</time>
      </trkpt>
      <trkpt lat="44.29449" lon="4.26395">
        <ele>156.82</ele>
        <time>2019-07-30T16:11:57Z</time>
      </trkpt>
      <trkpt lat="44.2944" lon="4.26423">
        <ele>156.8</ele>
        <time>2019-07-30T16:12:01Z</time>
      </trkpt>
      <trkpt lat="44.2943" lon="4.26451">
        <ele>157.67</ele>
        <time>2019-07-30T16:12:05Z</time>
      </trkpt>
      <trkpt lat="44.2942" lon="4.26478">
        <ele>158.61</ele>
        <time>2019-07-30T16:12:09Z</time>
      </trkpt>
      <trkpt lat="44.29408" lon="4.26506">
        <ele>159.04</ele>
        <time>2019-07-30T16:12:13Z</time>
      </trkpt>
      <trkpt lat="44.29395" lon="4.26533">
        <ele>158.15</ele>
        <time>2019-07-30T16:12:17Z</time>
      </trkpt>
      <trkpt lat="44.29384" lon="4.2656">
        <ele>158.22</ele>
        <time>2019-07-30T16:12:21Z</time>
      </trkpt>
      <trkpt lat="44.29372" lon="4.26587">
        <ele>158.01</ele>
        <time>2019-07-30T16:12:25Z</time>
      </trkpt>
      <trkpt lat="44.2936" lon="4.26614">
        <ele>157.89</ele>
        <time>2019-07-30T16:12:29Z</time>
      </trkpt>
      <trkpt lat="44.29349" lon="4.2664">
        <ele>158.6</ele>
        <time>2019-07-30T16:12:33Z</time>
      </trkpt>
      <trkpt lat="44.29338" lon="4.26668">
        <ele>159.99</ele>
        <time>2019-07-30T16:12:37Z</time>
      </trkpt>
      <trkpt lat="44.29327" lon="4.26696">
        <ele>160.06</ele>
        <time>2019-07-30T16:12:41Z</time>
      </trkpt>
      <trkpt lat="44.29318" lon="4.26718">
        <ele>160.21</ele>
        <time>2019-07-30T16:12:44Z</time>
      </trkpt>
      <trkpt lat="44.29307" lon="4.26747">
        <ele>160.19</ele>
        <time>2019-07-30T16:12:48Z</time>
      </trkpt>
      <trkpt lat="44.29296" lon="4.26774">
        <ele>159.81</ele>
        <time>2019-07-30T16:12:52Z</time>
      </trkpt>
      <trkpt lat="44.29286" lon="4.26798">
        <ele>160.01</ele>
        <time>2019-07-30T16:12:56Z</time>
      </trkpt>
      <trkpt lat="44.29278" lon="4.26822">
        <ele>159.29</ele>
        <time>2019-07-30T16:13:00Z</time>
      </trkpt>
      <trkpt lat="44.29274" lon="4.26851">
        <ele>159.42</ele>
        <time>2019-07-30T16:13:04Z</time>
      </trkpt>
      <trkpt lat="44.29277" lon="4.26881">
        <ele>158.9</ele>
        <time>2019-07-30T16:13:08Z</time>
      </trkpt>
      <trkpt lat="44.29284" lon="4.26904">
        <ele>158.11</ele>
        <time>2019-07-30T16:13:11Z</time>
      </trkpt>
      <trkpt lat="44.29294" lon="4.26933">
        <ele>157.28</ele>
        <time>2019-07-30T16:13:15Z</time>
      </trkpt>
      <trkpt lat="44.29304" lon="4.26959">
        <ele>156.46</ele>
        <time>2019-07-30T16:13:19Z</time>
      </trkpt>
      <trkpt lat="44.29313" lon="4.26985">
        <ele>156.27</ele>
        <time>2019-07-30T16:13:23Z</time>
      </trkpt>
      <trkpt lat="44.29324" lon="4.27015">
        <ele>155.43</ele>
        <time>2019-07-30T16:13:27Z</time>
      </trkpt>
      <trkpt lat="44.29332" lon="4.27043">
        <ele>155.36</ele>
        <time>2019-07-30T16:13:31Z</time>
      </trkpt>
      <trkpt lat="44.2934" lon="4.2707">
        <ele>156.09</ele>
        <time>2019-07-30T16:13:35Z</time>
      </trkpt>
      <trkpt lat="44.29344" lon="4.27103">
        <ele>155.86</ele>
        <time>2019-07-30T16:13:39Z</time>
      </trkpt>
      <trkpt lat="44.29347" lon="4.27136">
        <ele>156.63</ele>
        <time>2019-07-30T16:13:43Z</time>
      </trkpt>
      <trkpt lat="44.29349" lon="4.27161">
        <ele>156.77</ele>
        <time>2019-07-30T16:13:46Z</time>
      </trkpt>
      <trkpt lat="44.29351" lon="4.27187">
        <ele>156.36</ele>
        <time>2019-07-30T16:13:49Z</time>
      </trkpt>
      <trkpt lat="44.29352" lon="4.27213">
        <ele>156</ele>
        <time>2019-07-30T16:13:52Z</time>
      </trkpt>
      <trkpt lat="44.29354" lon="4.2724">
        <ele>155.4</ele>
        <time>2019-07-30T16:13:55Z</time>
      </trkpt>
      <trkpt lat="44.29353" lon="4.27266">
        <ele>154.36</ele>
        <time>2019-07-30T16:13:58Z</time>
      </trkpt>
      <trkpt lat="44.29354" lon="4.27292">
        <ele>154.07</ele>
        <time>2019-07-30T16:14:01Z</time>
      </trkpt>
      <trkpt lat="44.29355" lon="4.27318">
        <ele>153.01</ele>
        <time>2019-07-30T16:14:04Z</time>
      </trkpt>
      <trkpt lat="44.29356" lon="4.27349">
        <ele>153.05</ele>
        <time>2019-07-30T16:14:08Z</time>
      </trkpt>
      <trkpt lat="44.29358" lon="4.27377">
        <ele>152.82</ele>
        <time>2019-07-30T16:14:12Z</time>
      </trkpt>
      <trkpt lat="44.29362" lon="4.27406">
        <ele>155.13</ele>
        <time>2019-07-30T16:14:16Z</time>
      </trkpt>
      <trkpt lat="44.29364" lon="4.27436">
        <ele>156.31</ele>
        <time>2019-07-30T16:14:20Z</time>
      </trkpt>
      <trkpt lat="44.29368" lon="4.27464">
        <ele>158.31</ele>
        <time>2019-07-30T16:14:24Z</time>
      </trkpt>
      <trkpt lat="44.29371" lon="4.27492">
        <ele>159.73</ele>
        <time>2019-07-30T16:14:28Z</time>
      </trkpt>
      <trkpt lat="44.29371" lon="4.27521">
        <ele>160.78</ele>
        <time>2019-07-30T16:14:32Z</time>
      </trkpt>
      <trkpt lat="44.29371" lon="4.27552">
        <ele>160.56</ele>
        <time>2019-07-30T16:14:36Z</time>
      </trkpt>
      <trkpt lat="44.29374" lon="4.27584">
        <ele>161.29</ele>
        <time>2019-07-30T16:14:40Z</time>
      </trkpt>
      <trkpt lat="44.29376" lon="4.27612">
        <ele>162.27</ele>
        <time>2019-07-30T16:14:44Z</time>
      </trkpt>
      <trkpt lat="44.29376" lon="4.2764">
        <ele>161.85</ele>
        <time>2019-07-30T16:14:48Z</time>
      </trkpt>
      <trkpt lat="44.29379" lon="4.27671">
        <ele>163.61</ele>
        <time>2019-07-30T16:14:52Z</time>
      </trkpt>
      <trkpt lat="44.2938" lon="4.27704">
        <ele>164.89</ele>
        <time>2019-07-30T16:14:56Z</time>
      </trkpt>
      <trkpt lat="44.29383" lon="4.27737">
        <ele>166.43</ele>
        <time>2019-07-30T16:15:00Z</time>
      </trkpt>
      <trkpt lat="44.29386" lon="4.27762">
        <ele>168.14</ele>
        <time>2019-07-30T16:15:03Z</time>
      </trkpt>
      <trkpt lat="44.29388" lon="4.27794">
        <ele>169.4</ele>
        <time>2019-07-30T16:15:07Z</time>
      </trkpt>
      <trkpt lat="44.29391" lon="4.27826">
        <ele>170.26</ele>
        <time>2019-07-30T16:15:11Z</time>
      </trkpt>
      <trkpt lat="44.29393" lon="4.27859">
        <ele>170.67</ele>
        <time>2019-07-30T16:15:15Z</time>
      </trkpt>
      <trkpt lat="44.29395" lon="4.27892">
        <ele>170.64</ele>
        <time>2019-07-30T16:15:19Z</time>
      </trkpt>
      <trkpt lat="44.29394" lon="4.27925">
        <ele>167.92</ele>
        <time>2019-07-30T16:15:23Z</time>
      </trkpt>
      <trkpt lat="44.29393" lon="4.27957">
        <ele>165.57</ele>
        <time>2019-07-30T16:15:27Z</time>
      </trkpt>
      <trkpt lat="44.29395" lon="4.27986">
        <ele>165</ele>
        <time>2019-07-30T16:15:31Z</time>
      </trkpt>
      <trkpt lat="44.29397" lon="4.28013">
        <ele>165.57</ele>
        <time>2019-07-30T16:15:35Z</time>
      </trkpt>
      <trkpt lat="44.29397" lon="4.28042">
        <ele>164</ele>
        <time>2019-07-30T16:15:39Z</time>
      </trkpt>
      <trkpt lat="44.29399" lon="4.28072">
        <ele>163.66</ele>
        <time>2019-07-30T16:15:43Z</time>
      </trkpt>
      <trkpt lat="44.29402" lon="4.28105">
        <ele>164.09</ele>
        <time>2019-07-30T16:15:47Z</time>
      </trkpt>
      <trkpt lat="44.29406" lon="4.28137">
        <ele>163.85</ele>
        <time>2019-07-30T16:15:51Z</time>
      </trkpt>
      <trkpt lat="44.29413" lon="4.28166">
        <ele>164.66</ele>
        <time>2019-07-30T16:15:55Z</time>
      </trkpt>
      <trkpt lat="44.29419" lon="4.28191">
        <ele>166.4</ele>
        <time>2019-07-30T16:15:59Z</time>
      </trkpt>
      <trkpt lat="44.29421" lon="4.28221">
        <ele>165.92</ele>
        <time>2019-07-30T16:16:03Z</time>
      </trkpt>
      <trkpt lat="44.29427" lon="4.28251">
        <ele>165.76</ele>
        <time>2019-07-30T16:16:07Z</time>
      </trkpt>
      <trkpt lat="44.29434" lon="4.28282">
        <ele>166.49</ele>
        <time>2019-07-30T16:16:11Z</time>
      </trkpt>
      <trkpt lat="44.2944" lon="4.28311">
        <ele>166.73</ele>
        <time>2019-07-30T16:16:15Z</time>
      </trkpt>
      <trkpt lat="44.29444" lon="4.28339">
        <ele>166.04</ele>
        <time>2019-07-30T16:16:19Z</time>
      </trkpt>
      <trkpt lat="44.2945" lon="4.28371">
        <ele>165.64</ele>
        <time>2019-07-30T16:16:23Z</time>
      </trkpt>
      <trkpt lat="44.29455" lon="4.28403">
        <ele>164.28</ele>
        <time>2019-07-30T16:16:27Z</time>
      </trkpt>
      <trkpt lat="44.29459" lon="4.28434">
        <ele>163.67</ele>
        <time>2019-07-30T16:16:31Z</time>
      </trkpt>
      <trkpt lat="44.29465" lon="4.28466">
        <ele>161.66</ele>
        <time>2019-07-30T16:16:35Z</time>
      </trkpt>
      <trkpt lat="44.29471" lon="4.28496">
        <ele>159.76</ele>
        <time>2019-07-30T16:16:39Z</time>
      </trkpt>
      <trkpt lat="44.2948" lon="4.28524">
        <ele>161.1</ele>
        <time>2019-07-30T16:16:43Z</time>
      </trkpt>
      <trkpt lat="44.29488" lon="4.28553">
        <ele>161.66</ele>
        <time>2019-07-30T16:16:47Z</time>
      </trkpt>
      <trkpt lat="44.29494" lon="4.28577">
        <ele>160.63</ele>
        <time>2019-07-30T16:16:50Z</time>
      </trkpt>
      <trkpt lat="44.295" lon="4.28601">
        <ele>160.92</ele>
        <time>2019-07-30T16:16:53Z</time>
      </trkpt>
      <trkpt lat="44.29507" lon="4.28632">
        <ele>160.95</ele>
        <time>2019-07-30T16:16:57Z</time>
      </trkpt>
      <trkpt lat="44.29514" lon="4.28656">
        <ele>160.37</ele>
        <time>2019-07-30T16:17:00Z</time>
      </trkpt>
      <trkpt lat="44.29521" lon="4.28681">
        <ele>159.48</ele>
        <time>2019-07-30T16:17:03Z</time>
      </trkpt>
      <trkpt lat="44.29528" lon="4.28706">
        <ele>159.71</ele>
        <time>2019-07-30T16:17:06Z</time>
      </trkpt>
      <trkpt lat="44.29538" lon="4.28735">
        <ele>160.9</ele>
        <time>2019-07-30T16:17:10Z</time>
      </trkpt>
      <trkpt lat="44.29542" lon="4.28762">
        <ele>158.22</ele>
        <time>2019-07-30T16:17:14Z</time>
      </trkpt>
      <trkpt lat="44.29548" lon="4.28791">
        <ele>155.51</ele>
        <time>2019-07-30T16:17:18Z</time>
      </trkpt>
      <trkpt lat="44.29554" lon="4.28815">
        <ele>155.73</ele>
        <time>2019-07-30T16:17:21Z</time>
      </trkpt>
      <trkpt lat="44.29561" lon="4.28846">
        <ele>155.23</ele>
        <time>2019-07-30T16:17:25Z</time>
      </trkpt>
      <trkpt lat="44.29568" lon="4.28877">
        <ele>155.83</ele>
        <time>2019-07-30T16:17:29Z</time>
      </trkpt>
      <trkpt lat="44.29575" lon="4.28905">
        <ele>156.68</ele>
        <time>2019-07-30T16:17:33Z</time>
      </trkpt>
      <trkpt lat="44.29582" lon="4.28932">
        <ele>157.06</ele>
        <time>2019-07-30T16:17:37Z</time>
      </trkpt>
      <trkpt lat="44.29588" lon="4.28962">
        <ele>157.37</ele>
        <time>2019-07-30T16:17:41Z</time>
      </trkpt>
      <trkpt lat="44.29593" lon="4.28993">
        <ele>156.69</ele>
        <time>2019-07-30T16:17:45Z</time>
      </trkpt>
      <trkpt lat="44.29594" lon="4.29024">
        <ele>153.62</ele>
        <time>2019-07-30T16:17:49Z</time>
      </trkpt>
      <trkpt lat="44.29597" lon="4.29049">
        <ele>152.5</ele>
        <time>2019-07-30T16:17:52Z</time>
      </trkpt>
      <trkpt lat="44.29602" lon="4.29081">
        <ele>152.11</ele>
        <time>2019-07-30T16:17:56Z</time>
      </trkpt>
      <trkpt lat="44.29606" lon="4.2911">
        <ele>152.22</ele>
        <time>2019-07-30T16:18:00Z</time>
      </trkpt>
      <trkpt lat="44.2961" lon="4.29142">
        <ele>152.38</ele>
        <time>2019-07-30T16:18:04Z</time>
      </trkpt>
      <trkpt lat="44.29613" lon="4.29174">
        <ele>152.01</ele>
        <time>2019-07-30T16:18:08Z</time>
      </trkpt>
      <trkpt lat="44.29617" lon="4.29207">
        <ele>151.92</ele>
        <time>2019-07-30T16:18:12Z</time>
      </trkpt>
      <trkpt lat="44.2962" lon="4.29239">
        <ele>150.91</ele>
        <time>2019-07-30T16:18:16Z</time>
      </trkpt>
      <trkpt lat="44.29624" lon="4.29264">
        <ele>150.96</ele>
        <time>2019-07-30T16:18:19Z</time>
      </trkpt>
      <trkpt lat="44.29627" lon="4.29296">
        <ele>150.71</ele>
        <time>2019-07-30T16:18:23Z</time>
      </trkpt>
      <trkpt lat="44.2963" lon="4.29329">
        <ele>149.8</ele>
        <time>2019-07-30T16:18:27Z</time>
      </trkpt>
      <trkpt lat="44.29634" lon="4.29361">
        <ele>149.67</ele>
        <time>2019-07-30T16:18:31Z</time>
      </trkpt>
      <trkpt lat="44.29637" lon="4.29392">
        <ele>149.54</ele>
        <time>2019-07-30T16:18:35Z</time>
      </trkpt>
      <trkpt lat="44.29644" lon="4.29421">
        <ele>149.43</ele>
        <time>2019-07-30T16:18:39Z</time>
      </trkpt>
      <trkpt lat="44.2965" lon="4.29452">
        <ele>149.93</ele>
        <time>2019-07-30T16:18:43Z</time>
      </trkpt>
      <trkpt lat="44.29656" lon="4.29483">
        <ele>149.05</ele>
        <time>2019-07-30T16:18:47Z</time>
      </trkpt>
      <trkpt lat="44.29663" lon="4.29514">
        <ele>148.52</ele>
        <time>2019-07-30T16:18:51Z</time>
      </trkpt>
      <trkpt lat="44.2967" lon="4.29545">
        <ele>148.5</ele>
        <time>2019-07-30T16:18:55Z</time>
      </trkpt>
      <trkpt lat="44.29677" lon="4.29575">
        <ele>148.04</ele>
        <time>2019-07-30T16:18:59Z</time>
      </trkpt>
      <trkpt lat="44.29683" lon="4.29601">
        <ele>147.78</ele>
        <time>2019-07-30T16:19:03Z</time>
      </trkpt>
      <trkpt lat="44.2969" lon="4.29629">
        <ele>148.08</ele>
        <time>2019-07-30T16:19:07Z</time>
      </trkpt>
      <trkpt lat="44.29698" lon="4.2966">
        <ele>148.5</ele>
        <time>2019-07-30T16:19:11Z</time>
      </trkpt>
      <trkpt lat="44.29706" lon="4.29691">
        <ele>148.91</ele>
        <time>2019-07-30T16:19:15Z</time>
      </trkpt>
      <trkpt lat="44.29715" lon="4.29723">
        <ele>149.73</ele>
        <time>2019-07-30T16:19:19Z</time>
      </trkpt>
      <trkpt lat="44.29721" lon="4.29753">
        <ele>149.71</ele>
        <time>2019-07-30T16:19:23Z</time>
      </trkpt>
      <trkpt lat="44.29728" lon="4.29781">
        <ele>149.68</ele>
        <time>2019-07-30T16:19:27Z</time>
      </trkpt>
      <trkpt lat="44.29734" lon="4.29809">
        <ele>148.55</ele>
        <time>2019-07-30T16:19:31Z</time>
      </trkpt>
      <trkpt lat="44.2974" lon="4.29833">
        <ele>148.47</ele>
        <time>2019-07-30T16:19:34Z</time>
      </trkpt>
      <trkpt lat="44.29746" lon="4.29861">
        <ele>148.5</ele>
        <time>2019-07-30T16:19:38Z</time>
      </trkpt>
      <trkpt lat="44.29752" lon="4.29885">
        <ele>148.65</ele>
        <time>2019-07-30T16:19:42Z</time>
      </trkpt>
      <trkpt lat="44.29758" lon="4.29915">
        <ele>146.91</ele>
        <time>2019-07-30T16:19:46Z</time>
      </trkpt>
      <trkpt lat="44.29764" lon="4.29939">
        <ele>146.42</ele>
        <time>2019-07-30T16:19:49Z</time>
      </trkpt>
      <trkpt lat="44.2977" lon="4.2997">
        <ele>145.57</ele>
        <time>2019-07-30T16:19:53Z</time>
      </trkpt>
      <trkpt lat="44.29777" lon="4.30002">
        <ele>146.23</ele>
        <time>2019-07-30T16:19:57Z</time>
      </trkpt>
      <trkpt lat="44.29785" lon="4.30033">
        <ele>146.35</ele>
        <time>2019-07-30T16:20:01Z</time>
      </trkpt>
      <trkpt lat="44.29793" lon="4.30063">
        <ele>146.77</ele>
        <time>2019-07-30T16:20:05Z</time>
      </trkpt>
      <trkpt lat="44.29799" lon="4.3009">
        <ele>146.41</ele>
        <time>2019-07-30T16:20:09Z</time>
      </trkpt>
      <trkpt lat="44.29805" lon="4.30118">
        <ele>146.01</ele>
        <time>2019-07-30T16:20:13Z</time>
      </trkpt>
      <trkpt lat="44.29813" lon="4.30149">
        <ele>146.08</ele>
        <time>2019-07-30T16:20:17Z</time>
      </trkpt>
      <trkpt lat="44.29821" lon="4.3018">
        <ele>146.29</ele>
        <time>2019-07-30T16:20:21Z</time>
      </trkpt>
      <trkpt lat="44.29829" lon="4.30205">
        <ele>146.56</ele>
        <time>2019-07-30T16:20:25Z</time>
      </trkpt>
      <trkpt lat="44.29834" lon="4.30234">
        <ele>145.59</ele>
        <time>2019-07-30T16:20:29Z</time>
      </trkpt>
      <trkpt lat="44.2984" lon="4.30265">
        <ele>144.4</ele>
        <time>2019-07-30T16:20:33Z</time>
      </trkpt>
      <trkpt lat="44.29847" lon="4.30296">
        <ele>144.3</ele>
        <time>2019-07-30T16:20:37Z</time>
      </trkpt>
      <trkpt lat="44.29854" lon="4.30325">
        <ele>144.34</ele>
        <time>2019-07-30T16:20:41Z</time>
      </trkpt>
      <trkpt lat="44.29858" lon="4.3035">
        <ele>144.36</ele>
        <time>2019-07-30T16:20:45Z</time>
      </trkpt>
      <trkpt lat="44.29866" lon="4.30379">
        <ele>144.4</ele>
        <time>2019-07-30T16:20:49Z</time>
      </trkpt>
      <trkpt lat="44.29873" lon="4.30403">
        <ele>144</ele>
        <time>2019-07-30T16:20:52Z</time>
      </trkpt>
      <trkpt lat="44.29881" lon="4.30432">
        <ele>144.39</ele>
        <time>2019-07-30T16:20:56Z</time>
      </trkpt>
      <trkpt lat="44.29886" lon="4.30459">
        <ele>143.17</ele>
        <time>2019-07-30T16:21:00Z</time>
      </trkpt>
      <trkpt lat="44.29894" lon="4.30491">
        <ele>142.09</ele>
        <time>2019-07-30T16:21:04Z</time>
      </trkpt>
      <trkpt lat="44.29902" lon="4.30522">
        <ele>143.07</ele>
        <time>2019-07-30T16:21:08Z</time>
      </trkpt>
      <trkpt lat="44.29909" lon="4.30553">
        <ele>142.1</ele>
        <time>2019-07-30T16:21:12Z</time>
      </trkpt>
      <trkpt lat="44.29918" lon="4.30584">
        <ele>142.89</ele>
        <time>2019-07-30T16:21:16Z</time>
      </trkpt>
      <trkpt lat="44.29924" lon="4.30609">
        <ele>143.08</ele>
        <time>2019-07-30T16:21:20Z</time>
      </trkpt>
      <trkpt lat="44.2993" lon="4.30637">
        <ele>142.51</ele>
        <time>2019-07-30T16:21:24Z</time>
      </trkpt>
      <trkpt lat="44.29937" lon="4.30667">
        <ele>142.66</ele>
        <time>2019-07-30T16:21:28Z</time>
      </trkpt>
      <trkpt lat="44.29945" lon="4.30696">
        <ele>143.62</ele>
        <time>2019-07-30T16:21:32Z</time>
      </trkpt>
      <trkpt lat="44.29953" lon="4.30723">
        <ele>143.28</ele>
        <time>2019-07-30T16:21:36Z</time>
      </trkpt>
      <trkpt lat="44.29959" lon="4.30751">
        <ele>143.72</ele>
        <time>2019-07-30T16:21:40Z</time>
      </trkpt>
      <trkpt lat="44.29966" lon="4.30779">
        <ele>144.63</ele>
        <time>2019-07-30T16:21:44Z</time>
      </trkpt>
      <trkpt lat="44.29973" lon="4.30808">
        <ele>143.59</ele>
        <time>2019-07-30T16:21:48Z</time>
      </trkpt>
      <trkpt lat="44.29981" lon="4.30839">
        <ele>144.24</ele>
        <time>2019-07-30T16:21:52Z</time>
      </trkpt>
      <trkpt lat="44.29991" lon="4.30866">
        <ele>146.63</ele>
        <time>2019-07-30T16:21:56Z</time>
      </trkpt>
      <trkpt lat="44.3" lon="4.30893">
        <ele>149.37</ele>
        <time>2019-07-30T16:22:00Z</time>
      </trkpt>
      <trkpt lat="44.30008" lon="4.30921">
        <ele>148.07</ele>
        <time>2019-07-30T16:22:04Z</time>
      </trkpt>
      <trkpt lat="44.30014" lon="4.30948">
        <ele>143.85</ele>
        <time>2019-07-30T16:22:08Z</time>
      </trkpt>
      <trkpt lat="44.30025" lon="4.30973">
        <ele>143.82</ele>
        <time>2019-07-30T16:22:12Z</time>
      </trkpt>
      <trkpt lat="44.30036" lon="4.31">
        <ele>143.26</ele>
        <time>2019-07-30T16:22:16Z</time>
      </trkpt>
      <trkpt lat="44.30048" lon="4.31028">
        <ele>143.69</ele>
        <time>2019-07-30T16:22:20Z</time>
      </trkpt>
      <trkpt lat="44.30059" lon="4.31055">
        <ele>143.02</ele>
        <time>2019-07-30T16:22:24Z</time>
      </trkpt>
      <trkpt lat="44.30069" lon="4.31078">
        <ele>143.11</ele>
        <time>2019-07-30T16:22:28Z</time>
      </trkpt>
      <trkpt lat="44.3008" lon="4.31102">
        <ele>143.16</ele>
        <time>2019-07-30T16:22:32Z</time>
      </trkpt>
      <trkpt lat="44.30088" lon="4.31128">
        <ele>140.99</ele>
        <time>2019-07-30T16:22:36Z</time>
      </trkpt>
      <trkpt lat="44.30099" lon="4.31154">
        <ele>139.94</ele>
        <time>2019-07-30T16:22:40Z</time>
      </trkpt>
      <trkpt lat="44.3011" lon="4.31179">
        <ele>140.27</ele>
        <time>2019-07-30T16:22:44Z</time>
      </trkpt>
      <trkpt lat="44.30121" lon="4.31204">
        <ele>140.43</ele>
        <time>2019-07-30T16:22:48Z</time>
      </trkpt>
      <trkpt lat="44.30132" lon="4.3123">
        <ele>139.49</ele>
        <time>2019-07-30T16:22:52Z</time>
      </trkpt>
      <trkpt lat="44.30145" lon="4.31258">
        <ele>139.3</ele>
        <time>2019-07-30T16:22:56Z</time>
      </trkpt>
      <trkpt lat="44.30157" lon="4.31284">
        <ele>140.32</ele>
        <time>2019-07-30T16:23:00Z</time>
      </trkpt>
      <trkpt lat="44.30169" lon="4.31306">
        <ele>142.23</ele>
        <time>2019-07-30T16:23:04Z</time>
      </trkpt>
      <trkpt lat="44.30178" lon="4.3133">
        <ele>142.35</ele>
        <time>2019-07-30T16:23:08Z</time>
      </trkpt>
      <trkpt lat="44.3019" lon="4.31357">
        <ele>142.88</ele>
        <time>2019-07-30T16:23:12Z</time>
      </trkpt>
      <trkpt lat="44.30202" lon="4.31384">
        <ele>142.87</ele>
        <time>2019-07-30T16:23:16Z</time>
      </trkpt>
      <trkpt lat="44.30212" lon="4.31412">
        <ele>141.93</ele>
        <time>2019-07-30T16:23:20Z</time>
      </trkpt>
      <trkpt lat="44.30225" lon="4.31439">
        <ele>141.58</ele>
        <time>2019-07-30T16:23:24Z</time>
      </trkpt>
      <trkpt lat="44.30236" lon="4.31459">
        <ele>144.42</ele>
        <time>2019-07-30T16:23:27Z</time>
      </trkpt>
      <trkpt lat="44.30248" lon="4.31485">
        <ele>144.58</ele>
        <time>2019-07-30T16:23:31Z</time>
      </trkpt>
      <trkpt lat="44.30258" lon="4.31508">
        <ele>145.3</ele>
        <time>2019-07-30T16:23:35Z</time>
      </trkpt>
      <trkpt lat="44.30268" lon="4.31536">
        <ele>142.38</ele>
        <time>2019-07-30T16:23:40Z</time>
      </trkpt>
      <trkpt lat="44.30279" lon="4.31565">
        <ele>141.31</ele>
        <time>2019-07-30T16:23:44Z</time>
      </trkpt>
      <trkpt lat="44.30291" lon="4.31592">
        <ele>141.35</ele>
        <time>2019-07-30T16:23:48Z</time>
      </trkpt>
      <trkpt lat="44.30303" lon="4.3162">
        <ele>141.38</ele>
        <time>2019-07-30T16:23:52Z</time>
      </trkpt>
      <trkpt lat="44.30315" lon="4.31644">
        <ele>141</ele>
        <time>2019-07-30T16:23:56Z</time>
      </trkpt>
      <trkpt lat="44.30325" lon="4.3167">
        <ele>139.94</ele>
        <time>2019-07-30T16:24:00Z</time>
      </trkpt>
      <trkpt lat="44.30338" lon="4.31694">
        <ele>140.72</ele>
        <time>2019-07-30T16:24:04Z</time>
      </trkpt>
      <trkpt lat="44.30347" lon="4.31717">
        <ele>140.23</ele>
        <time>2019-07-30T16:24:07Z</time>
      </trkpt>
      <trkpt lat="44.30359" lon="4.31743">
        <ele>140.74</ele>
        <time>2019-07-30T16:24:11Z</time>
      </trkpt>
      <trkpt lat="44.3037" lon="4.31767">
        <ele>140.44</ele>
        <time>2019-07-30T16:24:15Z</time>
      </trkpt>
      <trkpt lat="44.30382" lon="4.31794">
        <ele>139.47</ele>
        <time>2019-07-30T16:24:19Z</time>
      </trkpt>
      <trkpt lat="44.30393" lon="4.31821">
        <ele>139.3</ele>
        <time>2019-07-30T16:24:23Z</time>
      </trkpt>
      <trkpt lat="44.30401" lon="4.31844">
        <ele>138.96</ele>
        <time>2019-07-30T16:24:26Z</time>
      </trkpt>
      <trkpt lat="44.30411" lon="4.31873">
        <ele>140.52</ele>
        <time>2019-07-30T16:24:30Z</time>
      </trkpt>
      <trkpt lat="44.30417" lon="4.31898">
        <ele>143.11</ele>
        <time>2019-07-30T16:24:34Z</time>
      </trkpt>
      <trkpt lat="44.30417" lon="4.31929">
        <ele>140.75</ele>
        <time>2019-07-30T16:24:38Z</time>
      </trkpt>
      <trkpt lat="44.30417" lon="4.31962">
        <ele>138.75</ele>
        <time>2019-07-30T16:24:42Z</time>
      </trkpt>
      <trkpt lat="44.30418" lon="4.31993">
        <ele>138.51</ele>
        <time>2019-07-30T16:24:46Z</time>
      </trkpt>
      <trkpt lat="44.3042" lon="4.32024">
        <ele>138.06</ele>
        <time>2019-07-30T16:24:50Z</time>
      </trkpt>
      <trkpt lat="44.30421" lon="4.32056">
        <ele>137.89</ele>
        <time>2019-07-30T16:24:54Z</time>
      </trkpt>
      <trkpt lat="44.30423" lon="4.32089">
        <ele>137.11</ele>
        <time>2019-07-30T16:24:58Z</time>
      </trkpt>
      <trkpt lat="44.30425" lon="4.32121">
        <ele>136.53</ele>
        <time>2019-07-30T16:25:02Z</time>
      </trkpt>
      <trkpt lat="44.30426" lon="4.32154">
        <ele>136.11</ele>
        <time>2019-07-30T16:25:06Z</time>
      </trkpt>
      <trkpt lat="44.30428" lon="4.32186">
        <ele>136.4</ele>
        <time>2019-07-30T16:25:10Z</time>
      </trkpt>
      <trkpt lat="44.3043" lon="4.32218">
        <ele>136.1</ele>
        <time>2019-07-30T16:25:14Z</time>
      </trkpt>
      <trkpt lat="44.30431" lon="4.32251">
        <ele>135.66</ele>
        <time>2019-07-30T16:25:18Z</time>
      </trkpt>
      <trkpt lat="44.30432" lon="4.32283">
        <ele>135.6</ele>
        <time>2019-07-30T16:25:22Z</time>
      </trkpt>
      <trkpt lat="44.30434" lon="4.32314">
        <ele>136.51</ele>
        <time>2019-07-30T16:25:26Z</time>
      </trkpt>
      <trkpt lat="44.30436" lon="4.32345">
        <ele>136.2</ele>
        <time>2019-07-30T16:25:30Z</time>
      </trkpt>
      <trkpt lat="44.30436" lon="4.32378">
        <ele>135.19</ele>
        <time>2019-07-30T16:25:34Z</time>
      </trkpt>
      <trkpt lat="44.30438" lon="4.32411">
        <ele>134.39</ele>
        <time>2019-07-30T16:25:38Z</time>
      </trkpt>
      <trkpt lat="44.30441" lon="4.32443">
        <ele>135.91</ele>
        <time>2019-07-30T16:25:42Z</time>
      </trkpt>
      <trkpt lat="44.30441" lon="4.32472">
        <ele>136.44</ele>
        <time>2019-07-30T16:25:46Z</time>
      </trkpt>
      <trkpt lat="44.30443" lon="4.32502">
        <ele>135.34</ele>
        <time>2019-07-30T16:25:50Z</time>
      </trkpt>
      <trkpt lat="44.30443" lon="4.32533">
        <ele>135.23</ele>
        <time>2019-07-30T16:25:54Z</time>
      </trkpt>
      <trkpt lat="44.30445" lon="4.32566">
        <ele>134.98</ele>
        <time>2019-07-30T16:25:58Z</time>
      </trkpt>
      <trkpt lat="44.30447" lon="4.32593">
        <ele>135.33</ele>
        <time>2019-07-30T16:26:02Z</time>
      </trkpt>
      <trkpt lat="44.30449" lon="4.32621">
        <ele>135.81</ele>
        <time>2019-07-30T16:26:06Z</time>
      </trkpt>
      <trkpt lat="44.3045" lon="4.32651">
        <ele>135.17</ele>
        <time>2019-07-30T16:26:10Z</time>
      </trkpt>
      <trkpt lat="44.3045" lon="4.32683">
        <ele>134.36</ele>
        <time>2019-07-30T16:26:14Z</time>
      </trkpt>
      <trkpt lat="44.30452" lon="4.32714">
        <ele>133.27</ele>
        <time>2019-07-30T16:26:18Z</time>
      </trkpt>
      <trkpt lat="44.30454" lon="4.32741">
        <ele>133.41</ele>
        <time>2019-07-30T16:26:22Z</time>
      </trkpt>
      <trkpt lat="44.30456" lon="4.32769">
        <ele>132.66</ele>
        <time>2019-07-30T16:26:26Z</time>
      </trkpt>
      <trkpt lat="44.30458" lon="4.32797">
        <ele>133.32</ele>
        <time>2019-07-30T16:26:30Z</time>
      </trkpt>
      <trkpt lat="44.30458" lon="4.32828">
        <ele>133.1</ele>
        <time>2019-07-30T16:26:34Z</time>
      </trkpt>
      <trkpt lat="44.30461" lon="4.32861">
        <ele>134.78</ele>
        <time>2019-07-30T16:26:38Z</time>
      </trkpt>
      <trkpt lat="44.30462" lon="4.32894">
        <ele>133.97</ele>
        <time>2019-07-30T16:26:42Z</time>
      </trkpt>
      <trkpt lat="44.30464" lon="4.32925">
        <ele>134.52</ele>
        <time>2019-07-30T16:26:46Z</time>
      </trkpt>
      <trkpt lat="44.30465" lon="4.32956">
        <ele>135.81</ele>
        <time>2019-07-30T16:26:50Z</time>
      </trkpt>
      <trkpt lat="44.30468" lon="4.32988">
        <ele>135.34</ele>
        <time>2019-07-30T16:26:54Z</time>
      </trkpt>
      <trkpt lat="44.3047" lon="4.33021">
        <ele>136.21</ele>
        <time>2019-07-30T16:26:58Z</time>
      </trkpt>
      <trkpt lat="44.30473" lon="4.33048">
        <ele>136.63</ele>
        <time>2019-07-30T16:27:02Z</time>
      </trkpt>
      <trkpt lat="44.30473" lon="4.33075">
        <ele>136.16</ele>
        <time>2019-07-30T16:27:06Z</time>
      </trkpt>
      <trkpt lat="44.30475" lon="4.33105">
        <ele>136.42</ele>
        <time>2019-07-30T16:27:10Z</time>
      </trkpt>
      <trkpt lat="44.30476" lon="4.33137">
        <ele>136.09</ele>
        <time>2019-07-30T16:27:14Z</time>
      </trkpt>
      <trkpt lat="44.30477" lon="4.3317">
        <ele>136.09</ele>
        <time>2019-07-30T16:27:18Z</time>
      </trkpt>
      <trkpt lat="44.30478" lon="4.33202">
        <ele>135.88</ele>
        <time>2019-07-30T16:27:22Z</time>
      </trkpt>
      <trkpt lat="44.3048" lon="4.33234">
        <ele>135.87</ele>
        <time>2019-07-30T16:27:26Z</time>
      </trkpt>
      <trkpt lat="44.30482" lon="4.33267">
        <ele>135.95</ele>
        <time>2019-07-30T16:27:30Z</time>
      </trkpt>
      <trkpt lat="44.30483" lon="4.33297">
        <ele>135.8</ele>
        <time>2019-07-30T16:27:34Z</time>
      </trkpt>
      <trkpt lat="44.30487" lon="4.33324">
        <ele>136.16</ele>
        <time>2019-07-30T16:27:38Z</time>
      </trkpt>
      <trkpt lat="44.30488" lon="4.33353">
        <ele>135.89</ele>
        <time>2019-07-30T16:27:42Z</time>
      </trkpt>
      <trkpt lat="44.3049" lon="4.33386">
        <ele>135.8</ele>
        <time>2019-07-30T16:27:46Z</time>
      </trkpt>
      <trkpt lat="44.30493" lon="4.33419">
        <ele>135.03</ele>
        <time>2019-07-30T16:27:50Z</time>
      </trkpt>
      <trkpt lat="44.30495" lon="4.33444">
        <ele>135.82</ele>
        <time>2019-07-30T16:27:53Z</time>
      </trkpt>
      <trkpt lat="44.30496" lon="4.33477">
        <ele>135.88</ele>
        <time>2019-07-30T16:27:57Z</time>
      </trkpt>
      <trkpt lat="44.30499" lon="4.33502">
        <ele>135.28</ele>
        <time>2019-07-30T16:28:00Z</time>
      </trkpt>
      <trkpt lat="44.305" lon="4.33533">
        <ele>136.87</ele>
        <time>2019-07-30T16:28:04Z</time>
      </trkpt>
      <trkpt lat="44.305" lon="4.33565">
        <ele>136.32</ele>
        <time>2019-07-30T16:28:08Z</time>
      </trkpt>
      <trkpt lat="44.30502" lon="4.33597">
        <ele>136.78</ele>
        <time>2019-07-30T16:28:12Z</time>
      </trkpt>
      <trkpt lat="44.30501" lon="4.3363">
        <ele>135.89</ele>
        <time>2019-07-30T16:28:16Z</time>
      </trkpt>
      <trkpt lat="44.30503" lon="4.33662">
        <ele>135.19</ele>
        <time>2019-07-30T16:28:20Z</time>
      </trkpt>
      <trkpt lat="44.30505" lon="4.33695">
        <ele>135.32</ele>
        <time>2019-07-30T16:28:24Z</time>
      </trkpt>
      <trkpt lat="44.30507" lon="4.33727">
        <ele>136.6</ele>
        <time>2019-07-30T16:28:28Z</time>
      </trkpt>
      <trkpt lat="44.3051" lon="4.33759">
        <ele>137.89</ele>
        <time>2019-07-30T16:28:32Z</time>
      </trkpt>
      <trkpt lat="44.30512" lon="4.33791">
        <ele>138.95</ele>
        <time>2019-07-30T16:28:36Z</time>
      </trkpt>
      <trkpt lat="44.30513" lon="4.33821">
        <ele>138.68</ele>
        <time>2019-07-30T16:28:40Z</time>
      </trkpt>
      <trkpt lat="44.30516" lon="4.33851">
        <ele>139.77</ele>
        <time>2019-07-30T16:28:44Z</time>
      </trkpt>
      <trkpt lat="44.30517" lon="4.33877">
        <ele>139.93</ele>
        <time>2019-07-30T16:28:48Z</time>
      </trkpt>
      <trkpt lat="44.30518" lon="4.33905">
        <ele>139.96</ele>
        <time>2019-07-30T16:28:52Z</time>
      </trkpt>
      <trkpt lat="44.30519" lon="4.33933">
        <ele>139.86</ele>
        <time>2019-07-30T16:28:56Z</time>
      </trkpt>
      <trkpt lat="44.3052" lon="4.33961">
        <ele>140.58</ele>
        <time>2019-07-30T16:29:00Z</time>
      </trkpt>
      <trkpt lat="44.3052" lon="4.33989">
        <ele>141.52</ele>
        <time>2019-07-30T16:29:04Z</time>
      </trkpt>
      <trkpt lat="44.30521" lon="4.34018">
        <ele>142.01</ele>
        <time>2019-07-30T16:29:08Z</time>
      </trkpt>
      <trkpt lat="44.30523" lon="4.34047">
        <ele>141.54</ele>
        <time>2019-07-30T16:29:12Z</time>
      </trkpt>
      <trkpt lat="44.30525" lon="4.34078">
        <ele>142.54</ele>
        <time>2019-07-30T16:29:16Z</time>
      </trkpt>
      <trkpt lat="44.30526" lon="4.34108">
        <ele>142.85</ele>
        <time>2019-07-30T16:29:20Z</time>
      </trkpt>
      <trkpt lat="44.30528" lon="4.34138">
        <ele>143.38</ele>
        <time>2019-07-30T16:29:24Z</time>
      </trkpt>
      <trkpt lat="44.30529" lon="4.34168">
        <ele>144.73</ele>
        <time>2019-07-30T16:29:28Z</time>
      </trkpt>
      <trkpt lat="44.30532" lon="4.34197">
        <ele>144.79</ele>
        <time>2019-07-30T16:29:32Z</time>
      </trkpt>
      <trkpt lat="44.30537" lon="4.34222">
        <ele>146.73</ele>
        <time>2019-07-30T16:29:36Z</time>
      </trkpt>
      <trkpt lat="44.30534" lon="4.34247">
        <ele>146.63</ele>
        <time>2019-07-30T16:29:40Z</time>
      </trkpt>
      <trkpt lat="44.30521" lon="4.34269">
        <ele>147.58</ele>
        <time>2019-07-30T16:29:44Z</time>
      </trkpt>
      <trkpt lat="44.30528" lon="4.34295">
        <ele>147.82</ele>
        <time>2019-07-30T16:29:49Z</time>
      </trkpt>
      <trkpt lat="44.30546" lon="4.34293">
        <ele>145.49</ele>
        <time>2019-07-30T16:29:54Z</time>
      </trkpt>
      <trkpt lat="44.30569" lon="4.34294">
        <ele>145.03</ele>
        <time>2019-07-30T16:29:58Z</time>
      </trkpt>
      <trkpt lat="44.30591" lon="4.34299">
        <ele>146.29</ele>
        <time>2019-07-30T16:30:02Z</time>
      </trkpt>
      <trkpt lat="44.30609" lon="4.34303">
        <ele>147.02</ele>
        <time>2019-07-30T16:30:06Z</time>
      </trkpt>
      <trkpt lat="44.3063" lon="4.3431">
        <ele>148.86</ele>
        <time>2019-07-30T16:30:11Z</time>
      </trkpt>
      <trkpt lat="44.30652" lon="4.34316">
        <ele>148.14</ele>
        <time>2019-07-30T16:30:16Z</time>
      </trkpt>
      <trkpt lat="44.30673" lon="4.34324">
        <ele>147.65</ele>
        <time>2019-07-30T16:30:20Z</time>
      </trkpt>
      <trkpt lat="44.30689" lon="4.34338">
        <ele>148.01</ele>
        <time>2019-07-30T16:30:24Z</time>
      </trkpt>
      <trkpt lat="44.30703" lon="4.34357">
        <ele>148.58</ele>
        <time>2019-07-30T16:30:28Z</time>
      </trkpt>
      <trkpt lat="44.3072" lon="4.34342">
        <ele>146.29</ele>
        <time>2019-07-30T16:30:34Z</time>
      </trkpt>
      <trkpt lat="44.30702" lon="4.34327">
        <ele>141.63</ele>
        <time>2019-07-30T16:30:39Z</time>
      </trkpt>
      <trkpt lat="44.30682" lon="4.3432">
        <ele>141.03</ele>
        <time>2019-07-30T16:30:44Z</time>
      </trkpt>
      <trkpt lat="44.30667" lon="4.34307">
        <ele>139.26</ele>
        <time>2019-07-30T16:30:58Z</time>
      </trkpt>
    </trkseg>
  </trk>
</gpx>